<?xml version="1.0" encoding="UTF-8" standalone="no" ?>
<gpx xmlns="http://www.topografix.com/GPX/1/1" xmlns:xsi="http://www.w3.org/2001/XMLSchema-instance" xsi:schemaLocation="http://www.topografix.com/GPX/1/1 http://www.topografix.com/GPX/1/1/gpx.xsd" version="1.1" creator="VisuGPX - https://www.visugpx.com">
  <metadata>
    <name>Brèche de Bedina - Couloir SE</name>
  </metadata>
  <trk>
    <name><![CDATA[Brèche de Bedina - Couloir SE]]></name>
    <trkseg>
      <trkpt lat="45.22834" lon="5.99272">
        <ele>1291.3</ele>
        <time>2019-12-28T09:52:02Z</time>
      </trkpt>
      <trkpt lat="45.22824" lon="5.99279">
        <ele>1292.8</ele>
        <time>2019-12-28T09:52:04Z</time>
      </trkpt>
      <trkpt lat="45.22819" lon="5.99281">
        <ele>1293.3</ele>
        <time>2019-12-28T09:52:07Z</time>
      </trkpt>
      <trkpt lat="45.22817" lon="5.99283">
        <ele>1293.6</ele>
        <time>2019-12-28T09:52:10Z</time>
      </trkpt>
      <trkpt lat="45.22813" lon="5.99283">
        <ele>1294</ele>
        <time>2019-12-28T09:52:15Z</time>
      </trkpt>
      <trkpt lat="45.2281" lon="5.99284">
        <ele>1294.3</ele>
        <time>2019-12-28T09:52:23Z</time>
      </trkpt>
      <trkpt lat="45.22807" lon="5.99285">
        <ele>1294.6</ele>
        <time>2019-12-28T09:52:27Z</time>
      </trkpt>
      <trkpt lat="45.22802" lon="5.99287">
        <ele>1295.1</ele>
        <time>2019-12-28T09:52:33Z</time>
      </trkpt>
      <trkpt lat="45.228" lon="5.9929">
        <ele>1295.5</ele>
        <time>2019-12-28T09:52:35Z</time>
      </trkpt>
      <trkpt lat="45.22799" lon="5.99295">
        <ele>1295.9</ele>
        <time>2019-12-28T09:52:37Z</time>
      </trkpt>
      <trkpt lat="45.22796" lon="5.99299">
        <ele>1296.5</ele>
        <time>2019-12-28T09:52:44Z</time>
      </trkpt>
      <trkpt lat="45.22794" lon="5.99302">
        <ele>1296.9</ele>
        <time>2019-12-28T09:52:49Z</time>
      </trkpt>
      <trkpt lat="45.22791" lon="5.99303">
        <ele>1297.3</ele>
        <time>2019-12-28T09:52:56Z</time>
      </trkpt>
      <trkpt lat="45.22789" lon="5.99305">
        <ele>1297.7</ele>
        <time>2019-12-28T09:53:02Z</time>
      </trkpt>
      <trkpt lat="45.22784" lon="5.99309">
        <ele>1298.3</ele>
        <time>2019-12-28T09:53:09Z</time>
      </trkpt>
      <trkpt lat="45.22779" lon="5.99312">
        <ele>1299</ele>
        <time>2019-12-28T09:53:11Z</time>
      </trkpt>
      <trkpt lat="45.22775" lon="5.99314">
        <ele>1299.4</ele>
        <time>2019-12-28T09:53:13Z</time>
      </trkpt>
      <trkpt lat="45.22772" lon="5.99318">
        <ele>1299.7</ele>
        <time>2019-12-28T09:53:18Z</time>
      </trkpt>
      <trkpt lat="45.22769" lon="5.99321">
        <ele>1300</ele>
        <time>2019-12-28T09:53:23Z</time>
      </trkpt>
      <trkpt lat="45.22768" lon="5.99324">
        <ele>1300.3</ele>
        <time>2019-12-28T09:53:56Z</time>
      </trkpt>
      <trkpt lat="45.22765" lon="5.99327">
        <ele>1300.7</ele>
        <time>2019-12-28T09:53:59Z</time>
      </trkpt>
      <trkpt lat="45.22763" lon="5.99329">
        <ele>1301.1</ele>
        <time>2019-12-28T09:54:04Z</time>
      </trkpt>
      <trkpt lat="45.2276" lon="5.99332">
        <ele>1301.5</ele>
        <time>2019-12-28T09:54:08Z</time>
      </trkpt>
      <trkpt lat="45.22758" lon="5.99334">
        <ele>1301.8</ele>
        <time>2019-12-28T09:54:11Z</time>
      </trkpt>
      <trkpt lat="45.22756" lon="5.99337">
        <ele>1302.2</ele>
        <time>2019-12-28T09:54:15Z</time>
      </trkpt>
      <trkpt lat="45.22754" lon="5.99341">
        <ele>1302.5</ele>
        <time>2019-12-28T09:54:18Z</time>
      </trkpt>
      <trkpt lat="45.22754" lon="5.99345">
        <ele>1302.7</ele>
        <time>2019-12-28T09:54:45Z</time>
      </trkpt>
      <trkpt lat="45.22751" lon="5.99348">
        <ele>1302.9</ele>
        <time>2019-12-28T09:54:56Z</time>
      </trkpt>
      <trkpt lat="45.22747" lon="5.9935">
        <ele>1303.1</ele>
        <time>2019-12-28T09:55:01Z</time>
      </trkpt>
      <trkpt lat="45.22744" lon="5.99352">
        <ele>1303.2</ele>
        <time>2019-12-28T09:55:06Z</time>
      </trkpt>
      <trkpt lat="45.22744" lon="5.99357">
        <ele>1303.3</ele>
        <time>2019-12-28T09:55:08Z</time>
      </trkpt>
      <trkpt lat="45.22742" lon="5.99361">
        <ele>1303.3</ele>
        <time>2019-12-28T09:55:11Z</time>
      </trkpt>
      <trkpt lat="45.2274" lon="5.99365">
        <ele>1303.4</ele>
        <time>2019-12-28T09:55:14Z</time>
      </trkpt>
      <trkpt lat="45.22738" lon="5.99369">
        <ele>1303.4</ele>
        <time>2019-12-28T09:55:17Z</time>
      </trkpt>
      <trkpt lat="45.22735" lon="5.99374">
        <ele>1303.4</ele>
        <time>2019-12-28T09:55:21Z</time>
      </trkpt>
      <trkpt lat="45.22732" lon="5.99376">
        <ele>1303.4</ele>
        <time>2019-12-28T09:55:23Z</time>
      </trkpt>
      <trkpt lat="45.22729" lon="5.99379">
        <ele>1303.5</ele>
        <time>2019-12-28T09:55:27Z</time>
      </trkpt>
      <trkpt lat="45.22724" lon="5.99382">
        <ele>1303.8</ele>
        <time>2019-12-28T09:55:31Z</time>
      </trkpt>
      <trkpt lat="45.2272" lon="5.99384">
        <ele>1304.3</ele>
        <time>2019-12-28T09:55:34Z</time>
      </trkpt>
      <trkpt lat="45.22717" lon="5.99386">
        <ele>1304.7</ele>
        <time>2019-12-28T09:55:37Z</time>
      </trkpt>
      <trkpt lat="45.22715" lon="5.99389">
        <ele>1305.2</ele>
        <time>2019-12-28T09:55:45Z</time>
      </trkpt>
      <trkpt lat="45.22712" lon="5.99391">
        <ele>1305.8</ele>
        <time>2019-12-28T09:55:52Z</time>
      </trkpt>
      <trkpt lat="45.22709" lon="5.99393">
        <ele>1306.5</ele>
        <time>2019-12-28T09:55:57Z</time>
      </trkpt>
      <trkpt lat="45.22705" lon="5.99396">
        <ele>1307.3</ele>
        <time>2019-12-28T09:56:01Z</time>
      </trkpt>
      <trkpt lat="45.227" lon="5.99399">
        <ele>1308.1</ele>
        <time>2019-12-28T09:56:04Z</time>
      </trkpt>
      <trkpt lat="45.22696" lon="5.99402">
        <ele>1308.9</ele>
        <time>2019-12-28T09:56:07Z</time>
      </trkpt>
      <trkpt lat="45.22694" lon="5.99405">
        <ele>1309.4</ele>
        <time>2019-12-28T09:56:09Z</time>
      </trkpt>
      <trkpt lat="45.2269" lon="5.99406">
        <ele>1310.3</ele>
        <time>2019-12-28T09:56:13Z</time>
      </trkpt>
      <trkpt lat="45.22685" lon="5.99406">
        <ele>1311.3</ele>
        <time>2019-12-28T09:56:19Z</time>
      </trkpt>
      <trkpt lat="45.22682" lon="5.99406">
        <ele>1311.7</ele>
        <time>2019-12-28T09:56:22Z</time>
      </trkpt>
      <trkpt lat="45.22679" lon="5.99407">
        <ele>1312.2</ele>
        <time>2019-12-28T09:56:25Z</time>
      </trkpt>
      <trkpt lat="45.22677" lon="5.99409">
        <ele>1312.4</ele>
        <time>2019-12-28T09:56:30Z</time>
      </trkpt>
      <trkpt lat="45.22674" lon="5.99411">
        <ele>1312.5</ele>
        <time>2019-12-28T09:57:05Z</time>
      </trkpt>
      <trkpt lat="45.2267" lon="5.99413">
        <ele>1312.6</ele>
        <time>2019-12-28T09:57:10Z</time>
      </trkpt>
      <trkpt lat="45.22665" lon="5.9942">
        <ele>1312.8</ele>
        <time>2019-12-28T09:57:21Z</time>
      </trkpt>
      <trkpt lat="45.22662" lon="5.99423">
        <ele>1312.9</ele>
        <time>2019-12-28T09:57:23Z</time>
      </trkpt>
      <trkpt lat="45.22658" lon="5.99425">
        <ele>1313.1</ele>
        <time>2019-12-28T09:57:31Z</time>
      </trkpt>
      <trkpt lat="45.22655" lon="5.99428">
        <ele>1313.2</ele>
        <time>2019-12-28T09:57:35Z</time>
      </trkpt>
      <trkpt lat="45.22651" lon="5.99431">
        <ele>1313.4</ele>
        <time>2019-12-28T09:57:41Z</time>
      </trkpt>
      <trkpt lat="45.22649" lon="5.99434">
        <ele>1313.5</ele>
        <time>2019-12-28T09:57:45Z</time>
      </trkpt>
      <trkpt lat="45.22644" lon="5.99432">
        <ele>1313.6</ele>
        <time>2019-12-28T09:57:59Z</time>
      </trkpt>
      <trkpt lat="45.22642" lon="5.99433">
        <ele>1313.7</ele>
        <time>2019-12-28T09:58:02Z</time>
      </trkpt>
      <trkpt lat="45.22639" lon="5.99435">
        <ele>1313.9</ele>
        <time>2019-12-28T09:58:05Z</time>
      </trkpt>
      <trkpt lat="45.22635" lon="5.99437">
        <ele>1314</ele>
        <time>2019-12-28T09:58:09Z</time>
      </trkpt>
      <trkpt lat="45.22632" lon="5.99439">
        <ele>1314.1</ele>
        <time>2019-12-28T09:58:13Z</time>
      </trkpt>
      <trkpt lat="45.2263" lon="5.99442">
        <ele>1314.2</ele>
        <time>2019-12-28T09:58:15Z</time>
      </trkpt>
      <trkpt lat="45.22627" lon="5.99446">
        <ele>1314.4</ele>
        <time>2019-12-28T09:58:18Z</time>
      </trkpt>
      <trkpt lat="45.22625" lon="5.99448">
        <ele>1314.5</ele>
        <time>2019-12-28T09:58:21Z</time>
      </trkpt>
      <trkpt lat="45.22623" lon="5.99451">
        <ele>1314.6</ele>
        <time>2019-12-28T09:58:23Z</time>
      </trkpt>
      <trkpt lat="45.22621" lon="5.99454">
        <ele>1314.8</ele>
        <time>2019-12-28T09:58:25Z</time>
      </trkpt>
      <trkpt lat="45.22618" lon="5.99458">
        <ele>1315</ele>
        <time>2019-12-28T09:58:29Z</time>
      </trkpt>
      <trkpt lat="45.22615" lon="5.99462">
        <ele>1315.2</ele>
        <time>2019-12-28T09:58:33Z</time>
      </trkpt>
      <trkpt lat="45.22612" lon="5.99465">
        <ele>1315.4</ele>
        <time>2019-12-28T09:58:36Z</time>
      </trkpt>
      <trkpt lat="45.2261" lon="5.9947">
        <ele>1315.6</ele>
        <time>2019-12-28T09:58:39Z</time>
      </trkpt>
      <trkpt lat="45.22608" lon="5.99477">
        <ele>1315.9</ele>
        <time>2019-12-28T09:58:43Z</time>
      </trkpt>
      <trkpt lat="45.22604" lon="5.99481">
        <ele>1316.2</ele>
        <time>2019-12-28T09:58:47Z</time>
      </trkpt>
      <trkpt lat="45.226" lon="5.99485">
        <ele>1316.5</ele>
        <time>2019-12-28T09:58:50Z</time>
      </trkpt>
      <trkpt lat="45.22599" lon="5.99489">
        <ele>1316.7</ele>
        <time>2019-12-28T09:58:55Z</time>
      </trkpt>
      <trkpt lat="45.22597" lon="5.99492">
        <ele>1316.9</ele>
        <time>2019-12-28T09:58:59Z</time>
      </trkpt>
      <trkpt lat="45.22594" lon="5.99498">
        <ele>1317.4</ele>
        <time>2019-12-28T09:59:03Z</time>
      </trkpt>
      <trkpt lat="45.2259" lon="5.99501">
        <ele>1317.8</ele>
        <time>2019-12-28T09:59:07Z</time>
      </trkpt>
      <trkpt lat="45.22587" lon="5.99503">
        <ele>1318.2</ele>
        <time>2019-12-28T09:59:11Z</time>
      </trkpt>
      <trkpt lat="45.22584" lon="5.99505">
        <ele>1318.6</ele>
        <time>2019-12-28T09:59:15Z</time>
      </trkpt>
      <trkpt lat="45.22581" lon="5.99508">
        <ele>1319</ele>
        <time>2019-12-28T09:59:21Z</time>
      </trkpt>
      <trkpt lat="45.22577" lon="5.99512">
        <ele>1319.5</ele>
        <time>2019-12-28T09:59:27Z</time>
      </trkpt>
      <trkpt lat="45.22574" lon="5.99515">
        <ele>1320</ele>
        <time>2019-12-28T09:59:31Z</time>
      </trkpt>
      <trkpt lat="45.22571" lon="5.99518">
        <ele>1320.4</ele>
        <time>2019-12-28T09:59:33Z</time>
      </trkpt>
      <trkpt lat="45.22568" lon="5.9952">
        <ele>1320.8</ele>
        <time>2019-12-28T09:59:34Z</time>
      </trkpt>
      <trkpt lat="45.22566" lon="5.99522">
        <ele>1321.1</ele>
        <time>2019-12-28T09:59:35Z</time>
      </trkpt>
      <trkpt lat="45.22564" lon="5.99525">
        <ele>1321.4</ele>
        <time>2019-12-28T09:59:37Z</time>
      </trkpt>
      <trkpt lat="45.22561" lon="5.99528">
        <ele>1321.7</ele>
        <time>2019-12-28T09:59:41Z</time>
      </trkpt>
      <trkpt lat="45.22559" lon="5.99531">
        <ele>1322.1</ele>
        <time>2019-12-28T09:59:44Z</time>
      </trkpt>
      <trkpt lat="45.22558" lon="5.99535">
        <ele>1322.4</ele>
        <time>2019-12-28T09:59:47Z</time>
      </trkpt>
      <trkpt lat="45.22556" lon="5.99538">
        <ele>1322.8</ele>
        <time>2019-12-28T09:59:52Z</time>
      </trkpt>
      <trkpt lat="45.22554" lon="5.99542">
        <ele>1323.2</ele>
        <time>2019-12-28T09:59:56Z</time>
      </trkpt>
      <trkpt lat="45.22552" lon="5.99546">
        <ele>1323.5</ele>
        <time>2019-12-28T10:00:00Z</time>
      </trkpt>
      <trkpt lat="45.2255" lon="5.9955">
        <ele>1323.8</ele>
        <time>2019-12-28T10:00:09Z</time>
      </trkpt>
      <trkpt lat="45.22548" lon="5.99552">
        <ele>1324.1</ele>
        <time>2019-12-28T10:00:11Z</time>
      </trkpt>
      <trkpt lat="45.22545" lon="5.99555">
        <ele>1324.5</ele>
        <time>2019-12-28T10:00:17Z</time>
      </trkpt>
      <trkpt lat="45.22542" lon="5.99559">
        <ele>1324.8</ele>
        <time>2019-12-28T10:00:20Z</time>
      </trkpt>
      <trkpt lat="45.2254" lon="5.99562">
        <ele>1325.1</ele>
        <time>2019-12-28T10:00:22Z</time>
      </trkpt>
      <trkpt lat="45.22537" lon="5.99565">
        <ele>1325.3</ele>
        <time>2019-12-28T10:00:24Z</time>
      </trkpt>
      <trkpt lat="45.22534" lon="5.99568">
        <ele>1325.6</ele>
        <time>2019-12-28T10:00:28Z</time>
      </trkpt>
      <trkpt lat="45.2253" lon="5.99571">
        <ele>1325.9</ele>
        <time>2019-12-28T10:00:32Z</time>
      </trkpt>
      <trkpt lat="45.22527" lon="5.99573">
        <ele>1326.1</ele>
        <time>2019-12-28T10:00:36Z</time>
      </trkpt>
      <trkpt lat="45.22524" lon="5.99576">
        <ele>1326.4</ele>
        <time>2019-12-28T10:00:42Z</time>
      </trkpt>
      <trkpt lat="45.22522" lon="5.99579">
        <ele>1326.7</ele>
        <time>2019-12-28T10:00:48Z</time>
      </trkpt>
      <trkpt lat="45.2252" lon="5.99581">
        <ele>1327</ele>
        <time>2019-12-28T10:00:52Z</time>
      </trkpt>
      <trkpt lat="45.22518" lon="5.99586">
        <ele>1327.3</ele>
        <time>2019-12-28T10:00:56Z</time>
      </trkpt>
      <trkpt lat="45.22517" lon="5.9959">
        <ele>1327.6</ele>
        <time>2019-12-28T10:01:00Z</time>
      </trkpt>
      <trkpt lat="45.22516" lon="5.99596">
        <ele>1328</ele>
        <time>2019-12-28T10:01:06Z</time>
      </trkpt>
      <trkpt lat="45.22516" lon="5.996">
        <ele>1328.2</ele>
        <time>2019-12-28T10:01:09Z</time>
      </trkpt>
      <trkpt lat="45.22515" lon="5.99605">
        <ele>1328.5</ele>
        <time>2019-12-28T10:01:12Z</time>
      </trkpt>
      <trkpt lat="45.22514" lon="5.99609">
        <ele>1328.8</ele>
        <time>2019-12-28T10:01:16Z</time>
      </trkpt>
      <trkpt lat="45.22513" lon="5.99614">
        <ele>1329.1</ele>
        <time>2019-12-28T10:01:21Z</time>
      </trkpt>
      <trkpt lat="45.22513" lon="5.99619">
        <ele>1329.5</ele>
        <time>2019-12-28T10:01:24Z</time>
      </trkpt>
      <trkpt lat="45.22513" lon="5.99624">
        <ele>1329.9</ele>
        <time>2019-12-28T10:01:29Z</time>
      </trkpt>
      <trkpt lat="45.22514" lon="5.9963">
        <ele>1330.4</ele>
        <time>2019-12-28T10:01:38Z</time>
      </trkpt>
      <trkpt lat="45.22514" lon="5.99635">
        <ele>1330.7</ele>
        <time>2019-12-28T10:01:42Z</time>
      </trkpt>
      <trkpt lat="45.22514" lon="5.99639">
        <ele>1331</ele>
        <time>2019-12-28T10:01:46Z</time>
      </trkpt>
      <trkpt lat="45.22514" lon="5.99643">
        <ele>1331.3</ele>
        <time>2019-12-28T10:01:52Z</time>
      </trkpt>
      <trkpt lat="45.22516" lon="5.99651">
        <ele>1331.9</ele>
        <time>2019-12-28T10:01:56Z</time>
      </trkpt>
      <trkpt lat="45.22517" lon="5.99654">
        <ele>1332.1</ele>
        <time>2019-12-28T10:01:58Z</time>
      </trkpt>
      <trkpt lat="45.22517" lon="5.9966">
        <ele>1332.5</ele>
        <time>2019-12-28T10:02:02Z</time>
      </trkpt>
      <trkpt lat="45.22518" lon="5.99665">
        <ele>1332.9</ele>
        <time>2019-12-28T10:02:06Z</time>
      </trkpt>
      <trkpt lat="45.22519" lon="5.99669">
        <ele>1333.2</ele>
        <time>2019-12-28T10:02:08Z</time>
      </trkpt>
      <trkpt lat="45.22519" lon="5.99677">
        <ele>1333.6</ele>
        <time>2019-12-28T10:02:12Z</time>
      </trkpt>
      <trkpt lat="45.22518" lon="5.99681">
        <ele>1333.9</ele>
        <time>2019-12-28T10:02:16Z</time>
      </trkpt>
      <trkpt lat="45.22516" lon="5.99688">
        <ele>1334.3</ele>
        <time>2019-12-28T10:02:20Z</time>
      </trkpt>
      <trkpt lat="45.22515" lon="5.99694">
        <ele>1334.7</ele>
        <time>2019-12-28T10:02:24Z</time>
      </trkpt>
      <trkpt lat="45.22514" lon="5.997">
        <ele>1335.1</ele>
        <time>2019-12-28T10:02:28Z</time>
      </trkpt>
      <trkpt lat="45.22512" lon="5.99706">
        <ele>1335.6</ele>
        <time>2019-12-28T10:02:32Z</time>
      </trkpt>
      <trkpt lat="45.22512" lon="5.9971">
        <ele>1335.9</ele>
        <time>2019-12-28T10:02:34Z</time>
      </trkpt>
      <trkpt lat="45.22511" lon="5.99716">
        <ele>1336.3</ele>
        <time>2019-12-28T10:02:40Z</time>
      </trkpt>
      <trkpt lat="45.22511" lon="5.99722">
        <ele>1336.7</ele>
        <time>2019-12-28T10:02:44Z</time>
      </trkpt>
      <trkpt lat="45.22509" lon="5.99727">
        <ele>1337.1</ele>
        <time>2019-12-28T10:02:52Z</time>
      </trkpt>
      <trkpt lat="45.22507" lon="5.99731">
        <ele>1337.5</ele>
        <time>2019-12-28T10:02:54Z</time>
      </trkpt>
      <trkpt lat="45.22504" lon="5.99738">
        <ele>1338</ele>
        <time>2019-12-28T10:02:58Z</time>
      </trkpt>
      <trkpt lat="45.22503" lon="5.99743">
        <ele>1338.4</ele>
        <time>2019-12-28T10:03:02Z</time>
      </trkpt>
      <trkpt lat="45.22501" lon="5.9975">
        <ele>1338.8</ele>
        <time>2019-12-28T10:03:06Z</time>
      </trkpt>
      <trkpt lat="45.22502" lon="5.99755">
        <ele>1339.2</ele>
        <time>2019-12-28T10:03:10Z</time>
      </trkpt>
      <trkpt lat="45.22502" lon="5.99761">
        <ele>1339.6</ele>
        <time>2019-12-28T10:03:14Z</time>
      </trkpt>
      <trkpt lat="45.22501" lon="5.99765">
        <ele>1339.9</ele>
        <time>2019-12-28T10:03:18Z</time>
      </trkpt>
      <trkpt lat="45.225" lon="5.9977">
        <ele>1340.2</ele>
        <time>2019-12-28T10:03:32Z</time>
      </trkpt>
      <trkpt lat="45.225" lon="5.99774">
        <ele>1340.4</ele>
        <time>2019-12-28T10:03:34Z</time>
      </trkpt>
      <trkpt lat="45.225" lon="5.9978">
        <ele>1340.8</ele>
        <time>2019-12-28T10:03:36Z</time>
      </trkpt>
      <trkpt lat="45.225" lon="5.99784">
        <ele>1341.1</ele>
        <time>2019-12-28T10:03:38Z</time>
      </trkpt>
      <trkpt lat="45.225" lon="5.99789">
        <ele>1341.3</ele>
        <time>2019-12-28T10:03:40Z</time>
      </trkpt>
      <trkpt lat="45.225" lon="5.99795">
        <ele>1341.7</ele>
        <time>2019-12-28T10:03:44Z</time>
      </trkpt>
      <trkpt lat="45.225" lon="5.99801">
        <ele>1342</ele>
        <time>2019-12-28T10:03:46Z</time>
      </trkpt>
      <trkpt lat="45.22499" lon="5.99805">
        <ele>1342.3</ele>
        <time>2019-12-28T10:03:48Z</time>
      </trkpt>
      <trkpt lat="45.22497" lon="5.99811">
        <ele>1342.6</ele>
        <time>2019-12-28T10:03:52Z</time>
      </trkpt>
      <trkpt lat="45.22495" lon="5.99815">
        <ele>1342.9</ele>
        <time>2019-12-28T10:03:56Z</time>
      </trkpt>
      <trkpt lat="45.22492" lon="5.9982">
        <ele>1343.1</ele>
        <time>2019-12-28T10:03:59Z</time>
      </trkpt>
      <trkpt lat="45.22489" lon="5.99824">
        <ele>1343.4</ele>
        <time>2019-12-28T10:04:02Z</time>
      </trkpt>
      <trkpt lat="45.22486" lon="5.99828">
        <ele>1343.7</ele>
        <time>2019-12-28T10:04:06Z</time>
      </trkpt>
      <trkpt lat="45.22484" lon="5.99832">
        <ele>1343.9</ele>
        <time>2019-12-28T10:04:10Z</time>
      </trkpt>
      <trkpt lat="45.22481" lon="5.99834">
        <ele>1344.1</ele>
        <time>2019-12-28T10:04:14Z</time>
      </trkpt>
      <trkpt lat="45.22479" lon="5.99836">
        <ele>1344.4</ele>
        <time>2019-12-28T10:04:17Z</time>
      </trkpt>
      <trkpt lat="45.22476" lon="5.99838">
        <ele>1344.5</ele>
        <time>2019-12-28T10:04:20Z</time>
      </trkpt>
      <trkpt lat="45.22473" lon="5.99839">
        <ele>1344.7</ele>
        <time>2019-12-28T10:04:24Z</time>
      </trkpt>
      <trkpt lat="45.2247" lon="5.99841">
        <ele>1344.9</ele>
        <time>2019-12-28T10:04:28Z</time>
      </trkpt>
      <trkpt lat="45.22464" lon="5.99845">
        <ele>1345.2</ele>
        <time>2019-12-28T10:04:32Z</time>
      </trkpt>
      <trkpt lat="45.22461" lon="5.99846">
        <ele>1345.7</ele>
        <time>2019-12-28T10:04:34Z</time>
      </trkpt>
      <trkpt lat="45.22458" lon="5.99847">
        <ele>1346.2</ele>
        <time>2019-12-28T10:04:38Z</time>
      </trkpt>
      <trkpt lat="45.22455" lon="5.99849">
        <ele>1346.7</ele>
        <time>2019-12-28T10:04:42Z</time>
      </trkpt>
      <trkpt lat="45.22452" lon="5.99853">
        <ele>1347.3</ele>
        <time>2019-12-28T10:04:46Z</time>
      </trkpt>
      <trkpt lat="45.22449" lon="5.99857">
        <ele>1348</ele>
        <time>2019-12-28T10:04:50Z</time>
      </trkpt>
      <trkpt lat="45.22448" lon="5.99863">
        <ele>1348.6</ele>
        <time>2019-12-28T10:04:54Z</time>
      </trkpt>
      <trkpt lat="45.22448" lon="5.9987">
        <ele>1349.3</ele>
        <time>2019-12-28T10:04:58Z</time>
      </trkpt>
      <trkpt lat="45.22447" lon="5.99877">
        <ele>1350</ele>
        <time>2019-12-28T10:05:02Z</time>
      </trkpt>
      <trkpt lat="45.22448" lon="5.99882">
        <ele>1350.4</ele>
        <time>2019-12-28T10:05:06Z</time>
      </trkpt>
      <trkpt lat="45.22449" lon="5.99887">
        <ele>1350.9</ele>
        <time>2019-12-28T10:05:12Z</time>
      </trkpt>
      <trkpt lat="45.2245" lon="5.99891">
        <ele>1351.3</ele>
        <time>2019-12-28T10:05:20Z</time>
      </trkpt>
      <trkpt lat="45.2245" lon="5.99896">
        <ele>1351.9</ele>
        <time>2019-12-28T10:05:26Z</time>
      </trkpt>
      <trkpt lat="45.22451" lon="5.999">
        <ele>1352.4</ele>
        <time>2019-12-28T10:05:30Z</time>
      </trkpt>
      <trkpt lat="45.22451" lon="5.99906">
        <ele>1353</ele>
        <time>2019-12-28T10:05:34Z</time>
      </trkpt>
      <trkpt lat="45.22451" lon="5.9991">
        <ele>1353.5</ele>
        <time>2019-12-28T10:05:38Z</time>
      </trkpt>
      <trkpt lat="45.22452" lon="5.99914">
        <ele>1354</ele>
        <time>2019-12-28T10:05:42Z</time>
      </trkpt>
      <trkpt lat="45.22455" lon="5.99916">
        <ele>1354.5</ele>
        <time>2019-12-28T10:05:50Z</time>
      </trkpt>
      <trkpt lat="45.22456" lon="5.99921">
        <ele>1355.1</ele>
        <time>2019-12-28T10:05:56Z</time>
      </trkpt>
      <trkpt lat="45.22456" lon="5.99925">
        <ele>1355.6</ele>
        <time>2019-12-28T10:06:02Z</time>
      </trkpt>
      <trkpt lat="45.22457" lon="5.99929">
        <ele>1356.1</ele>
        <time>2019-12-28T10:06:04Z</time>
      </trkpt>
      <trkpt lat="45.22457" lon="5.99934">
        <ele>1356.7</ele>
        <time>2019-12-28T10:06:08Z</time>
      </trkpt>
      <trkpt lat="45.22458" lon="5.99938">
        <ele>1357.3</ele>
        <time>2019-12-28T10:06:18Z</time>
      </trkpt>
      <trkpt lat="45.22458" lon="5.99943">
        <ele>1357.9</ele>
        <time>2019-12-28T10:06:30Z</time>
      </trkpt>
      <trkpt lat="45.22458" lon="5.99948">
        <ele>1358.6</ele>
        <time>2019-12-28T10:06:38Z</time>
      </trkpt>
      <trkpt lat="45.22457" lon="5.99953">
        <ele>1359.3</ele>
        <time>2019-12-28T10:06:41Z</time>
      </trkpt>
      <trkpt lat="45.22456" lon="5.99959">
        <ele>1360.1</ele>
        <time>2019-12-28T10:06:43Z</time>
      </trkpt>
      <trkpt lat="45.22455" lon="5.99963">
        <ele>1360.7</ele>
        <time>2019-12-28T10:06:46Z</time>
      </trkpt>
      <trkpt lat="45.22454" lon="5.99969">
        <ele>1361.6</ele>
        <time>2019-12-28T10:06:50Z</time>
      </trkpt>
      <trkpt lat="45.22454" lon="5.99974">
        <ele>1362.2</ele>
        <time>2019-12-28T10:06:55Z</time>
      </trkpt>
      <trkpt lat="45.22452" lon="5.99978">
        <ele>1362.8</ele>
        <time>2019-12-28T10:07:00Z</time>
      </trkpt>
      <trkpt lat="45.22451" lon="5.99983">
        <ele>1363.4</ele>
        <time>2019-12-28T10:07:05Z</time>
      </trkpt>
      <trkpt lat="45.22449" lon="5.99989">
        <ele>1363.6</ele>
        <time>2019-12-28T10:07:10Z</time>
      </trkpt>
      <trkpt lat="45.22446" lon="5.99991">
        <ele>1364.4</ele>
        <time>2019-12-28T10:07:20Z</time>
      </trkpt>
      <trkpt lat="45.22449" lon="5.99993">
        <ele>1366.2</ele>
        <time>2019-12-28T10:07:38Z</time>
      </trkpt>
      <trkpt lat="45.22452" lon="5.99995">
        <ele>1368.9</ele>
        <time>2019-12-28T10:07:46Z</time>
      </trkpt>
      <trkpt lat="45.22455" lon="5.99997">
        <ele>1372.5</ele>
        <time>2019-12-28T10:07:56Z</time>
      </trkpt>
      <trkpt lat="45.22458" lon="5.99998">
        <ele>1375</ele>
        <time>2019-12-28T10:08:04Z</time>
      </trkpt>
      <trkpt lat="45.2246" lon="6">
        <ele>1378.5</ele>
        <time>2019-12-28T10:08:22Z</time>
      </trkpt>
      <trkpt lat="45.22463" lon="6.00003">
        <ele>1380.8</ele>
        <time>2019-12-28T10:08:36Z</time>
      </trkpt>
      <trkpt lat="45.22466" lon="6.00004">
        <ele>1384.4</ele>
        <time>2019-12-28T10:08:52Z</time>
      </trkpt>
      <trkpt lat="45.22466" lon="6.00008">
        <ele>1385.2</ele>
        <time>2019-12-28T10:09:10Z</time>
      </trkpt>
      <trkpt lat="45.22468" lon="6.00012">
        <ele>1388.9</ele>
        <time>2019-12-28T10:09:44Z</time>
      </trkpt>
      <trkpt lat="45.22471" lon="6.00013">
        <ele>1392.7</ele>
        <time>2019-12-28T10:09:58Z</time>
      </trkpt>
      <trkpt lat="45.22471" lon="6.00018">
        <ele>1395.3</ele>
        <time>2019-12-28T10:10:28Z</time>
      </trkpt>
      <trkpt lat="45.2247" lon="6.00022">
        <ele>1396.5</ele>
        <time>2019-12-28T10:10:34Z</time>
      </trkpt>
      <trkpt lat="45.22469" lon="6.00025">
        <ele>1399.3</ele>
        <time>2019-12-28T10:10:40Z</time>
      </trkpt>
      <trkpt lat="45.2247" lon="6.00029">
        <ele>1400.1</ele>
        <time>2019-12-28T10:10:44Z</time>
      </trkpt>
      <trkpt lat="45.22469" lon="6.00034">
        <ele>1402.7</ele>
        <time>2019-12-28T10:10:50Z</time>
      </trkpt>
      <trkpt lat="45.2247" lon="6.00041">
        <ele>1406.7</ele>
        <time>2019-12-28T10:11:20Z</time>
      </trkpt>
      <trkpt lat="45.2247" lon="6.00045">
        <ele>1408.9</ele>
        <time>2019-12-28T10:11:28Z</time>
      </trkpt>
      <trkpt lat="45.22471" lon="6.0005">
        <ele>1412.6</ele>
        <time>2019-12-28T10:11:30Z</time>
      </trkpt>
      <trkpt lat="45.22472" lon="6.00054">
        <ele>1413.1</ele>
        <time>2019-12-28T10:11:32Z</time>
      </trkpt>
      <trkpt lat="45.22473" lon="6.00058">
        <ele>1413.6</ele>
        <time>2019-12-28T10:11:40Z</time>
      </trkpt>
      <trkpt lat="45.2247" lon="6.00057">
        <ele>1414.1</ele>
        <time>2019-12-28T10:13:44Z</time>
      </trkpt>
      <trkpt lat="45.22467" lon="6.00059">
        <ele>1414.7</ele>
        <time>2019-12-28T10:16:04Z</time>
      </trkpt>
      <trkpt lat="45.22463" lon="6.00061">
        <ele>1415.4</ele>
        <time>2019-12-28T10:16:08Z</time>
      </trkpt>
      <trkpt lat="45.22459" lon="6.00065">
        <ele>1416.1</ele>
        <time>2019-12-28T10:16:14Z</time>
      </trkpt>
      <trkpt lat="45.22457" lon="6.00067">
        <ele>1416.5</ele>
        <time>2019-12-28T10:16:18Z</time>
      </trkpt>
      <trkpt lat="45.22454" lon="6.00071">
        <ele>1417.1</ele>
        <time>2019-12-28T10:16:22Z</time>
      </trkpt>
      <trkpt lat="45.22451" lon="6.00074">
        <ele>1417.5</ele>
        <time>2019-12-28T10:16:28Z</time>
      </trkpt>
      <trkpt lat="45.22448" lon="6.00077">
        <ele>1418</ele>
        <time>2019-12-28T10:16:32Z</time>
      </trkpt>
      <trkpt lat="45.22446" lon="6.00081">
        <ele>1418.4</ele>
        <time>2019-12-28T10:16:40Z</time>
      </trkpt>
      <trkpt lat="45.22444" lon="6.00083">
        <ele>1418.8</ele>
        <time>2019-12-28T10:16:44Z</time>
      </trkpt>
      <trkpt lat="45.22441" lon="6.00085">
        <ele>1419.2</ele>
        <time>2019-12-28T10:16:48Z</time>
      </trkpt>
      <trkpt lat="45.22439" lon="6.00089">
        <ele>1419.7</ele>
        <time>2019-12-28T10:16:54Z</time>
      </trkpt>
      <trkpt lat="45.22437" lon="6.00093">
        <ele>1420.3</ele>
        <time>2019-12-28T10:17:00Z</time>
      </trkpt>
      <trkpt lat="45.22436" lon="6.00097">
        <ele>1420.8</ele>
        <time>2019-12-28T10:17:02Z</time>
      </trkpt>
      <trkpt lat="45.22434" lon="6.00102">
        <ele>1421.4</ele>
        <time>2019-12-28T10:17:06Z</time>
      </trkpt>
      <trkpt lat="45.22432" lon="6.00105">
        <ele>1421.8</ele>
        <time>2019-12-28T10:17:12Z</time>
      </trkpt>
      <trkpt lat="45.2243" lon="6.0011">
        <ele>1422.3</ele>
        <time>2019-12-28T10:17:17Z</time>
      </trkpt>
      <trkpt lat="45.22428" lon="6.00114">
        <ele>1422.8</ele>
        <time>2019-12-28T10:17:22Z</time>
      </trkpt>
      <trkpt lat="45.22425" lon="6.00117">
        <ele>1423.3</ele>
        <time>2019-12-28T10:17:26Z</time>
      </trkpt>
      <trkpt lat="45.22422" lon="6.00121">
        <ele>1424</ele>
        <time>2019-12-28T10:17:30Z</time>
      </trkpt>
      <trkpt lat="45.2242" lon="6.00124">
        <ele>1423</ele>
        <time>2019-12-28T10:17:34Z</time>
      </trkpt>
      <trkpt lat="45.22416" lon="6.00126">
        <ele>1421.9</ele>
        <time>2019-12-28T10:17:38Z</time>
      </trkpt>
      <trkpt lat="45.22413" lon="6.00129">
        <ele>1420.9</ele>
        <time>2019-12-28T10:17:40Z</time>
      </trkpt>
      <trkpt lat="45.2241" lon="6.00132">
        <ele>1419.7</ele>
        <time>2019-12-28T10:17:44Z</time>
      </trkpt>
      <trkpt lat="45.22407" lon="6.00134">
        <ele>1418.4</ele>
        <time>2019-12-28T10:17:48Z</time>
      </trkpt>
      <trkpt lat="45.22404" lon="6.00135">
        <ele>1417.5</ele>
        <time>2019-12-28T10:17:52Z</time>
      </trkpt>
      <trkpt lat="45.22401" lon="6.00137">
        <ele>1416.4</ele>
        <time>2019-12-28T10:17:56Z</time>
      </trkpt>
      <trkpt lat="45.22397" lon="6.00137">
        <ele>1415.3</ele>
        <time>2019-12-28T10:18:00Z</time>
      </trkpt>
      <trkpt lat="45.22395" lon="6.00138">
        <ele>1414.4</ele>
        <time>2019-12-28T10:18:04Z</time>
      </trkpt>
      <trkpt lat="45.2239" lon="6.00139">
        <ele>1412.9</ele>
        <time>2019-12-28T10:18:11Z</time>
      </trkpt>
      <trkpt lat="45.22386" lon="6.0014">
        <ele>1411.7</ele>
        <time>2019-12-28T10:18:17Z</time>
      </trkpt>
      <trkpt lat="45.2238" lon="6.00142">
        <ele>1409.6</ele>
        <time>2019-12-28T10:18:22Z</time>
      </trkpt>
      <trkpt lat="45.22377" lon="6.00143">
        <ele>1408.7</ele>
        <time>2019-12-28T10:18:24Z</time>
      </trkpt>
      <trkpt lat="45.22371" lon="6.00146">
        <ele>1407</ele>
        <time>2019-12-28T10:18:28Z</time>
      </trkpt>
      <trkpt lat="45.22367" lon="6.0015">
        <ele>1405.6</ele>
        <time>2019-12-28T10:18:30Z</time>
      </trkpt>
      <trkpt lat="45.22365" lon="6.00152">
        <ele>1404.6</ele>
        <time>2019-12-28T10:18:32Z</time>
      </trkpt>
      <trkpt lat="45.2236" lon="6.00157">
        <ele>1404.3</ele>
        <time>2019-12-28T10:18:36Z</time>
      </trkpt>
      <trkpt lat="45.22356" lon="6.00161">
        <ele>1404.7</ele>
        <time>2019-12-28T10:18:40Z</time>
      </trkpt>
      <trkpt lat="45.22353" lon="6.00164">
        <ele>1404.9</ele>
        <time>2019-12-28T10:18:44Z</time>
      </trkpt>
      <trkpt lat="45.22351" lon="6.00167">
        <ele>1405.2</ele>
        <time>2019-12-28T10:18:48Z</time>
      </trkpt>
      <trkpt lat="45.22348" lon="6.00169">
        <ele>1405.5</ele>
        <time>2019-12-28T10:18:52Z</time>
      </trkpt>
      <trkpt lat="45.22346" lon="6.00171">
        <ele>1405.8</ele>
        <time>2019-12-28T10:18:58Z</time>
      </trkpt>
      <trkpt lat="45.22343" lon="6.00173">
        <ele>1406.1</ele>
        <time>2019-12-28T10:19:02Z</time>
      </trkpt>
      <trkpt lat="45.22339" lon="6.00175">
        <ele>1406.5</ele>
        <time>2019-12-28T10:19:06Z</time>
      </trkpt>
      <trkpt lat="45.22336" lon="6.00178">
        <ele>1406.9</ele>
        <time>2019-12-28T10:19:10Z</time>
      </trkpt>
      <trkpt lat="45.22333" lon="6.0018">
        <ele>1407.3</ele>
        <time>2019-12-28T10:19:14Z</time>
      </trkpt>
      <trkpt lat="45.22331" lon="6.00184">
        <ele>1407.6</ele>
        <time>2019-12-28T10:19:18Z</time>
      </trkpt>
      <trkpt lat="45.2233" lon="6.00189">
        <ele>1407.9</ele>
        <time>2019-12-28T10:19:24Z</time>
      </trkpt>
      <trkpt lat="45.22328" lon="6.00194">
        <ele>1408.3</ele>
        <time>2019-12-28T10:19:30Z</time>
      </trkpt>
      <trkpt lat="45.22325" lon="6.00199">
        <ele>1408.9</ele>
        <time>2019-12-28T10:19:34Z</time>
      </trkpt>
      <trkpt lat="45.22323" lon="6.00201">
        <ele>1409.2</ele>
        <time>2019-12-28T10:19:38Z</time>
      </trkpt>
      <trkpt lat="45.2232" lon="6.00203">
        <ele>1409.7</ele>
        <time>2019-12-28T10:19:42Z</time>
      </trkpt>
      <trkpt lat="45.22314" lon="6.00204">
        <ele>1410.6</ele>
        <time>2019-12-28T10:19:48Z</time>
      </trkpt>
      <trkpt lat="45.22311" lon="6.00204">
        <ele>1411.1</ele>
        <time>2019-12-28T10:19:52Z</time>
      </trkpt>
      <trkpt lat="45.22307" lon="6.00205">
        <ele>1411.8</ele>
        <time>2019-12-28T10:19:58Z</time>
      </trkpt>
      <trkpt lat="45.22304" lon="6.00206">
        <ele>1412.5</ele>
        <time>2019-12-28T10:20:04Z</time>
      </trkpt>
      <trkpt lat="45.22301" lon="6.00208">
        <ele>1413.2</ele>
        <time>2019-12-28T10:20:08Z</time>
      </trkpt>
      <trkpt lat="45.22302" lon="6.00215">
        <ele>1414.2</ele>
        <time>2019-12-28T10:20:14Z</time>
      </trkpt>
      <trkpt lat="45.22302" lon="6.0022">
        <ele>1414.8</ele>
        <time>2019-12-28T10:20:22Z</time>
      </trkpt>
      <trkpt lat="45.22302" lon="6.00224">
        <ele>1415.4</ele>
        <time>2019-12-28T10:20:28Z</time>
      </trkpt>
      <trkpt lat="45.22302" lon="6.00228">
        <ele>1416</ele>
        <time>2019-12-28T10:20:32Z</time>
      </trkpt>
      <trkpt lat="45.22303" lon="6.00233">
        <ele>1417</ele>
        <time>2019-12-28T10:20:36Z</time>
      </trkpt>
      <trkpt lat="45.22304" lon="6.00239">
        <ele>1418</ele>
        <time>2019-12-28T10:20:42Z</time>
      </trkpt>
      <trkpt lat="45.22305" lon="6.00243">
        <ele>1418.8</ele>
        <time>2019-12-28T10:20:46Z</time>
      </trkpt>
      <trkpt lat="45.22306" lon="6.00247">
        <ele>1419.5</ele>
        <time>2019-12-28T10:20:50Z</time>
      </trkpt>
      <trkpt lat="45.22307" lon="6.00251">
        <ele>1420.2</ele>
        <time>2019-12-28T10:20:54Z</time>
      </trkpt>
      <trkpt lat="45.2231" lon="6.00254">
        <ele>1421</ele>
        <time>2019-12-28T10:20:58Z</time>
      </trkpt>
      <trkpt lat="45.22312" lon="6.00259">
        <ele>1421.7</ele>
        <time>2019-12-28T10:21:04Z</time>
      </trkpt>
      <trkpt lat="45.22314" lon="6.00264">
        <ele>1422.5</ele>
        <time>2019-12-28T10:21:10Z</time>
      </trkpt>
      <trkpt lat="45.22316" lon="6.00268">
        <ele>1423.3</ele>
        <time>2019-12-28T10:21:16Z</time>
      </trkpt>
      <trkpt lat="45.22317" lon="6.00272">
        <ele>1424.1</ele>
        <time>2019-12-28T10:21:22Z</time>
      </trkpt>
      <trkpt lat="45.22318" lon="6.00278">
        <ele>1424.9</ele>
        <time>2019-12-28T10:21:26Z</time>
      </trkpt>
      <trkpt lat="45.22319" lon="6.00284">
        <ele>1425.7</ele>
        <time>2019-12-28T10:21:30Z</time>
      </trkpt>
      <trkpt lat="45.2232" lon="6.00288">
        <ele>1426.4</ele>
        <time>2019-12-28T10:21:34Z</time>
      </trkpt>
      <trkpt lat="45.2232" lon="6.00292">
        <ele>1427</ele>
        <time>2019-12-28T10:21:41Z</time>
      </trkpt>
      <trkpt lat="45.22321" lon="6.00297">
        <ele>1428.1</ele>
        <time>2019-12-28T10:21:45Z</time>
      </trkpt>
      <trkpt lat="45.22322" lon="6.00302">
        <ele>1428.7</ele>
        <time>2019-12-28T10:21:48Z</time>
      </trkpt>
      <trkpt lat="45.22322" lon="6.00308">
        <ele>1429.3</ele>
        <time>2019-12-28T10:21:52Z</time>
      </trkpt>
      <trkpt lat="45.22322" lon="6.00312">
        <ele>1429.7</ele>
        <time>2019-12-28T10:21:56Z</time>
      </trkpt>
      <trkpt lat="45.22319" lon="6.00316">
        <ele>1430.4</ele>
        <time>2019-12-28T10:22:02Z</time>
      </trkpt>
      <trkpt lat="45.22317" lon="6.0032">
        <ele>1430.9</ele>
        <time>2019-12-28T10:22:05Z</time>
      </trkpt>
      <trkpt lat="45.22315" lon="6.00324">
        <ele>1431.4</ele>
        <time>2019-12-28T10:22:09Z</time>
      </trkpt>
      <trkpt lat="45.22314" lon="6.00329">
        <ele>1432.1</ele>
        <time>2019-12-28T10:22:14Z</time>
      </trkpt>
      <trkpt lat="45.22313" lon="6.00333">
        <ele>1432.6</ele>
        <time>2019-12-28T10:22:18Z</time>
      </trkpt>
      <trkpt lat="45.22313" lon="6.00337">
        <ele>1433.2</ele>
        <time>2019-12-28T10:22:24Z</time>
      </trkpt>
      <trkpt lat="45.22312" lon="6.00343">
        <ele>1434</ele>
        <time>2019-12-28T10:22:30Z</time>
      </trkpt>
      <trkpt lat="45.2231" lon="6.00348">
        <ele>1434.7</ele>
        <time>2019-12-28T10:22:34Z</time>
      </trkpt>
      <trkpt lat="45.22309" lon="6.00352">
        <ele>1435.2</ele>
        <time>2019-12-28T10:22:37Z</time>
      </trkpt>
      <trkpt lat="45.22308" lon="6.00357">
        <ele>1435.9</ele>
        <time>2019-12-28T10:22:42Z</time>
      </trkpt>
      <trkpt lat="45.22305" lon="6.00359">
        <ele>1436.5</ele>
        <time>2019-12-28T10:22:46Z</time>
      </trkpt>
      <trkpt lat="45.22303" lon="6.00363">
        <ele>1437.1</ele>
        <time>2019-12-28T10:22:50Z</time>
      </trkpt>
      <trkpt lat="45.22301" lon="6.00366">
        <ele>1437.7</ele>
        <time>2019-12-28T10:22:54Z</time>
      </trkpt>
      <trkpt lat="45.22301" lon="6.0037">
        <ele>1438.2</ele>
        <time>2019-12-28T10:22:58Z</time>
      </trkpt>
      <trkpt lat="45.223" lon="6.00374">
        <ele>1438.8</ele>
        <time>2019-12-28T10:23:04Z</time>
      </trkpt>
      <trkpt lat="45.22299" lon="6.00378">
        <ele>1439.5</ele>
        <time>2019-12-28T10:23:10Z</time>
      </trkpt>
      <trkpt lat="45.22298" lon="6.00383">
        <ele>1440.1</ele>
        <time>2019-12-28T10:23:14Z</time>
      </trkpt>
      <trkpt lat="45.22296" lon="6.00386">
        <ele>1440.8</ele>
        <time>2019-12-28T10:23:18Z</time>
      </trkpt>
      <trkpt lat="45.22293" lon="6.00388">
        <ele>1441.6</ele>
        <time>2019-12-28T10:23:22Z</time>
      </trkpt>
      <trkpt lat="45.22287" lon="6.00395">
        <ele>1444.2</ele>
        <time>2019-12-28T10:23:50Z</time>
      </trkpt>
      <trkpt lat="45.22286" lon="6.00399">
        <ele>1444.6</ele>
        <time>2019-12-28T10:23:56Z</time>
      </trkpt>
      <trkpt lat="45.22283" lon="6.00401">
        <ele>1445.2</ele>
        <time>2019-12-28T10:24:00Z</time>
      </trkpt>
      <trkpt lat="45.2228" lon="6.00404">
        <ele>1445.7</ele>
        <time>2019-12-28T10:24:04Z</time>
      </trkpt>
      <trkpt lat="45.2228" lon="6.00409">
        <ele>1446.4</ele>
        <time>2019-12-28T10:24:12Z</time>
      </trkpt>
      <trkpt lat="45.22279" lon="6.00414">
        <ele>1447.1</ele>
        <time>2019-12-28T10:24:16Z</time>
      </trkpt>
      <trkpt lat="45.22278" lon="6.00418">
        <ele>1447.6</ele>
        <time>2019-12-28T10:24:20Z</time>
      </trkpt>
      <trkpt lat="45.22277" lon="6.00422">
        <ele>1448.3</ele>
        <time>2019-12-28T10:24:25Z</time>
      </trkpt>
      <trkpt lat="45.22275" lon="6.00426">
        <ele>1449</ele>
        <time>2019-12-28T10:24:32Z</time>
      </trkpt>
      <trkpt lat="45.22274" lon="6.00431">
        <ele>1450.1</ele>
        <time>2019-12-28T10:24:38Z</time>
      </trkpt>
      <trkpt lat="45.22272" lon="6.00434">
        <ele>1451.2</ele>
        <time>2019-12-28T10:24:46Z</time>
      </trkpt>
      <trkpt lat="45.22269" lon="6.00436">
        <ele>1452.3</ele>
        <time>2019-12-28T10:24:50Z</time>
      </trkpt>
      <trkpt lat="45.22266" lon="6.00437">
        <ele>1453.2</ele>
        <time>2019-12-28T10:24:56Z</time>
      </trkpt>
      <trkpt lat="45.22264" lon="6.00439">
        <ele>1454.1</ele>
        <time>2019-12-28T10:25:02Z</time>
      </trkpt>
      <trkpt lat="45.22261" lon="6.00437">
        <ele>1455</ele>
        <time>2019-12-28T10:25:09Z</time>
      </trkpt>
      <trkpt lat="45.22258" lon="6.00436">
        <ele>1455.9</ele>
        <time>2019-12-28T10:25:15Z</time>
      </trkpt>
      <trkpt lat="45.22255" lon="6.00435">
        <ele>1456.9</ele>
        <time>2019-12-28T10:25:20Z</time>
      </trkpt>
      <trkpt lat="45.22252" lon="6.00434">
        <ele>1457.8</ele>
        <time>2019-12-28T10:25:32Z</time>
      </trkpt>
      <trkpt lat="45.22245" lon="6.00433">
        <ele>1460</ele>
        <time>2019-12-28T10:25:38Z</time>
      </trkpt>
      <trkpt lat="45.22241" lon="6.00433">
        <ele>1461.2</ele>
        <time>2019-12-28T10:25:42Z</time>
      </trkpt>
      <trkpt lat="45.22238" lon="6.00434">
        <ele>1462.3</ele>
        <time>2019-12-28T10:25:50Z</time>
      </trkpt>
      <trkpt lat="45.22235" lon="6.00435">
        <ele>1463.1</ele>
        <time>2019-12-28T10:25:58Z</time>
      </trkpt>
      <trkpt lat="45.22234" lon="6.00439">
        <ele>1464</ele>
        <time>2019-12-28T10:26:02Z</time>
      </trkpt>
      <trkpt lat="45.22234" lon="6.00444">
        <ele>1465</ele>
        <time>2019-12-28T10:26:06Z</time>
      </trkpt>
      <trkpt lat="45.22234" lon="6.00448">
        <ele>1465.9</ele>
        <time>2019-12-28T10:26:09Z</time>
      </trkpt>
      <trkpt lat="45.22235" lon="6.00453">
        <ele>1466.8</ele>
        <time>2019-12-28T10:26:12Z</time>
      </trkpt>
      <trkpt lat="45.22235" lon="6.00457">
        <ele>1467.6</ele>
        <time>2019-12-28T10:26:16Z</time>
      </trkpt>
      <trkpt lat="45.22236" lon="6.0046">
        <ele>1468.4</ele>
        <time>2019-12-28T10:26:25Z</time>
      </trkpt>
      <trkpt lat="45.22235" lon="6.00465">
        <ele>1469.2</ele>
        <time>2019-12-28T10:26:30Z</time>
      </trkpt>
      <trkpt lat="45.22234" lon="6.0047">
        <ele>1470.3</ele>
        <time>2019-12-28T10:26:36Z</time>
      </trkpt>
      <trkpt lat="45.22234" lon="6.00474">
        <ele>1471.1</ele>
        <time>2019-12-28T10:26:40Z</time>
      </trkpt>
      <trkpt lat="45.22233" lon="6.00478">
        <ele>1472</ele>
        <time>2019-12-28T10:26:44Z</time>
      </trkpt>
      <trkpt lat="45.22233" lon="6.00482">
        <ele>1473</ele>
        <time>2019-12-28T10:26:48Z</time>
      </trkpt>
      <trkpt lat="45.22232" lon="6.00487">
        <ele>1473.8</ele>
        <time>2019-12-28T10:26:52Z</time>
      </trkpt>
      <trkpt lat="45.22231" lon="6.00491">
        <ele>1474.5</ele>
        <time>2019-12-28T10:26:58Z</time>
      </trkpt>
      <trkpt lat="45.22229" lon="6.00494">
        <ele>1475.2</ele>
        <time>2019-12-28T10:27:03Z</time>
      </trkpt>
      <trkpt lat="45.22228" lon="6.00497">
        <ele>1475.9</ele>
        <time>2019-12-28T10:27:09Z</time>
      </trkpt>
      <trkpt lat="45.22227" lon="6.00501">
        <ele>1476.6</ele>
        <time>2019-12-28T10:27:19Z</time>
      </trkpt>
      <trkpt lat="45.22226" lon="6.00505">
        <ele>1477.3</ele>
        <time>2019-12-28T10:27:24Z</time>
      </trkpt>
      <trkpt lat="45.22226" lon="6.00511">
        <ele>1478.2</ele>
        <time>2019-12-28T10:27:32Z</time>
      </trkpt>
      <trkpt lat="45.22224" lon="6.00515">
        <ele>1478.8</ele>
        <time>2019-12-28T10:27:36Z</time>
      </trkpt>
      <trkpt lat="45.22224" lon="6.00519">
        <ele>1485.7</ele>
        <time>2019-12-28T10:27:40Z</time>
      </trkpt>
      <trkpt lat="45.22225" lon="6.00523">
        <ele>1486.7</ele>
        <time>2019-12-28T10:27:45Z</time>
      </trkpt>
      <trkpt lat="45.22225" lon="6.00528">
        <ele>1488.2</ele>
        <time>2019-12-28T10:27:52Z</time>
      </trkpt>
      <trkpt lat="45.22226" lon="6.00532">
        <ele>1489.2</ele>
        <time>2019-12-28T10:27:58Z</time>
      </trkpt>
      <trkpt lat="45.22227" lon="6.00538">
        <ele>1490.6</ele>
        <time>2019-12-28T10:28:04Z</time>
      </trkpt>
      <trkpt lat="45.22228" lon="6.00542">
        <ele>1491.8</ele>
        <time>2019-12-28T10:28:08Z</time>
      </trkpt>
      <trkpt lat="45.22229" lon="6.00546">
        <ele>1493</ele>
        <time>2019-12-28T10:28:12Z</time>
      </trkpt>
      <trkpt lat="45.22229" lon="6.0055">
        <ele>1494.1</ele>
        <time>2019-12-28T10:28:18Z</time>
      </trkpt>
      <trkpt lat="45.22231" lon="6.00554">
        <ele>1495.4</ele>
        <time>2019-12-28T10:28:24Z</time>
      </trkpt>
      <trkpt lat="45.22231" lon="6.00559">
        <ele>1496.6</ele>
        <time>2019-12-28T10:28:30Z</time>
      </trkpt>
      <trkpt lat="45.22229" lon="6.00563">
        <ele>1497.6</ele>
        <time>2019-12-28T10:28:36Z</time>
      </trkpt>
      <trkpt lat="45.2223" lon="6.00566">
        <ele>1498.5</ele>
        <time>2019-12-28T10:28:40Z</time>
      </trkpt>
      <trkpt lat="45.2223" lon="6.00571">
        <ele>1499.5</ele>
        <time>2019-12-28T10:28:44Z</time>
      </trkpt>
      <trkpt lat="45.22231" lon="6.00575">
        <ele>1500.5</ele>
        <time>2019-12-28T10:28:49Z</time>
      </trkpt>
      <trkpt lat="45.22231" lon="6.00579">
        <ele>1501.5</ele>
        <time>2019-12-28T10:28:58Z</time>
      </trkpt>
      <trkpt lat="45.22233" lon="6.00583">
        <ele>1502.7</ele>
        <time>2019-12-28T10:29:04Z</time>
      </trkpt>
      <trkpt lat="45.22234" lon="6.00587">
        <ele>1503.7</ele>
        <time>2019-12-28T10:29:11Z</time>
      </trkpt>
      <trkpt lat="45.22235" lon="6.00592">
        <ele>1505</ele>
        <time>2019-12-28T10:29:17Z</time>
      </trkpt>
      <trkpt lat="45.22236" lon="6.00597">
        <ele>1506.2</ele>
        <time>2019-12-28T10:29:21Z</time>
      </trkpt>
      <trkpt lat="45.22236" lon="6.00601">
        <ele>1507.3</ele>
        <time>2019-12-28T10:29:25Z</time>
      </trkpt>
      <trkpt lat="45.22235" lon="6.00605">
        <ele>1508.2</ele>
        <time>2019-12-28T10:29:30Z</time>
      </trkpt>
      <trkpt lat="45.22236" lon="6.00609">
        <ele>1509.1</ele>
        <time>2019-12-28T10:29:35Z</time>
      </trkpt>
      <trkpt lat="45.22238" lon="6.00612">
        <ele>1510</ele>
        <time>2019-12-28T10:29:40Z</time>
      </trkpt>
      <trkpt lat="45.22239" lon="6.00616">
        <ele>1511</ele>
        <time>2019-12-28T10:29:46Z</time>
      </trkpt>
      <trkpt lat="45.2224" lon="6.0062">
        <ele>1512</ele>
        <time>2019-12-28T10:29:51Z</time>
      </trkpt>
      <trkpt lat="45.22241" lon="6.00624">
        <ele>1512.9</ele>
        <time>2019-12-28T10:29:57Z</time>
      </trkpt>
      <trkpt lat="45.2224" lon="6.00628">
        <ele>1513.9</ele>
        <time>2019-12-28T10:30:02Z</time>
      </trkpt>
      <trkpt lat="45.2224" lon="6.00633">
        <ele>1515</ele>
        <time>2019-12-28T10:30:09Z</time>
      </trkpt>
      <trkpt lat="45.22243" lon="6.00636">
        <ele>1516</ele>
        <time>2019-12-28T10:30:16Z</time>
      </trkpt>
      <trkpt lat="45.22244" lon="6.0064">
        <ele>1516.8</ele>
        <time>2019-12-28T10:30:23Z</time>
      </trkpt>
      <trkpt lat="45.22246" lon="6.00644">
        <ele>1517.7</ele>
        <time>2019-12-28T10:30:28Z</time>
      </trkpt>
      <trkpt lat="45.22248" lon="6.00648">
        <ele>1518.6</ele>
        <time>2019-12-28T10:30:32Z</time>
      </trkpt>
      <trkpt lat="45.22249" lon="6.00652">
        <ele>1519.4</ele>
        <time>2019-12-28T10:30:37Z</time>
      </trkpt>
      <trkpt lat="45.2225" lon="6.00655">
        <ele>1520</ele>
        <time>2019-12-28T10:30:41Z</time>
      </trkpt>
      <trkpt lat="45.22248" lon="6.00659">
        <ele>1520.7</ele>
        <time>2019-12-28T10:30:45Z</time>
      </trkpt>
      <trkpt lat="45.22248" lon="6.00663">
        <ele>1521.4</ele>
        <time>2019-12-28T10:30:49Z</time>
      </trkpt>
      <trkpt lat="45.22248" lon="6.00668">
        <ele>1522.1</ele>
        <time>2019-12-28T10:30:53Z</time>
      </trkpt>
      <trkpt lat="45.22247" lon="6.00673">
        <ele>1523</ele>
        <time>2019-12-28T10:30:58Z</time>
      </trkpt>
      <trkpt lat="45.22246" lon="6.00678">
        <ele>1523.7</ele>
        <time>2019-12-28T10:31:05Z</time>
      </trkpt>
      <trkpt lat="45.22245" lon="6.00682">
        <ele>1524.3</ele>
        <time>2019-12-28T10:31:16Z</time>
      </trkpt>
      <trkpt lat="45.22246" lon="6.00688">
        <ele>1525.5</ele>
        <time>2019-12-28T10:31:21Z</time>
      </trkpt>
      <trkpt lat="45.22247" lon="6.00692">
        <ele>1526.2</ele>
        <time>2019-12-28T10:31:25Z</time>
      </trkpt>
      <trkpt lat="45.22246" lon="6.00697">
        <ele>1527</ele>
        <time>2019-12-28T10:31:29Z</time>
      </trkpt>
      <trkpt lat="45.22246" lon="6.00701">
        <ele>1527.8</ele>
        <time>2019-12-28T10:31:33Z</time>
      </trkpt>
      <trkpt lat="45.22245" lon="6.00705">
        <ele>1528.6</ele>
        <time>2019-12-28T10:31:36Z</time>
      </trkpt>
      <trkpt lat="45.22244" lon="6.0071">
        <ele>1529.3</ele>
        <time>2019-12-28T10:31:40Z</time>
      </trkpt>
      <trkpt lat="45.22244" lon="6.00713">
        <ele>1529.8</ele>
        <time>2019-12-28T10:31:44Z</time>
      </trkpt>
      <trkpt lat="45.22243" lon="6.00717">
        <ele>1530.4</ele>
        <time>2019-12-28T10:31:52Z</time>
      </trkpt>
      <trkpt lat="45.22243" lon="6.00723">
        <ele>1531.1</ele>
        <time>2019-12-28T10:31:58Z</time>
      </trkpt>
      <trkpt lat="45.22243" lon="6.00727">
        <ele>1531.7</ele>
        <time>2019-12-28T10:32:01Z</time>
      </trkpt>
      <trkpt lat="45.22243" lon="6.00733">
        <ele>1532.8</ele>
        <time>2019-12-28T10:32:06Z</time>
      </trkpt>
      <trkpt lat="45.22242" lon="6.00737">
        <ele>1533.5</ele>
        <time>2019-12-28T10:32:11Z</time>
      </trkpt>
      <trkpt lat="45.22242" lon="6.00741">
        <ele>1534.3</ele>
        <time>2019-12-28T10:32:15Z</time>
      </trkpt>
      <trkpt lat="45.22241" lon="6.00745">
        <ele>1535.1</ele>
        <time>2019-12-28T10:32:19Z</time>
      </trkpt>
      <trkpt lat="45.2224" lon="6.00749">
        <ele>1536</ele>
        <time>2019-12-28T10:32:23Z</time>
      </trkpt>
      <trkpt lat="45.2224" lon="6.00755">
        <ele>1537.1</ele>
        <time>2019-12-28T10:32:29Z</time>
      </trkpt>
      <trkpt lat="45.22238" lon="6.0076">
        <ele>1538.4</ele>
        <time>2019-12-28T10:32:34Z</time>
      </trkpt>
      <trkpt lat="45.22237" lon="6.00766">
        <ele>1539.4</ele>
        <time>2019-12-28T10:32:39Z</time>
      </trkpt>
      <trkpt lat="45.22235" lon="6.00769">
        <ele>1540.2</ele>
        <time>2019-12-28T10:32:43Z</time>
      </trkpt>
      <trkpt lat="45.22234" lon="6.00774">
        <ele>1541.1</ele>
        <time>2019-12-28T10:32:51Z</time>
      </trkpt>
      <trkpt lat="45.22235" lon="6.0078">
        <ele>1542.4</ele>
        <time>2019-12-28T10:32:57Z</time>
      </trkpt>
      <trkpt lat="45.22234" lon="6.00786">
        <ele>1543.6</ele>
        <time>2019-12-28T10:33:31Z</time>
      </trkpt>
      <trkpt lat="45.22235" lon="6.00789">
        <ele>1544.5</ele>
        <time>2019-12-28T10:34:03Z</time>
      </trkpt>
      <trkpt lat="45.22233" lon="6.00797">
        <ele>1550</ele>
        <time>2019-12-28T10:35:20Z</time>
      </trkpt>
      <trkpt lat="45.22231" lon="6.00802">
        <ele>1551.7</ele>
        <time>2019-12-28T10:35:29Z</time>
      </trkpt>
      <trkpt lat="45.22231" lon="6.00806">
        <ele>1553</ele>
        <time>2019-12-28T10:35:33Z</time>
      </trkpt>
      <trkpt lat="45.2223" lon="6.00811">
        <ele>1554.5</ele>
        <time>2019-12-28T10:35:38Z</time>
      </trkpt>
      <trkpt lat="45.22228" lon="6.00816">
        <ele>1556.1</ele>
        <time>2019-12-28T10:35:43Z</time>
      </trkpt>
      <trkpt lat="45.22227" lon="6.0082">
        <ele>1557.4</ele>
        <time>2019-12-28T10:35:47Z</time>
      </trkpt>
      <trkpt lat="45.22227" lon="6.00825">
        <ele>1559</ele>
        <time>2019-12-28T10:35:52Z</time>
      </trkpt>
      <trkpt lat="45.22228" lon="6.00829">
        <ele>1560.3</ele>
        <time>2019-12-28T10:35:55Z</time>
      </trkpt>
      <trkpt lat="45.22228" lon="6.00834">
        <ele>1563.1</ele>
        <time>2019-12-28T10:36:02Z</time>
      </trkpt>
      <trkpt lat="45.22229" lon="6.00839">
        <ele>1564.3</ele>
        <time>2019-12-28T10:36:09Z</time>
      </trkpt>
      <trkpt lat="45.22229" lon="6.00843">
        <ele>1565.2</ele>
        <time>2019-12-28T10:36:13Z</time>
      </trkpt>
      <trkpt lat="45.22231" lon="6.00847">
        <ele>1566.1</ele>
        <time>2019-12-28T10:36:17Z</time>
      </trkpt>
      <trkpt lat="45.22233" lon="6.0085">
        <ele>1567.2</ele>
        <time>2019-12-28T10:36:22Z</time>
      </trkpt>
      <trkpt lat="45.22235" lon="6.00853">
        <ele>1568.3</ele>
        <time>2019-12-28T10:36:27Z</time>
      </trkpt>
      <trkpt lat="45.22236" lon="6.00857">
        <ele>1569.2</ele>
        <time>2019-12-28T10:36:31Z</time>
      </trkpt>
      <trkpt lat="45.22237" lon="6.00861">
        <ele>1570.3</ele>
        <time>2019-12-28T10:36:39Z</time>
      </trkpt>
      <trkpt lat="45.22239" lon="6.00865">
        <ele>1571.2</ele>
        <time>2019-12-28T10:36:43Z</time>
      </trkpt>
      <trkpt lat="45.22242" lon="6.00869">
        <ele>1572.5</ele>
        <time>2019-12-28T10:36:47Z</time>
      </trkpt>
      <trkpt lat="45.22243" lon="6.00872">
        <ele>1573.2</ele>
        <time>2019-12-28T10:36:54Z</time>
      </trkpt>
      <trkpt lat="45.22245" lon="6.00876">
        <ele>1573.7</ele>
        <time>2019-12-28T10:37:00Z</time>
      </trkpt>
      <trkpt lat="45.22246" lon="6.00882">
        <ele>1574.3</ele>
        <time>2019-12-28T10:37:05Z</time>
      </trkpt>
      <trkpt lat="45.22247" lon="6.00885">
        <ele>1574.9</ele>
        <time>2019-12-28T10:37:09Z</time>
      </trkpt>
      <trkpt lat="45.2225" lon="6.0089">
        <ele>1575.8</ele>
        <time>2019-12-28T10:37:14Z</time>
      </trkpt>
      <trkpt lat="45.22251" lon="6.00894">
        <ele>1576.6</ele>
        <time>2019-12-28T10:37:19Z</time>
      </trkpt>
      <trkpt lat="45.22251" lon="6.00899">
        <ele>1577.4</ele>
        <time>2019-12-28T10:37:24Z</time>
      </trkpt>
      <trkpt lat="45.22249" lon="6.00902">
        <ele>1578.1</ele>
        <time>2019-12-28T10:37:28Z</time>
      </trkpt>
      <trkpt lat="45.22248" lon="6.00906">
        <ele>1578.8</ele>
        <time>2019-12-28T10:37:35Z</time>
      </trkpt>
      <trkpt lat="45.22247" lon="6.00911">
        <ele>1579.7</ele>
        <time>2019-12-28T10:37:41Z</time>
      </trkpt>
      <trkpt lat="45.22246" lon="6.00915">
        <ele>1580.3</ele>
        <time>2019-12-28T10:37:46Z</time>
      </trkpt>
      <trkpt lat="45.22247" lon="6.00919">
        <ele>1581.1</ele>
        <time>2019-12-28T10:37:50Z</time>
      </trkpt>
      <trkpt lat="45.22249" lon="6.00922">
        <ele>1581.8</ele>
        <time>2019-12-28T10:37:57Z</time>
      </trkpt>
      <trkpt lat="45.22248" lon="6.00927">
        <ele>1582.9</ele>
        <time>2019-12-28T10:38:05Z</time>
      </trkpt>
      <trkpt lat="45.22245" lon="6.00931">
        <ele>1583.9</ele>
        <time>2019-12-28T10:38:11Z</time>
      </trkpt>
      <trkpt lat="45.22242" lon="6.00932">
        <ele>1584.7</ele>
        <time>2019-12-28T10:38:14Z</time>
      </trkpt>
      <trkpt lat="45.22239" lon="6.00933">
        <ele>1585.5</ele>
        <time>2019-12-28T10:38:18Z</time>
      </trkpt>
      <trkpt lat="45.22237" lon="6.00933">
        <ele>1586.2</ele>
        <time>2019-12-28T10:38:23Z</time>
      </trkpt>
      <trkpt lat="45.22234" lon="6.00932">
        <ele>1587.1</ele>
        <time>2019-12-28T10:38:27Z</time>
      </trkpt>
      <trkpt lat="45.2223" lon="6.00933">
        <ele>1588.4</ele>
        <time>2019-12-28T10:38:33Z</time>
      </trkpt>
      <trkpt lat="45.22229" lon="6.00936">
        <ele>1589.2</ele>
        <time>2019-12-28T10:38:41Z</time>
      </trkpt>
      <trkpt lat="45.22231" lon="6.00941">
        <ele>1590.1</ele>
        <time>2019-12-28T10:38:47Z</time>
      </trkpt>
      <trkpt lat="45.22231" lon="6.00945">
        <ele>1590.8</ele>
        <time>2019-12-28T10:38:55Z</time>
      </trkpt>
      <trkpt lat="45.22232" lon="6.00949">
        <ele>1591.7</ele>
        <time>2019-12-28T10:39:02Z</time>
      </trkpt>
      <trkpt lat="45.22233" lon="6.00952">
        <ele>1592.6</ele>
        <time>2019-12-28T10:39:06Z</time>
      </trkpt>
      <trkpt lat="45.22233" lon="6.00956">
        <ele>1593.5</ele>
        <time>2019-12-28T10:39:11Z</time>
      </trkpt>
      <trkpt lat="45.22233" lon="6.0096">
        <ele>1594.5</ele>
        <time>2019-12-28T10:39:17Z</time>
      </trkpt>
      <trkpt lat="45.22234" lon="6.00964">
        <ele>1595</ele>
        <time>2019-12-28T10:39:21Z</time>
      </trkpt>
      <trkpt lat="45.22233" lon="6.00969">
        <ele>1595.7</ele>
        <time>2019-12-28T10:39:27Z</time>
      </trkpt>
      <trkpt lat="45.22234" lon="6.00974">
        <ele>1596.5</ele>
        <time>2019-12-28T10:39:33Z</time>
      </trkpt>
      <trkpt lat="45.22234" lon="6.00979">
        <ele>1597.3</ele>
        <time>2019-12-28T10:39:39Z</time>
      </trkpt>
      <trkpt lat="45.22232" lon="6.00983">
        <ele>1597.9</ele>
        <time>2019-12-28T10:39:43Z</time>
      </trkpt>
      <trkpt lat="45.22231" lon="6.00988">
        <ele>1598.7</ele>
        <time>2019-12-28T10:39:49Z</time>
      </trkpt>
      <trkpt lat="45.2223" lon="6.00992">
        <ele>1599.3</ele>
        <time>2019-12-28T10:39:53Z</time>
      </trkpt>
      <trkpt lat="45.2223" lon="6.00996">
        <ele>1599.9</ele>
        <time>2019-12-28T10:39:58Z</time>
      </trkpt>
      <trkpt lat="45.22232" lon="6.01002">
        <ele>1600.8</ele>
        <time>2019-12-28T10:40:03Z</time>
      </trkpt>
      <trkpt lat="45.22233" lon="6.01006">
        <ele>1601.4</ele>
        <time>2019-12-28T10:40:07Z</time>
      </trkpt>
      <trkpt lat="45.22235" lon="6.0101">
        <ele>1602.1</ele>
        <time>2019-12-28T10:40:11Z</time>
      </trkpt>
      <trkpt lat="45.22237" lon="6.01012">
        <ele>1602.7</ele>
        <time>2019-12-28T10:40:15Z</time>
      </trkpt>
      <trkpt lat="45.22239" lon="6.01015">
        <ele>1603.3</ele>
        <time>2019-12-28T10:40:21Z</time>
      </trkpt>
      <trkpt lat="45.22241" lon="6.01018">
        <ele>1603.9</ele>
        <time>2019-12-28T10:40:25Z</time>
      </trkpt>
      <trkpt lat="45.22238" lon="6.01021">
        <ele>1604.4</ele>
        <time>2019-12-28T10:40:33Z</time>
      </trkpt>
      <trkpt lat="45.22237" lon="6.01025">
        <ele>1604.9</ele>
        <time>2019-12-28T10:40:54Z</time>
      </trkpt>
      <trkpt lat="45.22235" lon="6.0103">
        <ele>1605.6</ele>
        <time>2019-12-28T10:40:58Z</time>
      </trkpt>
      <trkpt lat="45.22233" lon="6.01035">
        <ele>1606.1</ele>
        <time>2019-12-28T10:41:04Z</time>
      </trkpt>
      <trkpt lat="45.22233" lon="6.0104">
        <ele>1606.6</ele>
        <time>2019-12-28T10:41:10Z</time>
      </trkpt>
      <trkpt lat="45.22234" lon="6.01044">
        <ele>1607</ele>
        <time>2019-12-28T10:41:14Z</time>
      </trkpt>
      <trkpt lat="45.22232" lon="6.01048">
        <ele>1607.5</ele>
        <time>2019-12-28T10:41:22Z</time>
      </trkpt>
      <trkpt lat="45.22229" lon="6.01047">
        <ele>1608.1</ele>
        <time>2019-12-28T10:41:40Z</time>
      </trkpt>
      <trkpt lat="45.22229" lon="6.0105">
        <ele>1608.7</ele>
        <time>2019-12-28T10:41:54Z</time>
      </trkpt>
      <trkpt lat="45.2223" lon="6.01054">
        <ele>1609.2</ele>
        <time>2019-12-28T10:41:58Z</time>
      </trkpt>
      <trkpt lat="45.22231" lon="6.01059">
        <ele>1609.6</ele>
        <time>2019-12-28T10:42:01Z</time>
      </trkpt>
      <trkpt lat="45.22231" lon="6.01064">
        <ele>1610.2</ele>
        <time>2019-12-28T10:42:05Z</time>
      </trkpt>
      <trkpt lat="45.22231" lon="6.01068">
        <ele>1610.7</ele>
        <time>2019-12-28T10:42:10Z</time>
      </trkpt>
      <trkpt lat="45.22232" lon="6.01073">
        <ele>1611.3</ele>
        <time>2019-12-28T10:42:14Z</time>
      </trkpt>
      <trkpt lat="45.22232" lon="6.01077">
        <ele>1611.7</ele>
        <time>2019-12-28T10:42:18Z</time>
      </trkpt>
      <trkpt lat="45.22232" lon="6.01081">
        <ele>1612.2</ele>
        <time>2019-12-28T10:42:22Z</time>
      </trkpt>
      <trkpt lat="45.22233" lon="6.01086">
        <ele>1612.8</ele>
        <time>2019-12-28T10:42:25Z</time>
      </trkpt>
      <trkpt lat="45.22234" lon="6.0109">
        <ele>1613.4</ele>
        <time>2019-12-28T10:42:28Z</time>
      </trkpt>
      <trkpt lat="45.22236" lon="6.01093">
        <ele>1614</ele>
        <time>2019-12-28T10:42:31Z</time>
      </trkpt>
      <trkpt lat="45.22237" lon="6.01098">
        <ele>1614.8</ele>
        <time>2019-12-28T10:42:36Z</time>
      </trkpt>
      <trkpt lat="45.22237" lon="6.01102">
        <ele>1615.3</ele>
        <time>2019-12-28T10:42:42Z</time>
      </trkpt>
      <trkpt lat="45.22237" lon="6.01107">
        <ele>1615.8</ele>
        <time>2019-12-28T10:42:46Z</time>
      </trkpt>
      <trkpt lat="45.22238" lon="6.01111">
        <ele>1616.3</ele>
        <time>2019-12-28T10:42:50Z</time>
      </trkpt>
      <trkpt lat="45.22238" lon="6.01116">
        <ele>1616.8</ele>
        <time>2019-12-28T10:42:54Z</time>
      </trkpt>
      <trkpt lat="45.22239" lon="6.0112">
        <ele>1617.5</ele>
        <time>2019-12-28T10:42:57Z</time>
      </trkpt>
      <trkpt lat="45.2224" lon="6.01123">
        <ele>1618.1</ele>
        <time>2019-12-28T10:43:01Z</time>
      </trkpt>
      <trkpt lat="45.22242" lon="6.01128">
        <ele>1618.9</ele>
        <time>2019-12-28T10:43:06Z</time>
      </trkpt>
      <trkpt lat="45.22242" lon="6.01132">
        <ele>1619.6</ele>
        <time>2019-12-28T10:43:10Z</time>
      </trkpt>
      <trkpt lat="45.22243" lon="6.01138">
        <ele>1620.6</ele>
        <time>2019-12-28T10:43:16Z</time>
      </trkpt>
      <trkpt lat="45.22245" lon="6.01143">
        <ele>1621.2</ele>
        <time>2019-12-28T10:43:21Z</time>
      </trkpt>
      <trkpt lat="45.22245" lon="6.01147">
        <ele>1621.9</ele>
        <time>2019-12-28T10:43:26Z</time>
      </trkpt>
      <trkpt lat="45.22246" lon="6.01153">
        <ele>1622.8</ele>
        <time>2019-12-28T10:43:32Z</time>
      </trkpt>
      <trkpt lat="45.22248" lon="6.01159">
        <ele>1623.4</ele>
        <time>2019-12-28T10:43:36Z</time>
      </trkpt>
      <trkpt lat="45.22248" lon="6.01164">
        <ele>1624</ele>
        <time>2019-12-28T10:43:40Z</time>
      </trkpt>
      <trkpt lat="45.2225" lon="6.01168">
        <ele>1624.5</ele>
        <time>2019-12-28T10:43:44Z</time>
      </trkpt>
      <trkpt lat="45.2225" lon="6.01174">
        <ele>1625.2</ele>
        <time>2019-12-28T10:43:48Z</time>
      </trkpt>
      <trkpt lat="45.2225" lon="6.01179">
        <ele>1626</ele>
        <time>2019-12-28T10:43:52Z</time>
      </trkpt>
      <trkpt lat="45.22249" lon="6.01184">
        <ele>1626.7</ele>
        <time>2019-12-28T10:43:58Z</time>
      </trkpt>
      <trkpt lat="45.22248" lon="6.01187">
        <ele>1627.3</ele>
        <time>2019-12-28T10:44:01Z</time>
      </trkpt>
      <trkpt lat="45.22246" lon="6.01191">
        <ele>1627.9</ele>
        <time>2019-12-28T10:44:05Z</time>
      </trkpt>
      <trkpt lat="45.22245" lon="6.01196">
        <ele>1628.5</ele>
        <time>2019-12-28T10:44:10Z</time>
      </trkpt>
      <trkpt lat="45.22245" lon="6.012">
        <ele>1628.8</ele>
        <time>2019-12-28T10:44:14Z</time>
      </trkpt>
      <trkpt lat="45.22245" lon="6.01204">
        <ele>1629.2</ele>
        <time>2019-12-28T10:44:18Z</time>
      </trkpt>
      <trkpt lat="45.22245" lon="6.01208">
        <ele>1629.8</ele>
        <time>2019-12-28T10:44:24Z</time>
      </trkpt>
      <trkpt lat="45.22246" lon="6.01212">
        <ele>1630.3</ele>
        <time>2019-12-28T10:44:30Z</time>
      </trkpt>
      <trkpt lat="45.22247" lon="6.01217">
        <ele>1630.9</ele>
        <time>2019-12-28T10:44:38Z</time>
      </trkpt>
      <trkpt lat="45.22246" lon="6.01222">
        <ele>1631.7</ele>
        <time>2019-12-28T10:44:46Z</time>
      </trkpt>
      <trkpt lat="45.22243" lon="6.01224">
        <ele>1632.3</ele>
        <time>2019-12-28T10:44:49Z</time>
      </trkpt>
      <trkpt lat="45.22243" lon="6.01228">
        <ele>1632.9</ele>
        <time>2019-12-28T10:45:02Z</time>
      </trkpt>
      <trkpt lat="45.22241" lon="6.01232">
        <ele>1633.6</ele>
        <time>2019-12-28T10:45:15Z</time>
      </trkpt>
      <trkpt lat="45.22244" lon="6.01232">
        <ele>1634.2</ele>
        <time>2019-12-28T10:45:28Z</time>
      </trkpt>
      <trkpt lat="45.22243" lon="6.01237">
        <ele>1635</ele>
        <time>2019-12-28T10:45:42Z</time>
      </trkpt>
      <trkpt lat="45.22241" lon="6.01241">
        <ele>1635.7</ele>
        <time>2019-12-28T10:45:46Z</time>
      </trkpt>
      <trkpt lat="45.22241" lon="6.01246">
        <ele>1636.3</ele>
        <time>2019-12-28T10:45:50Z</time>
      </trkpt>
      <trkpt lat="45.22241" lon="6.0125">
        <ele>1636.9</ele>
        <time>2019-12-28T10:45:54Z</time>
      </trkpt>
      <trkpt lat="45.22239" lon="6.01254">
        <ele>1637.7</ele>
        <time>2019-12-28T10:46:00Z</time>
      </trkpt>
      <trkpt lat="45.22239" lon="6.01258">
        <ele>1638.3</ele>
        <time>2019-12-28T10:46:04Z</time>
      </trkpt>
      <trkpt lat="45.22238" lon="6.01263">
        <ele>1639.1</ele>
        <time>2019-12-28T10:46:10Z</time>
      </trkpt>
      <trkpt lat="45.22237" lon="6.01268">
        <ele>1640</ele>
        <time>2019-12-28T10:46:18Z</time>
      </trkpt>
      <trkpt lat="45.22236" lon="6.01272">
        <ele>1640.8</ele>
        <time>2019-12-28T10:46:24Z</time>
      </trkpt>
      <trkpt lat="45.22234" lon="6.01275">
        <ele>1641.6</ele>
        <time>2019-12-28T10:46:28Z</time>
      </trkpt>
      <trkpt lat="45.22232" lon="6.01278">
        <ele>1642.3</ele>
        <time>2019-12-28T10:46:32Z</time>
      </trkpt>
      <trkpt lat="45.2223" lon="6.01282">
        <ele>1643.2</ele>
        <time>2019-12-28T10:46:38Z</time>
      </trkpt>
      <trkpt lat="45.22229" lon="6.01287">
        <ele>1644.2</ele>
        <time>2019-12-28T10:46:47Z</time>
      </trkpt>
      <trkpt lat="45.2223" lon="6.01292">
        <ele>1645</ele>
        <time>2019-12-28T10:46:53Z</time>
      </trkpt>
      <trkpt lat="45.22232" lon="6.01295">
        <ele>1645.9</ele>
        <time>2019-12-28T10:47:01Z</time>
      </trkpt>
      <trkpt lat="45.22233" lon="6.013">
        <ele>1646.8</ele>
        <time>2019-12-28T10:47:09Z</time>
      </trkpt>
      <trkpt lat="45.22235" lon="6.01304">
        <ele>1647.7</ele>
        <time>2019-12-28T10:47:17Z</time>
      </trkpt>
      <trkpt lat="45.22239" lon="6.01306">
        <ele>1648.4</ele>
        <time>2019-12-28T10:47:23Z</time>
      </trkpt>
      <trkpt lat="45.22241" lon="6.01308">
        <ele>1648.9</ele>
        <time>2019-12-28T10:47:26Z</time>
      </trkpt>
      <trkpt lat="45.22244" lon="6.0131">
        <ele>1649.5</ele>
        <time>2019-12-28T10:47:31Z</time>
      </trkpt>
      <trkpt lat="45.22246" lon="6.01312">
        <ele>1650.2</ele>
        <time>2019-12-28T10:47:36Z</time>
      </trkpt>
      <trkpt lat="45.22249" lon="6.01313">
        <ele>1650.9</ele>
        <time>2019-12-28T10:47:40Z</time>
      </trkpt>
      <trkpt lat="45.22252" lon="6.01313">
        <ele>1651.4</ele>
        <time>2019-12-28T10:47:46Z</time>
      </trkpt>
      <trkpt lat="45.22255" lon="6.01312">
        <ele>1652</ele>
        <time>2019-12-28T10:47:52Z</time>
      </trkpt>
      <trkpt lat="45.22258" lon="6.0131">
        <ele>1652.7</ele>
        <time>2019-12-28T10:47:57Z</time>
      </trkpt>
      <trkpt lat="45.22263" lon="6.01309">
        <ele>1653.7</ele>
        <time>2019-12-28T10:48:03Z</time>
      </trkpt>
      <trkpt lat="45.22266" lon="6.01309">
        <ele>1654.4</ele>
        <time>2019-12-28T10:48:07Z</time>
      </trkpt>
      <trkpt lat="45.22269" lon="6.01308">
        <ele>1655</ele>
        <time>2019-12-28T10:48:15Z</time>
      </trkpt>
      <trkpt lat="45.22273" lon="6.01308">
        <ele>1655.9</ele>
        <time>2019-12-28T10:48:22Z</time>
      </trkpt>
      <trkpt lat="45.22276" lon="6.01308">
        <ele>1656.4</ele>
        <time>2019-12-28T10:48:25Z</time>
      </trkpt>
      <trkpt lat="45.22279" lon="6.01309">
        <ele>1657</ele>
        <time>2019-12-28T10:48:30Z</time>
      </trkpt>
      <trkpt lat="45.22282" lon="6.01311">
        <ele>1657.4</ele>
        <time>2019-12-28T10:48:35Z</time>
      </trkpt>
      <trkpt lat="45.22282" lon="6.01316">
        <ele>1658</ele>
        <time>2019-12-28T10:48:42Z</time>
      </trkpt>
      <trkpt lat="45.22281" lon="6.0132">
        <ele>1658.4</ele>
        <time>2019-12-28T10:48:47Z</time>
      </trkpt>
      <trkpt lat="45.2228" lon="6.01325">
        <ele>1659.1</ele>
        <time>2019-12-28T10:48:53Z</time>
      </trkpt>
      <trkpt lat="45.22279" lon="6.0133">
        <ele>1659.8</ele>
        <time>2019-12-28T10:48:58Z</time>
      </trkpt>
      <trkpt lat="45.22278" lon="6.01334">
        <ele>1660.5</ele>
        <time>2019-12-28T10:49:03Z</time>
      </trkpt>
      <trkpt lat="45.22277" lon="6.01339">
        <ele>1661.3</ele>
        <time>2019-12-28T10:49:07Z</time>
      </trkpt>
      <trkpt lat="45.22276" lon="6.01344">
        <ele>1662.2</ele>
        <time>2019-12-28T10:49:12Z</time>
      </trkpt>
      <trkpt lat="45.22277" lon="6.01349">
        <ele>1662.9</ele>
        <time>2019-12-28T10:49:15Z</time>
      </trkpt>
      <trkpt lat="45.22277" lon="6.01355">
        <ele>1663.7</ele>
        <time>2019-12-28T10:49:21Z</time>
      </trkpt>
      <trkpt lat="45.22276" lon="6.01359">
        <ele>1664.3</ele>
        <time>2019-12-28T10:49:25Z</time>
      </trkpt>
      <trkpt lat="45.22275" lon="6.01364">
        <ele>1665</ele>
        <time>2019-12-28T10:49:30Z</time>
      </trkpt>
      <trkpt lat="45.22273" lon="6.01368">
        <ele>1665.7</ele>
        <time>2019-12-28T10:49:37Z</time>
      </trkpt>
      <trkpt lat="45.22269" lon="6.0137">
        <ele>1666.3</ele>
        <time>2019-12-28T10:49:40Z</time>
      </trkpt>
      <trkpt lat="45.22267" lon="6.01372">
        <ele>1666.9</ele>
        <time>2019-12-28T10:49:45Z</time>
      </trkpt>
      <trkpt lat="45.22264" lon="6.01374">
        <ele>1667.5</ele>
        <time>2019-12-28T10:49:49Z</time>
      </trkpt>
      <trkpt lat="45.22261" lon="6.01376">
        <ele>1668</ele>
        <time>2019-12-28T10:49:54Z</time>
      </trkpt>
      <trkpt lat="45.22259" lon="6.01379">
        <ele>1668.5</ele>
        <time>2019-12-28T10:49:57Z</time>
      </trkpt>
      <trkpt lat="45.22255" lon="6.01381">
        <ele>1669.2</ele>
        <time>2019-12-28T10:50:01Z</time>
      </trkpt>
      <trkpt lat="45.22251" lon="6.01382">
        <ele>1669.9</ele>
        <time>2019-12-28T10:50:05Z</time>
      </trkpt>
      <trkpt lat="45.22247" lon="6.01385">
        <ele>1670.5</ele>
        <time>2019-12-28T10:50:11Z</time>
      </trkpt>
      <trkpt lat="45.22246" lon="6.01389">
        <ele>1671</ele>
        <time>2019-12-28T10:50:16Z</time>
      </trkpt>
      <trkpt lat="45.22244" lon="6.01392">
        <ele>1671.5</ele>
        <time>2019-12-28T10:50:21Z</time>
      </trkpt>
      <trkpt lat="45.22241" lon="6.01394">
        <ele>1671.9</ele>
        <time>2019-12-28T10:50:23Z</time>
      </trkpt>
      <trkpt lat="45.22238" lon="6.01396">
        <ele>1672.4</ele>
        <time>2019-12-28T10:50:27Z</time>
      </trkpt>
      <trkpt lat="45.22236" lon="6.01399">
        <ele>1672.8</ele>
        <time>2019-12-28T10:50:31Z</time>
      </trkpt>
      <trkpt lat="45.22235" lon="6.01403">
        <ele>1673.3</ele>
        <time>2019-12-28T10:50:36Z</time>
      </trkpt>
      <trkpt lat="45.22234" lon="6.01407">
        <ele>1673.8</ele>
        <time>2019-12-28T10:50:41Z</time>
      </trkpt>
      <trkpt lat="45.22234" lon="6.01411">
        <ele>1674.2</ele>
        <time>2019-12-28T10:50:47Z</time>
      </trkpt>
      <trkpt lat="45.22232" lon="6.01414">
        <ele>1674.7</ele>
        <time>2019-12-28T10:50:52Z</time>
      </trkpt>
      <trkpt lat="45.2223" lon="6.01418">
        <ele>1675.2</ele>
        <time>2019-12-28T10:50:57Z</time>
      </trkpt>
      <trkpt lat="45.2223" lon="6.01423">
        <ele>1675.6</ele>
        <time>2019-12-28T10:51:01Z</time>
      </trkpt>
      <trkpt lat="45.2223" lon="6.01428">
        <ele>1676</ele>
        <time>2019-12-28T10:51:05Z</time>
      </trkpt>
      <trkpt lat="45.2223" lon="6.01433">
        <ele>1676.4</ele>
        <time>2019-12-28T10:51:09Z</time>
      </trkpt>
      <trkpt lat="45.22231" lon="6.01439">
        <ele>1676.8</ele>
        <time>2019-12-28T10:51:13Z</time>
      </trkpt>
      <trkpt lat="45.22232" lon="6.01443">
        <ele>1677.1</ele>
        <time>2019-12-28T10:51:17Z</time>
      </trkpt>
      <trkpt lat="45.22234" lon="6.01446">
        <ele>1677.4</ele>
        <time>2019-12-28T10:51:21Z</time>
      </trkpt>
      <trkpt lat="45.22236" lon="6.0145">
        <ele>1677.8</ele>
        <time>2019-12-28T10:51:25Z</time>
      </trkpt>
      <trkpt lat="45.22237" lon="6.01455">
        <ele>1678.1</ele>
        <time>2019-12-28T10:51:29Z</time>
      </trkpt>
      <trkpt lat="45.22237" lon="6.01459">
        <ele>1678.4</ele>
        <time>2019-12-28T10:51:33Z</time>
      </trkpt>
      <trkpt lat="45.22237" lon="6.01463">
        <ele>1678.6</ele>
        <time>2019-12-28T10:51:38Z</time>
      </trkpt>
      <trkpt lat="45.22237" lon="6.01468">
        <ele>1678.8</ele>
        <time>2019-12-28T10:51:43Z</time>
      </trkpt>
      <trkpt lat="45.22238" lon="6.01472">
        <ele>1679</ele>
        <time>2019-12-28T10:51:47Z</time>
      </trkpt>
      <trkpt lat="45.22238" lon="6.01476">
        <ele>1679.2</ele>
        <time>2019-12-28T10:51:51Z</time>
      </trkpt>
      <trkpt lat="45.22239" lon="6.01481">
        <ele>1679.4</ele>
        <time>2019-12-28T10:51:55Z</time>
      </trkpt>
      <trkpt lat="45.2224" lon="6.01486">
        <ele>1679.6</ele>
        <time>2019-12-28T10:51:59Z</time>
      </trkpt>
      <trkpt lat="45.2224" lon="6.0149">
        <ele>1679.7</ele>
        <time>2019-12-28T10:52:03Z</time>
      </trkpt>
      <trkpt lat="45.22241" lon="6.01495">
        <ele>1679.9</ele>
        <time>2019-12-28T10:52:07Z</time>
      </trkpt>
      <trkpt lat="45.22243" lon="6.01501">
        <ele>1680.1</ele>
        <time>2019-12-28T10:52:11Z</time>
      </trkpt>
      <trkpt lat="45.22243" lon="6.01505">
        <ele>1680.2</ele>
        <time>2019-12-28T10:52:14Z</time>
      </trkpt>
      <trkpt lat="45.22245" lon="6.0151">
        <ele>1680.4</ele>
        <time>2019-12-28T10:52:16Z</time>
      </trkpt>
      <trkpt lat="45.22247" lon="6.01514">
        <ele>1680.4</ele>
        <time>2019-12-28T10:52:18Z</time>
      </trkpt>
      <trkpt lat="45.22248" lon="6.01518">
        <ele>1680.5</ele>
        <time>2019-12-28T10:52:23Z</time>
      </trkpt>
      <trkpt lat="45.22247" lon="6.01522">
        <ele>1680.5</ele>
        <time>2019-12-28T10:52:27Z</time>
      </trkpt>
      <trkpt lat="45.22246" lon="6.01527">
        <ele>1680.6</ele>
        <time>2019-12-28T10:52:32Z</time>
      </trkpt>
      <trkpt lat="45.22247" lon="6.01532">
        <ele>1680.6</ele>
        <time>2019-12-28T10:52:35Z</time>
      </trkpt>
      <trkpt lat="45.22248" lon="6.01537">
        <ele>1680.6</ele>
        <time>2019-12-28T10:52:38Z</time>
      </trkpt>
      <trkpt lat="45.22249" lon="6.01541">
        <ele>1680.6</ele>
        <time>2019-12-28T10:52:42Z</time>
      </trkpt>
      <trkpt lat="45.2225" lon="6.01545">
        <ele>1680.6</ele>
        <time>2019-12-28T10:52:46Z</time>
      </trkpt>
      <trkpt lat="45.22251" lon="6.0155">
        <ele>1680.6</ele>
        <time>2019-12-28T10:52:49Z</time>
      </trkpt>
      <trkpt lat="45.22251" lon="6.01554">
        <ele>1680.6</ele>
        <time>2019-12-28T10:52:52Z</time>
      </trkpt>
      <trkpt lat="45.22251" lon="6.01558">
        <ele>1680.6</ele>
        <time>2019-12-28T10:53:13Z</time>
      </trkpt>
      <trkpt lat="45.22254" lon="6.01558">
        <ele>1680.6</ele>
        <time>2019-12-28T10:53:24Z</time>
      </trkpt>
      <trkpt lat="45.22257" lon="6.01557">
        <ele>1680.6</ele>
        <time>2019-12-28T10:53:28Z</time>
      </trkpt>
      <trkpt lat="45.2226" lon="6.01556">
        <ele>1680.6</ele>
        <time>2019-12-28T10:53:32Z</time>
      </trkpt>
      <trkpt lat="45.22259" lon="6.0156">
        <ele>1680.6</ele>
        <time>2019-12-28T10:53:55Z</time>
      </trkpt>
      <trkpt lat="45.22258" lon="6.01565">
        <ele>1680.6</ele>
        <time>2019-12-28T10:53:59Z</time>
      </trkpt>
      <trkpt lat="45.22256" lon="6.0157">
        <ele>1680.6</ele>
        <time>2019-12-28T10:54:03Z</time>
      </trkpt>
      <trkpt lat="45.22256" lon="6.01575">
        <ele>1680.6</ele>
        <time>2019-12-28T10:54:05Z</time>
      </trkpt>
      <trkpt lat="45.22256" lon="6.01579">
        <ele>1680.6</ele>
        <time>2019-12-28T10:54:07Z</time>
      </trkpt>
      <trkpt lat="45.22256" lon="6.01584">
        <ele>1680.6</ele>
        <time>2019-12-28T10:54:10Z</time>
      </trkpt>
      <trkpt lat="45.22258" lon="6.01588">
        <ele>1680.6</ele>
        <time>2019-12-28T10:54:13Z</time>
      </trkpt>
      <trkpt lat="45.22261" lon="6.01593">
        <ele>1680.5</ele>
        <time>2019-12-28T10:54:17Z</time>
      </trkpt>
      <trkpt lat="45.22264" lon="6.01598">
        <ele>1680.5</ele>
        <time>2019-12-28T10:54:21Z</time>
      </trkpt>
      <trkpt lat="45.22263" lon="6.01603">
        <ele>1680.4</ele>
        <time>2019-12-28T10:54:24Z</time>
      </trkpt>
      <trkpt lat="45.22264" lon="6.01607">
        <ele>1680.3</ele>
        <time>2019-12-28T10:54:26Z</time>
      </trkpt>
      <trkpt lat="45.22264" lon="6.01611">
        <ele>1680.2</ele>
        <time>2019-12-28T10:54:28Z</time>
      </trkpt>
      <trkpt lat="45.22264" lon="6.01616">
        <ele>1680.1</ele>
        <time>2019-12-28T10:54:30Z</time>
      </trkpt>
      <trkpt lat="45.22264" lon="6.0162">
        <ele>1680</ele>
        <time>2019-12-28T10:54:32Z</time>
      </trkpt>
      <trkpt lat="45.22265" lon="6.01624">
        <ele>1679.9</ele>
        <time>2019-12-28T10:54:34Z</time>
      </trkpt>
      <trkpt lat="45.22267" lon="6.0163">
        <ele>1679.7</ele>
        <time>2019-12-28T10:54:37Z</time>
      </trkpt>
      <trkpt lat="45.22269" lon="6.01635">
        <ele>1679.6</ele>
        <time>2019-12-28T10:54:40Z</time>
      </trkpt>
      <trkpt lat="45.22269" lon="6.0164">
        <ele>1679.4</ele>
        <time>2019-12-28T10:54:43Z</time>
      </trkpt>
      <trkpt lat="45.22269" lon="6.01649">
        <ele>1679.1</ele>
        <time>2019-12-28T10:54:47Z</time>
      </trkpt>
      <trkpt lat="45.22269" lon="6.01654">
        <ele>1679</ele>
        <time>2019-12-28T10:54:49Z</time>
      </trkpt>
      <trkpt lat="45.22269" lon="6.01659">
        <ele>1678.8</ele>
        <time>2019-12-28T10:54:51Z</time>
      </trkpt>
      <trkpt lat="45.22269" lon="6.01664">
        <ele>1678.7</ele>
        <time>2019-12-28T10:54:53Z</time>
      </trkpt>
      <trkpt lat="45.22269" lon="6.01669">
        <ele>1678.5</ele>
        <time>2019-12-28T10:54:55Z</time>
      </trkpt>
      <trkpt lat="45.2227" lon="6.01673">
        <ele>1678.4</ele>
        <time>2019-12-28T10:54:57Z</time>
      </trkpt>
      <trkpt lat="45.2227" lon="6.01678">
        <ele>1678.3</ele>
        <time>2019-12-28T10:55:00Z</time>
      </trkpt>
      <trkpt lat="45.22271" lon="6.01684">
        <ele>1678.2</ele>
        <time>2019-12-28T10:55:03Z</time>
      </trkpt>
      <trkpt lat="45.22273" lon="6.0169">
        <ele>1678.1</ele>
        <time>2019-12-28T10:55:06Z</time>
      </trkpt>
      <trkpt lat="45.22275" lon="6.01696">
        <ele>1678</ele>
        <time>2019-12-28T10:55:09Z</time>
      </trkpt>
      <trkpt lat="45.22275" lon="6.01703">
        <ele>1677.9</ele>
        <time>2019-12-28T10:55:13Z</time>
      </trkpt>
      <trkpt lat="45.22276" lon="6.01708">
        <ele>1677.9</ele>
        <time>2019-12-28T10:55:16Z</time>
      </trkpt>
      <trkpt lat="45.22275" lon="6.01712">
        <ele>1677.9</ele>
        <time>2019-12-28T10:55:19Z</time>
      </trkpt>
      <trkpt lat="45.22274" lon="6.01716">
        <ele>1677.9</ele>
        <time>2019-12-28T10:55:22Z</time>
      </trkpt>
      <trkpt lat="45.22273" lon="6.01721">
        <ele>1678</ele>
        <time>2019-12-28T10:55:25Z</time>
      </trkpt>
      <trkpt lat="45.22272" lon="6.01725">
        <ele>1678.1</ele>
        <time>2019-12-28T10:55:27Z</time>
      </trkpt>
      <trkpt lat="45.22271" lon="6.0173">
        <ele>1678.2</ele>
        <time>2019-12-28T10:55:30Z</time>
      </trkpt>
      <trkpt lat="45.22269" lon="6.01736">
        <ele>1678.4</ele>
        <time>2019-12-28T10:55:33Z</time>
      </trkpt>
      <trkpt lat="45.22268" lon="6.01742">
        <ele>1678.7</ele>
        <time>2019-12-28T10:55:36Z</time>
      </trkpt>
      <trkpt lat="45.22266" lon="6.01748">
        <ele>1679</ele>
        <time>2019-12-28T10:55:40Z</time>
      </trkpt>
      <trkpt lat="45.22266" lon="6.01753">
        <ele>1679.2</ele>
        <time>2019-12-28T10:55:43Z</time>
      </trkpt>
      <trkpt lat="45.22264" lon="6.01757">
        <ele>1679.6</ele>
        <time>2019-12-28T10:55:46Z</time>
      </trkpt>
      <trkpt lat="45.22264" lon="6.01763">
        <ele>1681.1</ele>
        <time>2019-12-28T10:55:51Z</time>
      </trkpt>
      <trkpt lat="45.22265" lon="6.01768">
        <ele>1682.1</ele>
        <time>2019-12-28T10:55:56Z</time>
      </trkpt>
      <trkpt lat="45.22265" lon="6.01773">
        <ele>1683.9</ele>
        <time>2019-12-28T10:56:13Z</time>
      </trkpt>
      <trkpt lat="45.22266" lon="6.01776">
        <ele>1685</ele>
        <time>2019-12-28T10:56:17Z</time>
      </trkpt>
      <trkpt lat="45.22268" lon="6.01781">
        <ele>1686.8</ele>
        <time>2019-12-28T10:56:22Z</time>
      </trkpt>
      <trkpt lat="45.22269" lon="6.01785">
        <ele>1687.8</ele>
        <time>2019-12-28T10:56:28Z</time>
      </trkpt>
      <trkpt lat="45.22267" lon="6.01789">
        <ele>1687.7</ele>
        <time>2019-12-28T10:56:33Z</time>
      </trkpt>
      <trkpt lat="45.22263" lon="6.01791">
        <ele>1687.6</ele>
        <time>2019-12-28T10:56:39Z</time>
      </trkpt>
      <trkpt lat="45.2226" lon="6.01792">
        <ele>1687.3</ele>
        <time>2019-12-28T10:56:45Z</time>
      </trkpt>
      <trkpt lat="45.22257" lon="6.01791">
        <ele>1687</ele>
        <time>2019-12-28T10:56:55Z</time>
      </trkpt>
      <trkpt lat="45.22254" lon="6.01791">
        <ele>1686.6</ele>
        <time>2019-12-28T10:57:01Z</time>
      </trkpt>
      <trkpt lat="45.22251" lon="6.01791">
        <ele>1686.2</ele>
        <time>2019-12-28T10:57:04Z</time>
      </trkpt>
      <trkpt lat="45.22248" lon="6.01792">
        <ele>1685.7</ele>
        <time>2019-12-28T10:57:09Z</time>
      </trkpt>
      <trkpt lat="45.22246" lon="6.01796">
        <ele>1685.2</ele>
        <time>2019-12-28T10:57:13Z</time>
      </trkpt>
      <trkpt lat="45.22247" lon="6.018">
        <ele>1687</ele>
        <time>2019-12-28T10:57:20Z</time>
      </trkpt>
      <trkpt lat="45.22248" lon="6.01804">
        <ele>1687.6</ele>
        <time>2019-12-28T10:57:24Z</time>
      </trkpt>
      <trkpt lat="45.22247" lon="6.01808">
        <ele>1688.3</ele>
        <time>2019-12-28T10:57:29Z</time>
      </trkpt>
      <trkpt lat="45.22248" lon="6.01813">
        <ele>1689</ele>
        <time>2019-12-28T10:57:34Z</time>
      </trkpt>
      <trkpt lat="45.22249" lon="6.01817">
        <ele>1689.8</ele>
        <time>2019-12-28T10:57:39Z</time>
      </trkpt>
      <trkpt lat="45.2225" lon="6.01821">
        <ele>1690.5</ele>
        <time>2019-12-28T10:57:44Z</time>
      </trkpt>
      <trkpt lat="45.2225" lon="6.01826">
        <ele>1692.7</ele>
        <time>2019-12-28T10:57:49Z</time>
      </trkpt>
      <trkpt lat="45.2225" lon="6.01831">
        <ele>1692.2</ele>
        <time>2019-12-28T10:57:53Z</time>
      </trkpt>
      <trkpt lat="45.22248" lon="6.01836">
        <ele>1692.8</ele>
        <time>2019-12-28T10:57:56Z</time>
      </trkpt>
      <trkpt lat="45.22249" lon="6.01841">
        <ele>1693.3</ele>
        <time>2019-12-28T10:57:59Z</time>
      </trkpt>
      <trkpt lat="45.2225" lon="6.01844">
        <ele>1693.7</ele>
        <time>2019-12-28T10:58:03Z</time>
      </trkpt>
      <trkpt lat="45.22249" lon="6.01849">
        <ele>1694.2</ele>
        <time>2019-12-28T10:58:07Z</time>
      </trkpt>
      <trkpt lat="45.22248" lon="6.01852">
        <ele>1694.5</ele>
        <time>2019-12-28T10:58:12Z</time>
      </trkpt>
      <trkpt lat="45.22246" lon="6.01857">
        <ele>1695</ele>
        <time>2019-12-28T10:58:17Z</time>
      </trkpt>
      <trkpt lat="45.22245" lon="6.01861">
        <ele>1695.3</ele>
        <time>2019-12-28T10:58:20Z</time>
      </trkpt>
      <trkpt lat="45.22245" lon="6.01865">
        <ele>1695.7</ele>
        <time>2019-12-28T10:58:23Z</time>
      </trkpt>
      <trkpt lat="45.22245" lon="6.01868">
        <ele>1696</ele>
        <time>2019-12-28T10:58:26Z</time>
      </trkpt>
      <trkpt lat="45.22247" lon="6.01873">
        <ele>1696.3</ele>
        <time>2019-12-28T10:58:30Z</time>
      </trkpt>
      <trkpt lat="45.22248" lon="6.0188">
        <ele>1696.7</ele>
        <time>2019-12-28T10:58:34Z</time>
      </trkpt>
      <trkpt lat="45.22249" lon="6.01884">
        <ele>1697</ele>
        <time>2019-12-28T10:58:37Z</time>
      </trkpt>
      <trkpt lat="45.2225" lon="6.01889">
        <ele>1697.4</ele>
        <time>2019-12-28T10:58:41Z</time>
      </trkpt>
      <trkpt lat="45.22251" lon="6.01893">
        <ele>1697.7</ele>
        <time>2019-12-28T10:58:45Z</time>
      </trkpt>
      <trkpt lat="45.22251" lon="6.01898">
        <ele>1698</ele>
        <time>2019-12-28T10:58:49Z</time>
      </trkpt>
      <trkpt lat="45.22252" lon="6.01904">
        <ele>1698.4</ele>
        <time>2019-12-28T10:58:56Z</time>
      </trkpt>
      <trkpt lat="45.22253" lon="6.01908">
        <ele>1698.6</ele>
        <time>2019-12-28T10:59:01Z</time>
      </trkpt>
      <trkpt lat="45.22254" lon="6.01913">
        <ele>1698.9</ele>
        <time>2019-12-28T10:59:05Z</time>
      </trkpt>
      <trkpt lat="45.22255" lon="6.01917">
        <ele>1699.2</ele>
        <time>2019-12-28T10:59:11Z</time>
      </trkpt>
      <trkpt lat="45.22254" lon="6.01922">
        <ele>1699.5</ele>
        <time>2019-12-28T10:59:14Z</time>
      </trkpt>
      <trkpt lat="45.22253" lon="6.01927">
        <ele>1699.7</ele>
        <time>2019-12-28T10:59:17Z</time>
      </trkpt>
      <trkpt lat="45.22253" lon="6.01931">
        <ele>1699.9</ele>
        <time>2019-12-28T10:59:19Z</time>
      </trkpt>
      <trkpt lat="45.22253" lon="6.01935">
        <ele>1700</ele>
        <time>2019-12-28T10:59:22Z</time>
      </trkpt>
      <trkpt lat="45.22252" lon="6.0194">
        <ele>1700.2</ele>
        <time>2019-12-28T10:59:26Z</time>
      </trkpt>
      <trkpt lat="45.22251" lon="6.01943">
        <ele>1700.4</ele>
        <time>2019-12-28T10:59:29Z</time>
      </trkpt>
      <trkpt lat="45.2225" lon="6.01947">
        <ele>1700.6</ele>
        <time>2019-12-28T10:59:33Z</time>
      </trkpt>
      <trkpt lat="45.2225" lon="6.01952">
        <ele>1700.9</ele>
        <time>2019-12-28T10:59:38Z</time>
      </trkpt>
      <trkpt lat="45.22248" lon="6.01958">
        <ele>1701.3</ele>
        <time>2019-12-28T10:59:42Z</time>
      </trkpt>
      <trkpt lat="45.22246" lon="6.01964">
        <ele>1701.7</ele>
        <time>2019-12-28T10:59:46Z</time>
      </trkpt>
      <trkpt lat="45.22246" lon="6.01968">
        <ele>1702.1</ele>
        <time>2019-12-28T10:59:48Z</time>
      </trkpt>
      <trkpt lat="45.22245" lon="6.01972">
        <ele>1702.5</ele>
        <time>2019-12-28T10:59:50Z</time>
      </trkpt>
      <trkpt lat="45.22245" lon="6.01976">
        <ele>1702.9</ele>
        <time>2019-12-28T10:59:53Z</time>
      </trkpt>
      <trkpt lat="45.22247" lon="6.01981">
        <ele>1703.3</ele>
        <time>2019-12-28T10:59:58Z</time>
      </trkpt>
      <trkpt lat="45.22248" lon="6.01985">
        <ele>1703.7</ele>
        <time>2019-12-28T11:00:04Z</time>
      </trkpt>
      <trkpt lat="45.22248" lon="6.01991">
        <ele>1704.1</ele>
        <time>2019-12-28T11:00:10Z</time>
      </trkpt>
      <trkpt lat="45.22248" lon="6.01997">
        <ele>1704.8</ele>
        <time>2019-12-28T11:00:15Z</time>
      </trkpt>
      <trkpt lat="45.22249" lon="6.02002">
        <ele>1705.4</ele>
        <time>2019-12-28T11:00:20Z</time>
      </trkpt>
      <trkpt lat="45.2225" lon="6.02006">
        <ele>1705.9</ele>
        <time>2019-12-28T11:00:25Z</time>
      </trkpt>
      <trkpt lat="45.22251" lon="6.0201">
        <ele>1706.3</ele>
        <time>2019-12-28T11:00:30Z</time>
      </trkpt>
      <trkpt lat="45.2225" lon="6.02015">
        <ele>1706.7</ele>
        <time>2019-12-28T11:00:36Z</time>
      </trkpt>
      <trkpt lat="45.22249" lon="6.02019">
        <ele>1707.3</ele>
        <time>2019-12-28T11:00:41Z</time>
      </trkpt>
      <trkpt lat="45.22249" lon="6.02023">
        <ele>1707.8</ele>
        <time>2019-12-28T11:00:45Z</time>
      </trkpt>
      <trkpt lat="45.22249" lon="6.02028">
        <ele>1708.5</ele>
        <time>2019-12-28T11:00:50Z</time>
      </trkpt>
      <trkpt lat="45.2225" lon="6.02032">
        <ele>1709.1</ele>
        <time>2019-12-28T11:00:55Z</time>
      </trkpt>
      <trkpt lat="45.2225" lon="6.02036">
        <ele>1709.7</ele>
        <time>2019-12-28T11:00:59Z</time>
      </trkpt>
      <trkpt lat="45.22247" lon="6.02035">
        <ele>1710.3</ele>
        <time>2019-12-28T11:01:10Z</time>
      </trkpt>
      <trkpt lat="45.22249" lon="6.0204">
        <ele>1711.2</ele>
        <time>2019-12-28T11:01:23Z</time>
      </trkpt>
      <trkpt lat="45.22249" lon="6.02045">
        <ele>1711.9</ele>
        <time>2019-12-28T11:01:26Z</time>
      </trkpt>
      <trkpt lat="45.22249" lon="6.0205">
        <ele>1712.7</ele>
        <time>2019-12-28T11:01:30Z</time>
      </trkpt>
      <trkpt lat="45.22249" lon="6.02054">
        <ele>1713.4</ele>
        <time>2019-12-28T11:01:34Z</time>
      </trkpt>
      <trkpt lat="45.2225" lon="6.02058">
        <ele>1714.1</ele>
        <time>2019-12-28T11:01:39Z</time>
      </trkpt>
      <trkpt lat="45.22249" lon="6.02062">
        <ele>1714.8</ele>
        <time>2019-12-28T11:01:44Z</time>
      </trkpt>
      <trkpt lat="45.22249" lon="6.02066">
        <ele>1715.4</ele>
        <time>2019-12-28T11:01:48Z</time>
      </trkpt>
      <trkpt lat="45.22248" lon="6.02071">
        <ele>1716</ele>
        <time>2019-12-28T11:01:52Z</time>
      </trkpt>
      <trkpt lat="45.22247" lon="6.02076">
        <ele>1716.6</ele>
        <time>2019-12-28T11:01:57Z</time>
      </trkpt>
      <trkpt lat="45.22248" lon="6.02081">
        <ele>1717.1</ele>
        <time>2019-12-28T11:02:03Z</time>
      </trkpt>
      <trkpt lat="45.22248" lon="6.02084">
        <ele>1717.6</ele>
        <time>2019-12-28T11:02:07Z</time>
      </trkpt>
      <trkpt lat="45.2225" lon="6.02088">
        <ele>1718.1</ele>
        <time>2019-12-28T11:02:15Z</time>
      </trkpt>
      <trkpt lat="45.2225" lon="6.02093">
        <ele>1718.6</ele>
        <time>2019-12-28T11:02:21Z</time>
      </trkpt>
      <trkpt lat="45.2225" lon="6.02097">
        <ele>1719.1</ele>
        <time>2019-12-28T11:02:26Z</time>
      </trkpt>
      <trkpt lat="45.2225" lon="6.02102">
        <ele>1719.8</ele>
        <time>2019-12-28T11:02:31Z</time>
      </trkpt>
      <trkpt lat="45.2225" lon="6.02107">
        <ele>1720.4</ele>
        <time>2019-12-28T11:02:35Z</time>
      </trkpt>
      <trkpt lat="45.22249" lon="6.02111">
        <ele>1720.9</ele>
        <time>2019-12-28T11:02:40Z</time>
      </trkpt>
      <trkpt lat="45.22251" lon="6.02117">
        <ele>1721.6</ele>
        <time>2019-12-28T11:02:46Z</time>
      </trkpt>
      <trkpt lat="45.22251" lon="6.02121">
        <ele>1722</ele>
        <time>2019-12-28T11:02:50Z</time>
      </trkpt>
      <trkpt lat="45.22251" lon="6.02127">
        <ele>1722.5</ele>
        <time>2019-12-28T11:02:54Z</time>
      </trkpt>
      <trkpt lat="45.22252" lon="6.02131">
        <ele>1723</ele>
        <time>2019-12-28T11:02:58Z</time>
      </trkpt>
      <trkpt lat="45.22252" lon="6.02136">
        <ele>1723.6</ele>
        <time>2019-12-28T11:03:02Z</time>
      </trkpt>
      <trkpt lat="45.22251" lon="6.02141">
        <ele>1724.4</ele>
        <time>2019-12-28T11:03:06Z</time>
      </trkpt>
      <trkpt lat="45.22249" lon="6.02146">
        <ele>1725.2</ele>
        <time>2019-12-28T11:03:10Z</time>
      </trkpt>
      <trkpt lat="45.22248" lon="6.02151">
        <ele>1726</ele>
        <time>2019-12-28T11:03:14Z</time>
      </trkpt>
      <trkpt lat="45.22247" lon="6.02157">
        <ele>1726.8</ele>
        <time>2019-12-28T11:03:18Z</time>
      </trkpt>
      <trkpt lat="45.22246" lon="6.02161">
        <ele>1727.4</ele>
        <time>2019-12-28T11:03:22Z</time>
      </trkpt>
      <trkpt lat="45.22244" lon="6.02166">
        <ele>1728.1</ele>
        <time>2019-12-28T11:03:28Z</time>
      </trkpt>
      <trkpt lat="45.22244" lon="6.0217">
        <ele>1728.6</ele>
        <time>2019-12-28T11:03:32Z</time>
      </trkpt>
      <trkpt lat="45.22246" lon="6.02175">
        <ele>1731.6</ele>
        <time>2019-12-28T11:03:38Z</time>
      </trkpt>
      <trkpt lat="45.2225" lon="6.02176">
        <ele>1732.8</ele>
        <time>2019-12-28T11:03:44Z</time>
      </trkpt>
      <trkpt lat="45.22253" lon="6.02176">
        <ele>1733.9</ele>
        <time>2019-12-28T11:03:48Z</time>
      </trkpt>
      <trkpt lat="45.22256" lon="6.02176">
        <ele>1734.7</ele>
        <time>2019-12-28T11:03:51Z</time>
      </trkpt>
      <trkpt lat="45.22259" lon="6.02176">
        <ele>1735.5</ele>
        <time>2019-12-28T11:03:56Z</time>
      </trkpt>
      <trkpt lat="45.22262" lon="6.02175">
        <ele>1736.4</ele>
        <time>2019-12-28T11:04:04Z</time>
      </trkpt>
      <trkpt lat="45.22267" lon="6.02175">
        <ele>1737.5</ele>
        <time>2019-12-28T11:04:08Z</time>
      </trkpt>
      <trkpt lat="45.2227" lon="6.02174">
        <ele>1738.3</ele>
        <time>2019-12-28T11:04:12Z</time>
      </trkpt>
      <trkpt lat="45.22273" lon="6.02174">
        <ele>1739.2</ele>
        <time>2019-12-28T11:04:16Z</time>
      </trkpt>
      <trkpt lat="45.22277" lon="6.02175">
        <ele>1740.1</ele>
        <time>2019-12-28T11:04:22Z</time>
      </trkpt>
      <trkpt lat="45.22281" lon="6.02175">
        <ele>1741</ele>
        <time>2019-12-28T11:04:26Z</time>
      </trkpt>
      <trkpt lat="45.22285" lon="6.02175">
        <ele>1741.5</ele>
        <time>2019-12-28T11:04:32Z</time>
      </trkpt>
      <trkpt lat="45.22287" lon="6.02174">
        <ele>1742.1</ele>
        <time>2019-12-28T11:04:50Z</time>
      </trkpt>
      <trkpt lat="45.22292" lon="6.02174">
        <ele>1742.8</ele>
        <time>2019-12-28T11:05:22Z</time>
      </trkpt>
      <trkpt lat="45.22295" lon="6.02174">
        <ele>1743.3</ele>
        <time>2019-12-28T11:05:26Z</time>
      </trkpt>
      <trkpt lat="45.223" lon="6.02174">
        <ele>1744</ele>
        <time>2019-12-28T11:05:30Z</time>
      </trkpt>
      <trkpt lat="45.22303" lon="6.02175">
        <ele>1744.8</ele>
        <time>2019-12-28T11:05:34Z</time>
      </trkpt>
      <trkpt lat="45.22305" lon="6.02178">
        <ele>1746.2</ele>
        <time>2019-12-28T11:05:40Z</time>
      </trkpt>
      <trkpt lat="45.22307" lon="6.02181">
        <ele>1747.6</ele>
        <time>2019-12-28T11:05:48Z</time>
      </trkpt>
      <trkpt lat="45.2231" lon="6.02186">
        <ele>1748.3</ele>
        <time>2019-12-28T11:05:56Z</time>
      </trkpt>
      <trkpt lat="45.22312" lon="6.0219">
        <ele>1749.6</ele>
        <time>2019-12-28T11:06:00Z</time>
      </trkpt>
      <trkpt lat="45.22312" lon="6.02194">
        <ele>1750.3</ele>
        <time>2019-12-28T11:06:06Z</time>
      </trkpt>
      <trkpt lat="45.22313" lon="6.02199">
        <ele>1751.1</ele>
        <time>2019-12-28T11:06:12Z</time>
      </trkpt>
      <trkpt lat="45.22312" lon="6.02203">
        <ele>1751.8</ele>
        <time>2019-12-28T11:06:18Z</time>
      </trkpt>
      <trkpt lat="45.22312" lon="6.02208">
        <ele>1752.5</ele>
        <time>2019-12-28T11:06:24Z</time>
      </trkpt>
      <trkpt lat="45.22313" lon="6.02213">
        <ele>1753.2</ele>
        <time>2019-12-28T11:06:32Z</time>
      </trkpt>
      <trkpt lat="45.22314" lon="6.02216">
        <ele>1754.6</ele>
        <time>2019-12-28T11:06:36Z</time>
      </trkpt>
      <trkpt lat="45.22314" lon="6.02221">
        <ele>1755.3</ele>
        <time>2019-12-28T11:06:40Z</time>
      </trkpt>
      <trkpt lat="45.22315" lon="6.02225">
        <ele>1756.1</ele>
        <time>2019-12-28T11:06:44Z</time>
      </trkpt>
      <trkpt lat="45.22317" lon="6.02229">
        <ele>1757.5</ele>
        <time>2019-12-28T11:06:52Z</time>
      </trkpt>
      <trkpt lat="45.22318" lon="6.02234">
        <ele>1758.2</ele>
        <time>2019-12-28T11:06:58Z</time>
      </trkpt>
      <trkpt lat="45.22319" lon="6.02238">
        <ele>1759</ele>
        <time>2019-12-28T11:07:02Z</time>
      </trkpt>
      <trkpt lat="45.22321" lon="6.0224">
        <ele>1760.4</ele>
        <time>2019-12-28T11:07:08Z</time>
      </trkpt>
      <trkpt lat="45.22325" lon="6.02242">
        <ele>1761.1</ele>
        <time>2019-12-28T11:07:14Z</time>
      </trkpt>
      <trkpt lat="45.22328" lon="6.02244">
        <ele>1762.5</ele>
        <time>2019-12-28T11:07:18Z</time>
      </trkpt>
      <trkpt lat="45.2233" lon="6.02247">
        <ele>1763.3</ele>
        <time>2019-12-28T11:07:22Z</time>
      </trkpt>
      <trkpt lat="45.22331" lon="6.0225">
        <ele>1764.7</ele>
        <time>2019-12-28T11:07:26Z</time>
      </trkpt>
      <trkpt lat="45.22334" lon="6.02255">
        <ele>1765.4</ele>
        <time>2019-12-28T11:07:32Z</time>
      </trkpt>
      <trkpt lat="45.22338" lon="6.02258">
        <ele>1767.5</ele>
        <time>2019-12-28T11:07:36Z</time>
      </trkpt>
      <trkpt lat="45.2234" lon="6.02262">
        <ele>1768.1</ele>
        <time>2019-12-28T11:07:40Z</time>
      </trkpt>
      <trkpt lat="45.22341" lon="6.02266">
        <ele>1769.4</ele>
        <time>2019-12-28T11:07:46Z</time>
      </trkpt>
      <trkpt lat="45.22343" lon="6.0227">
        <ele>1770</ele>
        <time>2019-12-28T11:07:52Z</time>
      </trkpt>
      <trkpt lat="45.22345" lon="6.02273">
        <ele>1770.7</ele>
        <time>2019-12-28T11:07:58Z</time>
      </trkpt>
      <trkpt lat="45.22346" lon="6.02276">
        <ele>1771.3</ele>
        <time>2019-12-28T11:08:02Z</time>
      </trkpt>
      <trkpt lat="45.22348" lon="6.02281">
        <ele>1772.4</ele>
        <time>2019-12-28T11:08:10Z</time>
      </trkpt>
      <trkpt lat="45.22349" lon="6.02284">
        <ele>1773</ele>
        <time>2019-12-28T11:08:16Z</time>
      </trkpt>
      <trkpt lat="45.2235" lon="6.02289">
        <ele>1774.1</ele>
        <time>2019-12-28T11:08:24Z</time>
      </trkpt>
      <trkpt lat="45.2235" lon="6.02292">
        <ele>1774.6</ele>
        <time>2019-12-28T11:08:29Z</time>
      </trkpt>
      <trkpt lat="45.22351" lon="6.02297">
        <ele>1775.1</ele>
        <time>2019-12-28T11:08:36Z</time>
      </trkpt>
      <trkpt lat="45.22352" lon="6.02303">
        <ele>1776.2</ele>
        <time>2019-12-28T11:08:40Z</time>
      </trkpt>
      <trkpt lat="45.22355" lon="6.02305">
        <ele>1776.7</ele>
        <time>2019-12-28T11:08:44Z</time>
      </trkpt>
      <trkpt lat="45.22357" lon="6.02308">
        <ele>1778</ele>
        <time>2019-12-28T11:08:50Z</time>
      </trkpt>
      <trkpt lat="45.22359" lon="6.02312">
        <ele>1778.9</ele>
        <time>2019-12-28T11:08:56Z</time>
      </trkpt>
      <trkpt lat="45.22361" lon="6.02315">
        <ele>1779.4</ele>
        <time>2019-12-28T11:09:00Z</time>
      </trkpt>
      <trkpt lat="45.22362" lon="6.02319">
        <ele>1780.9</ele>
        <time>2019-12-28T11:09:04Z</time>
      </trkpt>
      <trkpt lat="45.22364" lon="6.02323">
        <ele>1781.4</ele>
        <time>2019-12-28T11:09:10Z</time>
      </trkpt>
      <trkpt lat="45.22366" lon="6.02326">
        <ele>1783</ele>
        <time>2019-12-28T11:09:16Z</time>
      </trkpt>
      <trkpt lat="45.22369" lon="6.02328">
        <ele>1784</ele>
        <time>2019-12-28T11:09:24Z</time>
      </trkpt>
      <trkpt lat="45.22371" lon="6.02331">
        <ele>1785.5</ele>
        <time>2019-12-28T11:15:12Z</time>
      </trkpt>
      <trkpt lat="45.22375" lon="6.02332">
        <ele>1786.5</ele>
        <time>2019-12-28T11:15:14Z</time>
      </trkpt>
      <trkpt lat="45.22378" lon="6.02332">
        <ele>1787.5</ele>
        <time>2019-12-28T11:15:16Z</time>
      </trkpt>
      <trkpt lat="45.22381" lon="6.02334">
        <ele>1788.6</ele>
        <time>2019-12-28T11:15:20Z</time>
      </trkpt>
      <trkpt lat="45.22385" lon="6.02335">
        <ele>1790.4</ele>
        <time>2019-12-28T11:15:34Z</time>
      </trkpt>
      <trkpt lat="45.22388" lon="6.02335">
        <ele>1791.8</ele>
        <time>2019-12-28T11:15:36Z</time>
      </trkpt>
      <trkpt lat="45.22391" lon="6.02336">
        <ele>1793.2</ele>
        <time>2019-12-28T11:15:40Z</time>
      </trkpt>
      <trkpt lat="45.22392" lon="6.02339">
        <ele>1795.3</ele>
        <time>2019-12-28T11:15:49Z</time>
      </trkpt>
      <trkpt lat="45.22394" lon="6.02343">
        <ele>1795.9</ele>
        <time>2019-12-28T11:16:09Z</time>
      </trkpt>
      <trkpt lat="45.22394" lon="6.02347">
        <ele>1796.6</ele>
        <time>2019-12-28T11:16:19Z</time>
      </trkpt>
      <trkpt lat="45.22395" lon="6.02354">
        <ele>1798.6</ele>
        <time>2019-12-28T11:16:33Z</time>
      </trkpt>
      <trkpt lat="45.22397" lon="6.02357">
        <ele>1799.3</ele>
        <time>2019-12-28T11:16:38Z</time>
      </trkpt>
      <trkpt lat="45.22398" lon="6.02362">
        <ele>1801.2</ele>
        <time>2019-12-28T11:16:43Z</time>
      </trkpt>
      <trkpt lat="45.22398" lon="6.02367">
        <ele>1800.5</ele>
        <time>2019-12-28T11:16:47Z</time>
      </trkpt>
      <trkpt lat="45.22398" lon="6.02371">
        <ele>1802.4</ele>
        <time>2019-12-28T11:16:53Z</time>
      </trkpt>
      <trkpt lat="45.224" lon="6.02374">
        <ele>1802.9</ele>
        <time>2019-12-28T11:17:05Z</time>
      </trkpt>
      <trkpt lat="45.22403" lon="6.02375">
        <ele>1804.1</ele>
        <time>2019-12-28T11:17:09Z</time>
      </trkpt>
      <trkpt lat="45.22405" lon="6.02378">
        <ele>1805.8</ele>
        <time>2019-12-28T11:17:14Z</time>
      </trkpt>
      <trkpt lat="45.22409" lon="6.02379">
        <ele>1807.2</ele>
        <time>2019-12-28T11:17:27Z</time>
      </trkpt>
      <trkpt lat="45.22413" lon="6.02381">
        <ele>1810.1</ele>
        <time>2019-12-28T11:17:31Z</time>
      </trkpt>
      <trkpt lat="45.22416" lon="6.02381">
        <ele>1811.5</ele>
        <time>2019-12-28T11:17:35Z</time>
      </trkpt>
      <trkpt lat="45.22419" lon="6.02385">
        <ele>1812</ele>
        <time>2019-12-28T11:17:51Z</time>
      </trkpt>
      <trkpt lat="45.22422" lon="6.02388">
        <ele>1813.8</ele>
        <time>2019-12-28T11:17:55Z</time>
      </trkpt>
      <trkpt lat="45.22424" lon="6.0239">
        <ele>1815.2</ele>
        <time>2019-12-28T11:18:01Z</time>
      </trkpt>
      <trkpt lat="45.22427" lon="6.02391">
        <ele>1816.8</ele>
        <time>2019-12-28T11:18:09Z</time>
      </trkpt>
      <trkpt lat="45.22431" lon="6.02392">
        <ele>1818.1</ele>
        <time>2019-12-28T11:18:13Z</time>
      </trkpt>
      <trkpt lat="45.22434" lon="6.02394">
        <ele>1819.3</ele>
        <time>2019-12-28T11:18:19Z</time>
      </trkpt>
      <trkpt lat="45.22435" lon="6.02398">
        <ele>1820.8</ele>
        <time>2019-12-28T11:18:39Z</time>
      </trkpt>
      <trkpt lat="45.22438" lon="6.02402">
        <ele>1822.3</ele>
        <time>2019-12-28T11:18:43Z</time>
      </trkpt>
      <trkpt lat="45.22443" lon="6.02404">
        <ele>1823.7</ele>
        <time>2019-12-28T11:18:47Z</time>
      </trkpt>
      <trkpt lat="45.22447" lon="6.02405">
        <ele>1826</ele>
        <time>2019-12-28T11:18:51Z</time>
      </trkpt>
      <trkpt lat="45.22451" lon="6.02406">
        <ele>1827.1</ele>
        <time>2019-12-28T11:18:57Z</time>
      </trkpt>
      <trkpt lat="45.22456" lon="6.02407">
        <ele>1829.1</ele>
        <time>2019-12-28T11:19:01Z</time>
      </trkpt>
      <trkpt lat="45.22457" lon="6.02411">
        <ele>1829.2</ele>
        <time>2019-12-28T11:19:15Z</time>
      </trkpt>
      <trkpt lat="45.22457" lon="6.02415">
        <ele>1829.4</ele>
        <time>2019-12-28T11:19:21Z</time>
      </trkpt>
      <trkpt lat="45.22454" lon="6.02419">
        <ele>1828.7</ele>
        <time>2019-12-28T11:19:27Z</time>
      </trkpt>
      <trkpt lat="45.22452" lon="6.02421">
        <ele>1827.9</ele>
        <time>2019-12-28T11:19:31Z</time>
      </trkpt>
      <trkpt lat="45.22454" lon="6.02426">
        <ele>1829.1</ele>
        <time>2019-12-28T11:19:37Z</time>
      </trkpt>
      <trkpt lat="45.22456" lon="6.02428">
        <ele>1830</ele>
        <time>2019-12-28T11:19:41Z</time>
      </trkpt>
      <trkpt lat="45.22458" lon="6.0243">
        <ele>1831.1</ele>
        <time>2019-12-28T11:19:49Z</time>
      </trkpt>
      <trkpt lat="45.22457" lon="6.02435">
        <ele>1830.6</ele>
        <time>2019-12-28T11:19:55Z</time>
      </trkpt>
      <trkpt lat="45.22456" lon="6.02439">
        <ele>1830.9</ele>
        <time>2019-12-28T11:19:59Z</time>
      </trkpt>
      <trkpt lat="45.22456" lon="6.02443">
        <ele>1831.3</ele>
        <time>2019-12-28T11:20:05Z</time>
      </trkpt>
      <trkpt lat="45.22456" lon="6.02447">
        <ele>1831.7</ele>
        <time>2019-12-28T11:20:09Z</time>
      </trkpt>
      <trkpt lat="45.22455" lon="6.02454">
        <ele>1831.2</ele>
        <time>2019-12-28T11:20:24Z</time>
      </trkpt>
      <trkpt lat="45.22455" lon="6.0246">
        <ele>1832.7</ele>
        <time>2019-12-28T11:20:29Z</time>
      </trkpt>
      <trkpt lat="45.22456" lon="6.02464">
        <ele>1833</ele>
        <time>2019-12-28T11:20:33Z</time>
      </trkpt>
      <trkpt lat="45.22459" lon="6.02468">
        <ele>1834</ele>
        <time>2019-12-28T11:20:37Z</time>
      </trkpt>
      <trkpt lat="45.22462" lon="6.02471">
        <ele>1834.8</ele>
        <time>2019-12-28T11:20:41Z</time>
      </trkpt>
      <trkpt lat="45.22465" lon="6.0247">
        <ele>1835.6</ele>
        <time>2019-12-28T11:20:57Z</time>
      </trkpt>
      <trkpt lat="45.22467" lon="6.02473">
        <ele>1835.8</ele>
        <time>2019-12-28T11:21:04Z</time>
      </trkpt>
      <trkpt lat="45.2247" lon="6.02472">
        <ele>1837.5</ele>
        <time>2019-12-28T11:21:07Z</time>
      </trkpt>
      <trkpt lat="45.22473" lon="6.02465">
        <ele>1837.1</ele>
        <time>2019-12-28T11:21:11Z</time>
      </trkpt>
      <trkpt lat="45.22475" lon="6.02463">
        <ele>1837.8</ele>
        <time>2019-12-28T11:21:15Z</time>
      </trkpt>
      <trkpt lat="45.22477" lon="6.02464">
        <ele>1839</ele>
        <time>2019-12-28T11:21:23Z</time>
      </trkpt>
      <trkpt lat="45.2248" lon="6.02464">
        <ele>1839.8</ele>
        <time>2019-12-28T11:21:39Z</time>
      </trkpt>
      <trkpt lat="45.22483" lon="6.02463">
        <ele>1840.3</ele>
        <time>2019-12-28T11:21:43Z</time>
      </trkpt>
      <trkpt lat="45.22487" lon="6.02463">
        <ele>1841</ele>
        <time>2019-12-28T11:21:49Z</time>
      </trkpt>
      <trkpt lat="45.22491" lon="6.02465">
        <ele>1841.9</ele>
        <time>2019-12-28T11:21:52Z</time>
      </trkpt>
      <trkpt lat="45.22494" lon="6.02467">
        <ele>1842.9</ele>
        <time>2019-12-28T11:21:55Z</time>
      </trkpt>
      <trkpt lat="45.22498" lon="6.0247">
        <ele>1844.6</ele>
        <time>2019-12-28T11:22:01Z</time>
      </trkpt>
      <trkpt lat="45.22501" lon="6.02474">
        <ele>1845.7</ele>
        <time>2019-12-28T11:22:05Z</time>
      </trkpt>
      <trkpt lat="45.22504" lon="6.02477">
        <ele>1846.8</ele>
        <time>2019-12-28T11:22:09Z</time>
      </trkpt>
      <trkpt lat="45.22505" lon="6.0248">
        <ele>1847</ele>
        <time>2019-12-28T11:22:25Z</time>
      </trkpt>
      <trkpt lat="45.22508" lon="6.02484">
        <ele>1847.8</ele>
        <time>2019-12-28T11:22:29Z</time>
      </trkpt>
      <trkpt lat="45.2251" lon="6.02485">
        <ele>1848.8</ele>
        <time>2019-12-28T11:22:31Z</time>
      </trkpt>
      <trkpt lat="45.22513" lon="6.02487">
        <ele>1849.6</ele>
        <time>2019-12-28T11:22:35Z</time>
      </trkpt>
      <trkpt lat="45.22516" lon="6.02487">
        <ele>1850.3</ele>
        <time>2019-12-28T11:22:43Z</time>
      </trkpt>
      <trkpt lat="45.22519" lon="6.02487">
        <ele>1851.1</ele>
        <time>2019-12-28T11:22:49Z</time>
      </trkpt>
      <trkpt lat="45.22522" lon="6.02486">
        <ele>1851.9</ele>
        <time>2019-12-28T11:22:53Z</time>
      </trkpt>
      <trkpt lat="45.22527" lon="6.02487">
        <ele>1852.7</ele>
        <time>2019-12-28T11:23:01Z</time>
      </trkpt>
      <trkpt lat="45.22531" lon="6.0249">
        <ele>1854.4</ele>
        <time>2019-12-28T11:23:05Z</time>
      </trkpt>
      <trkpt lat="45.22535" lon="6.0249">
        <ele>1855.1</ele>
        <time>2019-12-28T11:23:09Z</time>
      </trkpt>
      <trkpt lat="45.22538" lon="6.02491">
        <ele>1855.8</ele>
        <time>2019-12-28T11:23:24Z</time>
      </trkpt>
      <trkpt lat="45.22541" lon="6.02491">
        <ele>1856.4</ele>
        <time>2019-12-28T11:23:26Z</time>
      </trkpt>
      <trkpt lat="45.22544" lon="6.02489">
        <ele>1857</ele>
        <time>2019-12-28T11:23:29Z</time>
      </trkpt>
      <trkpt lat="45.22547" lon="6.02488">
        <ele>1857.4</ele>
        <time>2019-12-28T11:23:33Z</time>
      </trkpt>
      <trkpt lat="45.2255" lon="6.02486">
        <ele>1858</ele>
        <time>2019-12-28T11:23:37Z</time>
      </trkpt>
      <trkpt lat="45.22554" lon="6.02486">
        <ele>1858.6</ele>
        <time>2019-12-28T11:23:41Z</time>
      </trkpt>
      <trkpt lat="45.22556" lon="6.02485">
        <ele>1859.3</ele>
        <time>2019-12-28T11:23:45Z</time>
      </trkpt>
      <trkpt lat="45.22562" lon="6.02483">
        <ele>1860.6</ele>
        <time>2019-12-28T11:23:51Z</time>
      </trkpt>
      <trkpt lat="45.22564" lon="6.02486">
        <ele>1861.1</ele>
        <time>2019-12-28T11:24:05Z</time>
      </trkpt>
      <trkpt lat="45.22567" lon="6.02486">
        <ele>1861.7</ele>
        <time>2019-12-28T11:24:09Z</time>
      </trkpt>
      <trkpt lat="45.22571" lon="6.02484">
        <ele>1862.4</ele>
        <time>2019-12-28T11:24:13Z</time>
      </trkpt>
      <trkpt lat="45.22576" lon="6.02484">
        <ele>1863.1</ele>
        <time>2019-12-28T11:24:17Z</time>
      </trkpt>
      <trkpt lat="45.22579" lon="6.02484">
        <ele>1863.5</ele>
        <time>2019-12-28T11:24:21Z</time>
      </trkpt>
      <trkpt lat="45.22582" lon="6.02485">
        <ele>1864</ele>
        <time>2019-12-28T11:24:35Z</time>
      </trkpt>
      <trkpt lat="45.22586" lon="6.02486">
        <ele>1864.6</ele>
        <time>2019-12-28T11:24:47Z</time>
      </trkpt>
      <trkpt lat="45.22589" lon="6.02487">
        <ele>1865.1</ele>
        <time>2019-12-28T11:24:53Z</time>
      </trkpt>
      <trkpt lat="45.22594" lon="6.02488">
        <ele>1866</ele>
        <time>2019-12-28T11:24:57Z</time>
      </trkpt>
      <trkpt lat="45.22598" lon="6.02488">
        <ele>1866.8</ele>
        <time>2019-12-28T11:25:01Z</time>
      </trkpt>
      <trkpt lat="45.22601" lon="6.02488">
        <ele>1867.5</ele>
        <time>2019-12-28T11:25:03Z</time>
      </trkpt>
      <trkpt lat="45.22607" lon="6.02487">
        <ele>1868.8</ele>
        <time>2019-12-28T11:25:07Z</time>
      </trkpt>
      <trkpt lat="45.2261" lon="6.02487">
        <ele>1869.5</ele>
        <time>2019-12-28T11:25:09Z</time>
      </trkpt>
      <trkpt lat="45.22613" lon="6.02487">
        <ele>1870.4</ele>
        <time>2019-12-28T11:25:19Z</time>
      </trkpt>
      <trkpt lat="45.22616" lon="6.0249">
        <ele>1871.4</ele>
        <time>2019-12-28T11:25:21Z</time>
      </trkpt>
      <trkpt lat="45.22619" lon="6.02493">
        <ele>1872.5</ele>
        <time>2019-12-28T11:25:23Z</time>
      </trkpt>
      <trkpt lat="45.2262" lon="6.02497">
        <ele>1873.6</ele>
        <time>2019-12-28T11:25:27Z</time>
      </trkpt>
      <trkpt lat="45.2262" lon="6.02501">
        <ele>1874.5</ele>
        <time>2019-12-28T11:25:33Z</time>
      </trkpt>
      <trkpt lat="45.22623" lon="6.02504">
        <ele>1875.6</ele>
        <time>2019-12-28T11:25:47Z</time>
      </trkpt>
      <trkpt lat="45.22626" lon="6.02506">
        <ele>1876.9</ele>
        <time>2019-12-28T11:25:59Z</time>
      </trkpt>
      <trkpt lat="45.2263" lon="6.02505">
        <ele>1878.1</ele>
        <time>2019-12-28T11:26:05Z</time>
      </trkpt>
      <trkpt lat="45.22633" lon="6.02505">
        <ele>1879.3</ele>
        <time>2019-12-28T11:26:11Z</time>
      </trkpt>
      <trkpt lat="45.22637" lon="6.02506">
        <ele>1880.8</ele>
        <time>2019-12-28T11:26:15Z</time>
      </trkpt>
      <trkpt lat="45.22641" lon="6.02507">
        <ele>1882</ele>
        <time>2019-12-28T11:26:19Z</time>
      </trkpt>
      <trkpt lat="45.22644" lon="6.02508">
        <ele>1883</ele>
        <time>2019-12-28T11:26:27Z</time>
      </trkpt>
      <trkpt lat="45.22648" lon="6.02507">
        <ele>1884.2</ele>
        <time>2019-12-28T11:26:31Z</time>
      </trkpt>
      <trkpt lat="45.22651" lon="6.02508">
        <ele>1885.3</ele>
        <time>2019-12-28T11:26:35Z</time>
      </trkpt>
      <trkpt lat="45.22654" lon="6.02509">
        <ele>1886.2</ele>
        <time>2019-12-28T11:26:47Z</time>
      </trkpt>
      <trkpt lat="45.22657" lon="6.02509">
        <ele>1887.3</ele>
        <time>2019-12-28T11:26:55Z</time>
      </trkpt>
      <trkpt lat="45.22661" lon="6.02509">
        <ele>1888.7</ele>
        <time>2019-12-28T11:26:59Z</time>
      </trkpt>
      <trkpt lat="45.22664" lon="6.02508">
        <ele>1889.9</ele>
        <time>2019-12-28T11:27:03Z</time>
      </trkpt>
      <trkpt lat="45.22667" lon="6.02508">
        <ele>1890.9</ele>
        <time>2019-12-28T11:27:14Z</time>
      </trkpt>
      <trkpt lat="45.2267" lon="6.02508">
        <ele>1891.9</ele>
        <time>2019-12-28T11:27:21Z</time>
      </trkpt>
      <trkpt lat="45.22673" lon="6.02509">
        <ele>1892.8</ele>
        <time>2019-12-28T11:27:35Z</time>
      </trkpt>
      <trkpt lat="45.22676" lon="6.02509">
        <ele>1893.7</ele>
        <time>2019-12-28T11:27:39Z</time>
      </trkpt>
      <trkpt lat="45.2268" lon="6.02507">
        <ele>1895.1</ele>
        <time>2019-12-28T11:27:43Z</time>
      </trkpt>
      <trkpt lat="45.22684" lon="6.02506">
        <ele>1896.4</ele>
        <time>2019-12-28T11:27:47Z</time>
      </trkpt>
      <trkpt lat="45.22687" lon="6.02508">
        <ele>1897.4</ele>
        <time>2019-12-28T11:27:59Z</time>
      </trkpt>
      <trkpt lat="45.22692" lon="6.02509">
        <ele>1899.1</ele>
        <time>2019-12-28T11:28:05Z</time>
      </trkpt>
      <trkpt lat="45.22695" lon="6.02508">
        <ele>1900.3</ele>
        <time>2019-12-28T11:28:09Z</time>
      </trkpt>
      <trkpt lat="45.22699" lon="6.02507">
        <ele>1901.4</ele>
        <time>2019-12-28T11:28:13Z</time>
      </trkpt>
      <trkpt lat="45.22703" lon="6.02507">
        <ele>1902.6</ele>
        <time>2019-12-28T11:28:17Z</time>
      </trkpt>
      <trkpt lat="45.22706" lon="6.02506">
        <ele>1903.5</ele>
        <time>2019-12-28T11:28:21Z</time>
      </trkpt>
      <trkpt lat="45.22709" lon="6.02506">
        <ele>1904.4</ele>
        <time>2019-12-28T11:28:25Z</time>
      </trkpt>
      <trkpt lat="45.22712" lon="6.02505">
        <ele>1905.4</ele>
        <time>2019-12-28T11:28:29Z</time>
      </trkpt>
      <trkpt lat="45.22715" lon="6.02504">
        <ele>1906.1</ele>
        <time>2019-12-28T11:28:33Z</time>
      </trkpt>
      <trkpt lat="45.22718" lon="6.02504">
        <ele>1906.9</ele>
        <time>2019-12-28T11:28:39Z</time>
      </trkpt>
      <trkpt lat="45.22722" lon="6.02504">
        <ele>1908</ele>
        <time>2019-12-28T11:28:53Z</time>
      </trkpt>
      <trkpt lat="45.22725" lon="6.02504">
        <ele>1908.8</ele>
        <time>2019-12-28T11:28:57Z</time>
      </trkpt>
      <trkpt lat="45.22727" lon="6.02505">
        <ele>1909.7</ele>
        <time>2019-12-28T11:29:01Z</time>
      </trkpt>
      <trkpt lat="45.2273" lon="6.02507">
        <ele>1910.7</ele>
        <time>2019-12-28T11:29:05Z</time>
      </trkpt>
      <trkpt lat="45.22733" lon="6.02509">
        <ele>1911.5</ele>
        <time>2019-12-28T11:29:15Z</time>
      </trkpt>
      <trkpt lat="45.22736" lon="6.02512">
        <ele>1912.6</ele>
        <time>2019-12-28T11:29:21Z</time>
      </trkpt>
      <trkpt lat="45.22739" lon="6.02514">
        <ele>1913.5</ele>
        <time>2019-12-28T11:29:23Z</time>
      </trkpt>
      <trkpt lat="45.22742" lon="6.02517">
        <ele>1914.6</ele>
        <time>2019-12-28T11:29:25Z</time>
      </trkpt>
      <trkpt lat="45.22745" lon="6.0252">
        <ele>1915.4</ele>
        <time>2019-12-28T11:29:27Z</time>
      </trkpt>
      <trkpt lat="45.22748" lon="6.02524">
        <ele>1916.5</ele>
        <time>2019-12-28T11:29:31Z</time>
      </trkpt>
      <trkpt lat="45.22751" lon="6.02527">
        <ele>1917.4</ele>
        <time>2019-12-28T11:29:39Z</time>
      </trkpt>
      <trkpt lat="45.22755" lon="6.0253">
        <ele>1918.4</ele>
        <time>2019-12-28T11:29:43Z</time>
      </trkpt>
      <trkpt lat="45.22757" lon="6.02533">
        <ele>1919</ele>
        <time>2019-12-28T11:29:53Z</time>
      </trkpt>
      <trkpt lat="45.22759" lon="6.02535">
        <ele>1919.5</ele>
        <time>2019-12-28T11:29:57Z</time>
      </trkpt>
      <trkpt lat="45.22763" lon="6.02536">
        <ele>1920.2</ele>
        <time>2019-12-28T11:30:01Z</time>
      </trkpt>
      <trkpt lat="45.22766" lon="6.02538">
        <ele>1920.5</ele>
        <time>2019-12-28T11:30:05Z</time>
      </trkpt>
      <trkpt lat="45.2277" lon="6.0254">
        <ele>1921</ele>
        <time>2019-12-28T11:30:09Z</time>
      </trkpt>
      <trkpt lat="45.22774" lon="6.02544">
        <ele>1921.6</ele>
        <time>2019-12-28T11:30:13Z</time>
      </trkpt>
      <trkpt lat="45.22777" lon="6.02546">
        <ele>1922.1</ele>
        <time>2019-12-28T11:30:15Z</time>
      </trkpt>
      <trkpt lat="45.2278" lon="6.02548">
        <ele>1922.5</ele>
        <time>2019-12-28T11:30:19Z</time>
      </trkpt>
      <trkpt lat="45.22784" lon="6.02551">
        <ele>1923.1</ele>
        <time>2019-12-28T11:30:27Z</time>
      </trkpt>
      <trkpt lat="45.22786" lon="6.02553">
        <ele>1923.4</ele>
        <time>2019-12-28T11:30:29Z</time>
      </trkpt>
      <trkpt lat="45.22788" lon="6.02556">
        <ele>1923.7</ele>
        <time>2019-12-28T11:30:31Z</time>
      </trkpt>
      <trkpt lat="45.22791" lon="6.0256">
        <ele>1924.2</ele>
        <time>2019-12-28T11:30:35Z</time>
      </trkpt>
      <trkpt lat="45.22795" lon="6.02563">
        <ele>1924.8</ele>
        <time>2019-12-28T11:30:40Z</time>
      </trkpt>
      <trkpt lat="45.22797" lon="6.02566">
        <ele>1925.3</ele>
        <time>2019-12-28T11:30:43Z</time>
      </trkpt>
      <trkpt lat="45.22799" lon="6.0257">
        <ele>1925.8</ele>
        <time>2019-12-28T11:30:47Z</time>
      </trkpt>
      <trkpt lat="45.22801" lon="6.02577">
        <ele>1926.4</ele>
        <time>2019-12-28T11:30:51Z</time>
      </trkpt>
      <trkpt lat="45.22802" lon="6.02582">
        <ele>1926.9</ele>
        <time>2019-12-28T11:30:57Z</time>
      </trkpt>
      <trkpt lat="45.22805" lon="6.02585">
        <ele>1927.4</ele>
        <time>2019-12-28T11:31:01Z</time>
      </trkpt>
      <trkpt lat="45.22809" lon="6.02589">
        <ele>1928.2</ele>
        <time>2019-12-28T11:31:05Z</time>
      </trkpt>
      <trkpt lat="45.22812" lon="6.02591">
        <ele>1928.6</ele>
        <time>2019-12-28T11:31:19Z</time>
      </trkpt>
      <trkpt lat="45.22815" lon="6.02594">
        <ele>1929.2</ele>
        <time>2019-12-28T11:31:23Z</time>
      </trkpt>
      <trkpt lat="45.22818" lon="6.02598">
        <ele>1929.9</ele>
        <time>2019-12-28T11:31:27Z</time>
      </trkpt>
      <trkpt lat="45.22821" lon="6.02601">
        <ele>1930.5</ele>
        <time>2019-12-28T11:31:31Z</time>
      </trkpt>
      <trkpt lat="45.22823" lon="6.02604">
        <ele>1931.1</ele>
        <time>2019-12-28T11:31:35Z</time>
      </trkpt>
      <trkpt lat="45.22826" lon="6.02606">
        <ele>1931.7</ele>
        <time>2019-12-28T11:31:39Z</time>
      </trkpt>
      <trkpt lat="45.22828" lon="6.02611">
        <ele>1932.3</ele>
        <time>2019-12-28T11:31:47Z</time>
      </trkpt>
      <trkpt lat="45.2283" lon="6.02614">
        <ele>1933</ele>
        <time>2019-12-28T11:31:53Z</time>
      </trkpt>
      <trkpt lat="45.22832" lon="6.02617">
        <ele>1933.6</ele>
        <time>2019-12-28T11:31:57Z</time>
      </trkpt>
      <trkpt lat="45.22835" lon="6.02619">
        <ele>1934.4</ele>
        <time>2019-12-28T11:32:01Z</time>
      </trkpt>
      <trkpt lat="45.22838" lon="6.0262">
        <ele>1935.1</ele>
        <time>2019-12-28T11:32:09Z</time>
      </trkpt>
      <trkpt lat="45.2284" lon="6.02625">
        <ele>1936.1</ele>
        <time>2019-12-28T11:32:23Z</time>
      </trkpt>
      <trkpt lat="45.22842" lon="6.02627">
        <ele>1936.8</ele>
        <time>2019-12-28T11:32:27Z</time>
      </trkpt>
      <trkpt lat="45.22845" lon="6.02628">
        <ele>1937.6</ele>
        <time>2019-12-28T11:32:37Z</time>
      </trkpt>
      <trkpt lat="45.22848" lon="6.02628">
        <ele>1938.3</ele>
        <time>2019-12-28T11:32:43Z</time>
      </trkpt>
      <trkpt lat="45.22851" lon="6.02629">
        <ele>1939.9</ele>
        <time>2019-12-28T11:32:45Z</time>
      </trkpt>
      <trkpt lat="45.22854" lon="6.02631">
        <ele>1941.5</ele>
        <time>2019-12-28T11:32:49Z</time>
      </trkpt>
      <trkpt lat="45.22857" lon="6.02635">
        <ele>1940.8</ele>
        <time>2019-12-28T11:33:03Z</time>
      </trkpt>
      <trkpt lat="45.22861" lon="6.02639">
        <ele>1943.4</ele>
        <time>2019-12-28T11:33:07Z</time>
      </trkpt>
      <trkpt lat="45.22863" lon="6.02641">
        <ele>1942.7</ele>
        <time>2019-12-28T11:33:13Z</time>
      </trkpt>
      <trkpt lat="45.22864" lon="6.02645">
        <ele>1943.4</ele>
        <time>2019-12-28T11:33:23Z</time>
      </trkpt>
      <trkpt lat="45.22865" lon="6.0265">
        <ele>1942.9</ele>
        <time>2019-12-28T11:33:27Z</time>
      </trkpt>
      <trkpt lat="45.22866" lon="6.02654">
        <ele>1943.7</ele>
        <time>2019-12-28T11:33:35Z</time>
      </trkpt>
      <trkpt lat="45.2287" lon="6.02653">
        <ele>1944.7</ele>
        <time>2019-12-28T11:41:23Z</time>
      </trkpt>
      <trkpt lat="45.22873" lon="6.02653">
        <ele>1945.8</ele>
        <time>2019-12-28T11:41:27Z</time>
      </trkpt>
      <trkpt lat="45.22877" lon="6.02653">
        <ele>1947</ele>
        <time>2019-12-28T11:41:30Z</time>
      </trkpt>
      <trkpt lat="45.22881" lon="6.02653">
        <ele>1948.4</ele>
        <time>2019-12-28T11:41:35Z</time>
      </trkpt>
      <trkpt lat="45.22884" lon="6.02654">
        <ele>1951.4</ele>
        <time>2019-12-28T11:41:39Z</time>
      </trkpt>
      <trkpt lat="45.22888" lon="6.02655">
        <ele>1953.1</ele>
        <time>2019-12-28T11:41:43Z</time>
      </trkpt>
      <trkpt lat="45.22891" lon="6.02656">
        <ele>1954.8</ele>
        <time>2019-12-28T11:41:47Z</time>
      </trkpt>
      <trkpt lat="45.22894" lon="6.02655">
        <ele>1956.5</ele>
        <time>2019-12-28T11:41:53Z</time>
      </trkpt>
      <trkpt lat="45.22899" lon="6.02653">
        <ele>1958.2</ele>
        <time>2019-12-28T11:42:00Z</time>
      </trkpt>
      <trkpt lat="45.22901" lon="6.02651">
        <ele>1960.1</ele>
        <time>2019-12-28T11:42:03Z</time>
      </trkpt>
      <trkpt lat="45.22902" lon="6.02655">
        <ele>1959.9</ele>
        <time>2019-12-28T11:42:27Z</time>
      </trkpt>
      <trkpt lat="45.22903" lon="6.02661">
        <ele>1961.6</ele>
        <time>2019-12-28T11:42:31Z</time>
      </trkpt>
      <trkpt lat="45.22903" lon="6.02665">
        <ele>1961.7</ele>
        <time>2019-12-28T11:42:34Z</time>
      </trkpt>
      <trkpt lat="45.22905" lon="6.02669">
        <ele>1961.8</ele>
        <time>2019-12-28T11:42:41Z</time>
      </trkpt>
      <trkpt lat="45.22906" lon="6.02673">
        <ele>1963.6</ele>
        <time>2019-12-28T11:42:47Z</time>
      </trkpt>
      <trkpt lat="45.22908" lon="6.02676">
        <ele>1963.8</ele>
        <time>2019-12-28T11:42:51Z</time>
      </trkpt>
      <trkpt lat="45.22911" lon="6.02679">
        <ele>1965.9</ele>
        <time>2019-12-28T11:43:01Z</time>
      </trkpt>
      <trkpt lat="45.22913" lon="6.02683">
        <ele>1968.1</ele>
        <time>2019-12-28T11:43:05Z</time>
      </trkpt>
      <trkpt lat="45.22916" lon="6.02684">
        <ele>1970.1</ele>
        <time>2019-12-28T11:43:10Z</time>
      </trkpt>
      <trkpt lat="45.22919" lon="6.02684">
        <ele>1972.2</ele>
        <time>2019-12-28T11:43:13Z</time>
      </trkpt>
      <trkpt lat="45.22922" lon="6.02683">
        <ele>1974.2</ele>
        <time>2019-12-28T11:43:19Z</time>
      </trkpt>
      <trkpt lat="45.22926" lon="6.02681">
        <ele>1975.9</ele>
        <time>2019-12-28T11:43:27Z</time>
      </trkpt>
      <trkpt lat="45.2293" lon="6.02679">
        <ele>1979.4</ele>
        <time>2019-12-28T11:43:31Z</time>
      </trkpt>
      <trkpt lat="45.22932" lon="6.02676">
        <ele>1979.2</ele>
        <time>2019-12-28T11:43:37Z</time>
      </trkpt>
      <trkpt lat="45.22935" lon="6.02674">
        <ele>1980.9</ele>
        <time>2019-12-28T11:43:41Z</time>
      </trkpt>
      <trkpt lat="45.22937" lon="6.02671">
        <ele>1982.5</ele>
        <time>2019-12-28T11:43:45Z</time>
      </trkpt>
      <trkpt lat="45.22939" lon="6.02667">
        <ele>1984.1</ele>
        <time>2019-12-28T11:43:51Z</time>
      </trkpt>
      <trkpt lat="45.2294" lon="6.02663">
        <ele>1984</ele>
        <time>2019-12-28T11:43:57Z</time>
      </trkpt>
      <trkpt lat="45.22943" lon="6.0266">
        <ele>1985.8</ele>
        <time>2019-12-28T11:44:03Z</time>
      </trkpt>
      <trkpt lat="45.22946" lon="6.02658">
        <ele>1987.6</ele>
        <time>2019-12-28T11:44:07Z</time>
      </trkpt>
      <trkpt lat="45.22948" lon="6.02661">
        <ele>1989.4</ele>
        <time>2019-12-28T11:44:15Z</time>
      </trkpt>
      <trkpt lat="45.2295" lon="6.02664">
        <ele>1989.4</ele>
        <time>2019-12-28T11:44:24Z</time>
      </trkpt>
      <trkpt lat="45.22952" lon="6.02668">
        <ele>1991.1</ele>
        <time>2019-12-28T11:44:28Z</time>
      </trkpt>
      <trkpt lat="45.22953" lon="6.02672">
        <ele>1991.3</ele>
        <time>2019-12-28T11:44:32Z</time>
      </trkpt>
      <trkpt lat="45.22956" lon="6.02673">
        <ele>1992.7</ele>
        <time>2019-12-28T11:44:45Z</time>
      </trkpt>
      <trkpt lat="45.22959" lon="6.02672">
        <ele>1994</ele>
        <time>2019-12-28T11:44:49Z</time>
      </trkpt>
      <trkpt lat="45.22962" lon="6.0267">
        <ele>1995.3</ele>
        <time>2019-12-28T11:44:52Z</time>
      </trkpt>
      <trkpt lat="45.22963" lon="6.02673">
        <ele>1997.1</ele>
        <time>2019-12-28T11:45:03Z</time>
      </trkpt>
      <trkpt lat="45.22964" lon="6.02678">
        <ele>1997.4</ele>
        <time>2019-12-28T11:45:10Z</time>
      </trkpt>
      <trkpt lat="45.22968" lon="6.02681">
        <ele>1998.9</ele>
        <time>2019-12-28T11:45:16Z</time>
      </trkpt>
      <trkpt lat="45.2297" lon="6.02682">
        <ele>2000.6</ele>
        <time>2019-12-28T11:45:20Z</time>
      </trkpt>
      <trkpt lat="45.22973" lon="6.0268">
        <ele>2002.1</ele>
        <time>2019-12-28T11:45:24Z</time>
      </trkpt>
      <trkpt lat="45.22976" lon="6.02679">
        <ele>2003.6</ele>
        <time>2019-12-28T11:45:29Z</time>
      </trkpt>
      <trkpt lat="45.22977" lon="6.02682">
        <ele>2004</ele>
        <time>2019-12-28T11:45:39Z</time>
      </trkpt>
      <trkpt lat="45.22977" lon="6.02687">
        <ele>2004.4</ele>
        <time>2019-12-28T11:45:43Z</time>
      </trkpt>
      <trkpt lat="45.22978" lon="6.02692">
        <ele>2004.7</ele>
        <time>2019-12-28T11:45:46Z</time>
      </trkpt>
      <trkpt lat="45.22977" lon="6.02696">
        <ele>2005.1</ele>
        <time>2019-12-28T11:45:52Z</time>
      </trkpt>
      <trkpt lat="45.22979" lon="6.02702">
        <ele>2007</ele>
        <time>2019-12-28T11:45:57Z</time>
      </trkpt>
      <trkpt lat="45.22982" lon="6.02704">
        <ele>2009</ele>
        <time>2019-12-28T11:46:02Z</time>
      </trkpt>
      <trkpt lat="45.22984" lon="6.027">
        <ele>2008.5</ele>
        <time>2019-12-28T11:46:06Z</time>
      </trkpt>
      <trkpt lat="45.22987" lon="6.027">
        <ele>2011.4</ele>
        <time>2019-12-28T11:46:14Z</time>
      </trkpt>
      <trkpt lat="45.2299" lon="6.02697">
        <ele>2010.9</ele>
        <time>2019-12-28T11:46:18Z</time>
      </trkpt>
      <trkpt lat="45.22993" lon="6.02698">
        <ele>2012.5</ele>
        <time>2019-12-28T11:46:30Z</time>
      </trkpt>
      <trkpt lat="45.22994" lon="6.02694">
        <ele>2013.5</ele>
        <time>2019-12-28T11:46:36Z</time>
      </trkpt>
      <trkpt lat="45.22995" lon="6.0269">
        <ele>2013.1</ele>
        <time>2019-12-28T11:46:40Z</time>
      </trkpt>
      <trkpt lat="45.22997" lon="6.02686">
        <ele>2014.2</ele>
        <time>2019-12-28T11:46:45Z</time>
      </trkpt>
      <trkpt lat="45.22999" lon="6.02683">
        <ele>2014.2</ele>
        <time>2019-12-28T11:46:52Z</time>
      </trkpt>
      <trkpt lat="45.23001" lon="6.0268">
        <ele>2015.3</ele>
        <time>2019-12-28T11:46:58Z</time>
      </trkpt>
      <trkpt lat="45.23002" lon="6.02684">
        <ele>2015.8</ele>
        <time>2019-12-28T11:47:03Z</time>
      </trkpt>
      <trkpt lat="45.23004" lon="6.02687">
        <ele>2017.9</ele>
        <time>2019-12-28T11:47:07Z</time>
      </trkpt>
      <trkpt lat="45.23005" lon="6.02691">
        <ele>2018.4</ele>
        <time>2019-12-28T11:47:13Z</time>
      </trkpt>
      <trkpt lat="45.23009" lon="6.02691">
        <ele>2021.6</ele>
        <time>2019-12-28T11:47:34Z</time>
      </trkpt>
      <trkpt lat="45.23011" lon="6.0269">
        <ele>2022.4</ele>
        <time>2019-12-28T11:47:36Z</time>
      </trkpt>
      <trkpt lat="45.23014" lon="6.02688">
        <ele>2022.4</ele>
        <time>2019-12-28T11:47:39Z</time>
      </trkpt>
      <trkpt lat="45.23018" lon="6.02688">
        <ele>2025.1</ele>
        <time>2019-12-28T11:47:42Z</time>
      </trkpt>
      <trkpt lat="45.2302" lon="6.02684">
        <ele>2024.6</ele>
        <time>2019-12-28T11:47:55Z</time>
      </trkpt>
      <trkpt lat="45.23022" lon="6.02687">
        <ele>2026.5</ele>
        <time>2019-12-28T11:48:12Z</time>
      </trkpt>
      <trkpt lat="45.23025" lon="6.02689">
        <ele>2027.9</ele>
        <time>2019-12-28T11:48:16Z</time>
      </trkpt>
      <trkpt lat="45.23027" lon="6.02692">
        <ele>2030</ele>
        <time>2019-12-28T11:48:19Z</time>
      </trkpt>
      <trkpt lat="45.2303" lon="6.02695">
        <ele>2032.1</ele>
        <time>2019-12-28T11:48:25Z</time>
      </trkpt>
      <trkpt lat="45.23033" lon="6.02694">
        <ele>2033.1</ele>
        <time>2019-12-28T11:48:34Z</time>
      </trkpt>
      <trkpt lat="45.23037" lon="6.02694">
        <ele>2034.5</ele>
        <time>2019-12-28T11:48:39Z</time>
      </trkpt>
      <trkpt lat="45.23041" lon="6.02691">
        <ele>2035.7</ele>
        <time>2019-12-28T11:48:43Z</time>
      </trkpt>
      <trkpt lat="45.2304" lon="6.02695">
        <ele>2036.3</ele>
        <time>2019-12-28T11:48:49Z</time>
      </trkpt>
      <trkpt lat="45.23041" lon="6.02699">
        <ele>2036.8</ele>
        <time>2019-12-28T11:48:56Z</time>
      </trkpt>
      <trkpt lat="45.23045" lon="6.02697">
        <ele>2038.8</ele>
        <time>2019-12-28T11:49:03Z</time>
      </trkpt>
      <trkpt lat="45.23048" lon="6.02696">
        <ele>2040.3</ele>
        <time>2019-12-28T11:49:06Z</time>
      </trkpt>
      <trkpt lat="45.23051" lon="6.02695">
        <ele>2041.9</ele>
        <time>2019-12-28T11:49:14Z</time>
      </trkpt>
      <trkpt lat="45.23054" lon="6.02694">
        <ele>2043</ele>
        <time>2019-12-28T11:49:22Z</time>
      </trkpt>
      <trkpt lat="45.23056" lon="6.0269">
        <ele>2043</ele>
        <time>2019-12-28T11:49:30Z</time>
      </trkpt>
      <trkpt lat="45.23058" lon="6.02687">
        <ele>2044.2</ele>
        <time>2019-12-28T11:49:39Z</time>
      </trkpt>
      <trkpt lat="45.23058" lon="6.02683">
        <ele>2043.8</ele>
        <time>2019-12-28T11:49:45Z</time>
      </trkpt>
      <trkpt lat="45.2306" lon="6.0268">
        <ele>2045</ele>
        <time>2019-12-28T11:49:55Z</time>
      </trkpt>
      <trkpt lat="45.23061" lon="6.02675">
        <ele>2044.7</ele>
        <time>2019-12-28T11:49:58Z</time>
      </trkpt>
      <trkpt lat="45.23062" lon="6.0267">
        <ele>2044.5</ele>
        <time>2019-12-28T11:50:01Z</time>
      </trkpt>
      <trkpt lat="45.23062" lon="6.02666">
        <ele>2044.3</ele>
        <time>2019-12-28T11:50:11Z</time>
      </trkpt>
      <trkpt lat="45.23062" lon="6.02661">
        <ele>2044.2</ele>
        <time>2019-12-28T11:50:17Z</time>
      </trkpt>
      <trkpt lat="45.23064" lon="6.02659">
        <ele>2045.6</ele>
        <time>2019-12-28T11:50:25Z</time>
      </trkpt>
      <trkpt lat="45.23068" lon="6.0266">
        <ele>2047.1</ele>
        <time>2019-12-28T11:50:30Z</time>
      </trkpt>
      <trkpt lat="45.2307" lon="6.02662">
        <ele>2048.5</ele>
        <time>2019-12-28T11:50:37Z</time>
      </trkpt>
      <trkpt lat="45.23073" lon="6.02666">
        <ele>2050.2</ele>
        <time>2019-12-28T11:50:45Z</time>
      </trkpt>
      <trkpt lat="45.23076" lon="6.02666">
        <ele>2051.8</ele>
        <time>2019-12-28T11:50:55Z</time>
      </trkpt>
      <trkpt lat="45.23079" lon="6.02666">
        <ele>2053.4</ele>
        <time>2019-12-28T11:51:01Z</time>
      </trkpt>
      <trkpt lat="45.23081" lon="6.02663">
        <ele>2055</ele>
        <time>2019-12-28T11:51:06Z</time>
      </trkpt>
      <trkpt lat="45.23082" lon="6.02659">
        <ele>2055</ele>
        <time>2019-12-28T11:51:11Z</time>
      </trkpt>
      <trkpt lat="45.23081" lon="6.02655">
        <ele>2055</ele>
        <time>2019-12-28T11:51:19Z</time>
      </trkpt>
      <trkpt lat="45.23081" lon="6.02651">
        <ele>2055.1</ele>
        <time>2019-12-28T11:51:23Z</time>
      </trkpt>
      <trkpt lat="45.23084" lon="6.0265">
        <ele>2055.1</ele>
        <time>2019-12-28T11:51:29Z</time>
      </trkpt>
      <trkpt lat="45.23087" lon="6.0265">
        <ele>2058.5</ele>
        <time>2019-12-28T11:51:35Z</time>
      </trkpt>
      <trkpt lat="45.2309" lon="6.02651">
        <ele>2060.1</ele>
        <time>2019-12-28T11:51:39Z</time>
      </trkpt>
      <trkpt lat="45.23092" lon="6.02656">
        <ele>2060</ele>
        <time>2019-12-28T11:51:47Z</time>
      </trkpt>
      <trkpt lat="45.23095" lon="6.02658">
        <ele>2061.6</ele>
        <time>2019-12-28T11:51:52Z</time>
      </trkpt>
      <trkpt lat="45.23098" lon="6.02659">
        <ele>2063.1</ele>
        <time>2019-12-28T11:51:57Z</time>
      </trkpt>
      <trkpt lat="45.23101" lon="6.02661">
        <ele>2064.6</ele>
        <time>2019-12-28T11:52:09Z</time>
      </trkpt>
      <trkpt lat="45.23103" lon="6.02663">
        <ele>2066.1</ele>
        <time>2019-12-28T11:52:17Z</time>
      </trkpt>
      <trkpt lat="45.23105" lon="6.02667">
        <ele>2067.7</ele>
        <time>2019-12-28T11:52:21Z</time>
      </trkpt>
      <trkpt lat="45.23107" lon="6.0267">
        <ele>2067.7</ele>
        <time>2019-12-28T11:52:25Z</time>
      </trkpt>
      <trkpt lat="45.23108" lon="6.02674">
        <ele>2069.3</ele>
        <time>2019-12-28T11:52:29Z</time>
      </trkpt>
      <trkpt lat="45.23108" lon="6.02679">
        <ele>2069.3</ele>
        <time>2019-12-28T11:52:39Z</time>
      </trkpt>
      <trkpt lat="45.23111" lon="6.02682">
        <ele>2069.4</ele>
        <time>2019-12-28T11:52:45Z</time>
      </trkpt>
      <trkpt lat="45.23113" lon="6.02686">
        <ele>2071.1</ele>
        <time>2019-12-28T11:52:51Z</time>
      </trkpt>
      <trkpt lat="45.23114" lon="6.0269">
        <ele>2072.8</ele>
        <time>2019-12-28T11:52:57Z</time>
      </trkpt>
      <trkpt lat="45.23115" lon="6.02694">
        <ele>2072.9</ele>
        <time>2019-12-28T11:53:03Z</time>
      </trkpt>
      <trkpt lat="45.23118" lon="6.02696">
        <ele>2074.6</ele>
        <time>2019-12-28T11:53:07Z</time>
      </trkpt>
      <trkpt lat="45.2312" lon="6.027">
        <ele>2074.8</ele>
        <time>2019-12-28T11:53:15Z</time>
      </trkpt>
      <trkpt lat="45.23121" lon="6.02704">
        <ele>2076.4</ele>
        <time>2019-12-28T11:53:21Z</time>
      </trkpt>
      <trkpt lat="45.23122" lon="6.02707">
        <ele>2076.4</ele>
        <time>2019-12-28T11:53:27Z</time>
      </trkpt>
      <trkpt lat="45.23124" lon="6.0271">
        <ele>2078</ele>
        <time>2019-12-28T11:53:37Z</time>
      </trkpt>
      <trkpt lat="45.23127" lon="6.02714">
        <ele>2079.6</ele>
        <time>2019-12-28T11:53:43Z</time>
      </trkpt>
      <trkpt lat="45.2313" lon="6.02716">
        <ele>2081</ele>
        <time>2019-12-28T11:53:47Z</time>
      </trkpt>
      <trkpt lat="45.23132" lon="6.02715">
        <ele>2082.6</ele>
        <time>2019-12-28T11:53:51Z</time>
      </trkpt>
      <trkpt lat="45.23135" lon="6.02713">
        <ele>2084.4</ele>
        <time>2019-12-28T11:54:05Z</time>
      </trkpt>
      <trkpt lat="45.23138" lon="6.02715">
        <ele>2084.4</ele>
        <time>2019-12-28T11:54:17Z</time>
      </trkpt>
      <trkpt lat="45.2314" lon="6.02717">
        <ele>2086.4</ele>
        <time>2019-12-28T11:54:23Z</time>
      </trkpt>
      <trkpt lat="45.23142" lon="6.0272">
        <ele>2088.3</ele>
        <time>2019-12-28T11:54:31Z</time>
      </trkpt>
      <trkpt lat="45.23145" lon="6.02722">
        <ele>2089.9</ele>
        <time>2019-12-28T11:54:39Z</time>
      </trkpt>
      <trkpt lat="45.23149" lon="6.02723">
        <ele>2091.4</ele>
        <time>2019-12-28T11:54:43Z</time>
      </trkpt>
      <trkpt lat="45.23152" lon="6.02724">
        <ele>2092.8</ele>
        <time>2019-12-28T11:54:53Z</time>
      </trkpt>
      <trkpt lat="45.23154" lon="6.02724">
        <ele>2094.3</ele>
        <time>2019-12-28T11:54:57Z</time>
      </trkpt>
      <trkpt lat="45.23158" lon="6.02724">
        <ele>2095.8</ele>
        <time>2019-12-28T11:55:07Z</time>
      </trkpt>
      <trkpt lat="45.23161" lon="6.02725">
        <ele>2097.4</ele>
        <time>2019-12-28T11:55:17Z</time>
      </trkpt>
      <trkpt lat="45.23164" lon="6.02725">
        <ele>2099</ele>
        <time>2019-12-28T11:55:21Z</time>
      </trkpt>
      <trkpt lat="45.23167" lon="6.02723">
        <ele>2100.5</ele>
        <time>2019-12-28T11:55:29Z</time>
      </trkpt>
      <trkpt lat="45.23171" lon="6.02724">
        <ele>2102</ele>
        <time>2019-12-28T11:55:35Z</time>
      </trkpt>
      <trkpt lat="45.23174" lon="6.02724">
        <ele>2103.5</ele>
        <time>2019-12-28T11:55:39Z</time>
      </trkpt>
      <trkpt lat="45.23177" lon="6.02725">
        <ele>2104.8</ele>
        <time>2019-12-28T11:55:45Z</time>
      </trkpt>
      <trkpt lat="45.23181" lon="6.02725">
        <ele>2107.4</ele>
        <time>2019-12-28T11:55:55Z</time>
      </trkpt>
      <trkpt lat="45.23184" lon="6.02724">
        <ele>2108.7</ele>
        <time>2019-12-28T11:56:01Z</time>
      </trkpt>
      <trkpt lat="45.23188" lon="6.02723">
        <ele>2110</ele>
        <time>2019-12-28T11:56:09Z</time>
      </trkpt>
      <trkpt lat="45.23191" lon="6.02721">
        <ele>2111.2</ele>
        <time>2019-12-28T11:56:20Z</time>
      </trkpt>
      <trkpt lat="45.23193" lon="6.02719">
        <ele>2112.6</ele>
        <time>2019-12-28T11:56:27Z</time>
      </trkpt>
      <trkpt lat="45.23197" lon="6.02718">
        <ele>2114</ele>
        <time>2019-12-28T11:56:31Z</time>
      </trkpt>
      <trkpt lat="45.232" lon="6.02718">
        <ele>2115.3</ele>
        <time>2019-12-28T11:56:34Z</time>
      </trkpt>
      <trkpt lat="45.23202" lon="6.02716">
        <ele>2116.7</ele>
        <time>2019-12-28T11:56:39Z</time>
      </trkpt>
      <trkpt lat="45.23204" lon="6.02713">
        <ele>2116.7</ele>
        <time>2019-12-28T11:56:48Z</time>
      </trkpt>
      <trkpt lat="45.23207" lon="6.02715">
        <ele>2117.9</ele>
        <time>2019-12-28T11:56:58Z</time>
      </trkpt>
      <trkpt lat="45.23208" lon="6.0272">
        <ele>2117.7</ele>
        <time>2019-12-28T11:57:11Z</time>
      </trkpt>
      <trkpt lat="45.23209" lon="6.02724">
        <ele>2118.7</ele>
        <time>2019-12-28T11:57:19Z</time>
      </trkpt>
      <trkpt lat="45.23211" lon="6.02727">
        <ele>2118.4</ele>
        <time>2019-12-28T11:57:23Z</time>
      </trkpt>
      <trkpt lat="45.23212" lon="6.02732">
        <ele>2119.5</ele>
        <time>2019-12-28T11:57:29Z</time>
      </trkpt>
      <trkpt lat="45.23211" lon="6.02736">
        <ele>2119.4</ele>
        <time>2019-12-28T11:57:35Z</time>
      </trkpt>
      <trkpt lat="45.23212" lon="6.02742">
        <ele>2119.2</ele>
        <time>2019-12-28T11:57:53Z</time>
      </trkpt>
      <trkpt lat="45.23215" lon="6.02743">
        <ele>2120.4</ele>
        <time>2019-12-28T11:57:59Z</time>
      </trkpt>
      <trkpt lat="45.23218" lon="6.02743">
        <ele>2121.6</ele>
        <time>2019-12-28T11:58:07Z</time>
      </trkpt>
      <trkpt lat="45.23221" lon="6.02742">
        <ele>2123</ele>
        <time>2019-12-28T11:58:15Z</time>
      </trkpt>
      <trkpt lat="45.23225" lon="6.02738">
        <ele>2124.4</ele>
        <time>2019-12-28T11:58:21Z</time>
      </trkpt>
      <trkpt lat="45.23227" lon="6.02736">
        <ele>2125.8</ele>
        <time>2019-12-28T11:58:26Z</time>
      </trkpt>
      <trkpt lat="45.23231" lon="6.02735">
        <ele>2127</ele>
        <time>2019-12-28T11:58:33Z</time>
      </trkpt>
      <trkpt lat="45.23234" lon="6.02733">
        <ele>2128.1</ele>
        <time>2019-12-28T11:58:37Z</time>
      </trkpt>
      <trkpt lat="45.23236" lon="6.02729">
        <ele>2129.3</ele>
        <time>2019-12-28T11:58:45Z</time>
      </trkpt>
      <trkpt lat="45.23239" lon="6.02729">
        <ele>2130.5</ele>
        <time>2019-12-28T11:58:55Z</time>
      </trkpt>
      <trkpt lat="45.23243" lon="6.02729">
        <ele>2131.6</ele>
        <time>2019-12-28T11:58:59Z</time>
      </trkpt>
      <trkpt lat="45.23241" lon="6.02732">
        <ele>2131.5</ele>
        <time>2019-12-28T11:59:07Z</time>
      </trkpt>
      <trkpt lat="45.23243" lon="6.02735">
        <ele>2131.3</ele>
        <time>2019-12-28T11:59:19Z</time>
      </trkpt>
      <trkpt lat="45.23245" lon="6.0274">
        <ele>2132.5</ele>
        <time>2019-12-28T11:59:25Z</time>
      </trkpt>
      <trkpt lat="45.23246" lon="6.02743">
        <ele>2132.4</ele>
        <time>2019-12-28T11:59:29Z</time>
      </trkpt>
      <trkpt lat="45.23246" lon="6.02749">
        <ele>2132.4</ele>
        <time>2019-12-28T11:59:35Z</time>
      </trkpt>
      <trkpt lat="45.23246" lon="6.02753">
        <ele>2132.4</ele>
        <time>2019-12-28T11:59:39Z</time>
      </trkpt>
      <trkpt lat="45.23245" lon="6.02758">
        <ele>2132.3</ele>
        <time>2019-12-28T11:59:53Z</time>
      </trkpt>
      <trkpt lat="45.23248" lon="6.0276">
        <ele>2133.7</ele>
        <time>2019-12-28T12:00:03Z</time>
      </trkpt>
      <trkpt lat="45.2325" lon="6.02758">
        <ele>2134.9</ele>
        <time>2019-12-28T12:00:08Z</time>
      </trkpt>
      <trkpt lat="45.23253" lon="6.02757">
        <ele>2136</ele>
        <time>2019-12-28T12:00:19Z</time>
      </trkpt>
      <trkpt lat="45.23257" lon="6.02755">
        <ele>2137.1</ele>
        <time>2019-12-28T12:00:23Z</time>
      </trkpt>
      <trkpt lat="45.23259" lon="6.02753">
        <ele>2138.1</ele>
        <time>2019-12-28T12:00:28Z</time>
      </trkpt>
      <trkpt lat="45.23262" lon="6.02751">
        <ele>2138</ele>
        <time>2019-12-28T12:00:32Z</time>
      </trkpt>
      <trkpt lat="45.23265" lon="6.02749">
        <ele>2140</ele>
        <time>2019-12-28T12:00:41Z</time>
      </trkpt>
      <trkpt lat="45.23267" lon="6.02744">
        <ele>2140</ele>
        <time>2019-12-28T12:00:49Z</time>
      </trkpt>
      <trkpt lat="45.23269" lon="6.02741">
        <ele>2140.9</ele>
        <time>2019-12-28T12:00:53Z</time>
      </trkpt>
      <trkpt lat="45.23269" lon="6.02736">
        <ele>2141</ele>
        <time>2019-12-28T12:00:59Z</time>
      </trkpt>
      <trkpt lat="45.23269" lon="6.02731">
        <ele>2141</ele>
        <time>2019-12-28T12:01:05Z</time>
      </trkpt>
      <trkpt lat="45.23268" lon="6.02726">
        <ele>2141.1</ele>
        <time>2019-12-28T12:01:08Z</time>
      </trkpt>
      <trkpt lat="45.2327" lon="6.02722">
        <ele>2141.4</ele>
        <time>2019-12-28T12:01:12Z</time>
      </trkpt>
      <trkpt lat="45.23271" lon="6.02719">
        <ele>2141.6</ele>
        <time>2019-12-28T12:01:17Z</time>
      </trkpt>
      <trkpt lat="45.23272" lon="6.02715">
        <ele>2143</ele>
        <time>2019-12-28T12:01:23Z</time>
      </trkpt>
      <trkpt lat="45.23275" lon="6.02717">
        <ele>2143.7</ele>
        <time>2019-12-28T12:01:33Z</time>
      </trkpt>
      <trkpt lat="45.23277" lon="6.02714">
        <ele>2144</ele>
        <time>2019-12-28T12:01:43Z</time>
      </trkpt>
      <trkpt lat="45.23278" lon="6.0271">
        <ele>2145.5</ele>
        <time>2019-12-28T12:01:50Z</time>
      </trkpt>
      <trkpt lat="45.23281" lon="6.0271">
        <ele>2146.3</ele>
        <time>2019-12-28T12:02:22Z</time>
      </trkpt>
      <trkpt lat="45.23284" lon="6.0271">
        <ele>2147.3</ele>
        <time>2019-12-28T12:02:31Z</time>
      </trkpt>
      <trkpt lat="45.23284" lon="6.02714">
        <ele>2146.8</ele>
        <time>2019-12-28T12:02:40Z</time>
      </trkpt>
      <trkpt lat="45.23284" lon="6.02718">
        <ele>2146.4</ele>
        <time>2019-12-28T12:02:44Z</time>
      </trkpt>
      <trkpt lat="45.23285" lon="6.02722">
        <ele>2146</ele>
        <time>2019-12-28T12:02:47Z</time>
      </trkpt>
      <trkpt lat="45.23287" lon="6.02725">
        <ele>2146.6</ele>
        <time>2019-12-28T12:02:52Z</time>
      </trkpt>
      <trkpt lat="45.23287" lon="6.0273">
        <ele>2146.3</ele>
        <time>2019-12-28T12:02:57Z</time>
      </trkpt>
      <trkpt lat="45.23287" lon="6.02735">
        <ele>2146.1</ele>
        <time>2019-12-28T12:03:04Z</time>
      </trkpt>
      <trkpt lat="45.23289" lon="6.02739">
        <ele>2145.8</ele>
        <time>2019-12-28T12:03:10Z</time>
      </trkpt>
      <trkpt lat="45.23292" lon="6.0274">
        <ele>2146.7</ele>
        <time>2019-12-28T12:12:00Z</time>
      </trkpt>
      <trkpt lat="45.23295" lon="6.02737">
        <ele>2147.6</ele>
        <time>2019-12-28T12:12:17Z</time>
      </trkpt>
      <trkpt lat="45.23297" lon="6.02736">
        <ele>2148.3</ele>
        <time>2019-12-28T12:12:25Z</time>
      </trkpt>
      <trkpt lat="45.23301" lon="6.02735">
        <ele>2149.1</ele>
        <time>2019-12-28T12:12:53Z</time>
      </trkpt>
      <trkpt lat="45.23304" lon="6.02736">
        <ele>2149.9</ele>
        <time>2019-12-28T12:13:06Z</time>
      </trkpt>
      <trkpt lat="45.23307" lon="6.02735">
        <ele>2150.6</ele>
        <time>2019-12-28T12:13:11Z</time>
      </trkpt>
      <trkpt lat="45.2331" lon="6.02733">
        <ele>2151.4</ele>
        <time>2019-12-28T12:13:16Z</time>
      </trkpt>
      <trkpt lat="45.23313" lon="6.02732">
        <ele>2152.2</ele>
        <time>2019-12-28T12:13:18Z</time>
      </trkpt>
      <trkpt lat="45.23318" lon="6.0273">
        <ele>2153.3</ele>
        <time>2019-12-28T12:13:22Z</time>
      </trkpt>
      <trkpt lat="45.23322" lon="6.02728">
        <ele>2154</ele>
        <time>2019-12-28T12:13:26Z</time>
      </trkpt>
      <trkpt lat="45.23325" lon="6.02727">
        <ele>2154.4</ele>
        <time>2019-12-28T12:13:32Z</time>
      </trkpt>
      <trkpt lat="45.23328" lon="6.02726">
        <ele>2154.9</ele>
        <time>2019-12-28T12:13:35Z</time>
      </trkpt>
      <trkpt lat="45.23331" lon="6.02724">
        <ele>2155.7</ele>
        <time>2019-12-28T12:13:38Z</time>
      </trkpt>
      <trkpt lat="45.23334" lon="6.02721">
        <ele>2156.3</ele>
        <time>2019-12-28T12:13:42Z</time>
      </trkpt>
      <trkpt lat="45.23335" lon="6.02716">
        <ele>2157.7</ele>
        <time>2019-12-28T12:13:48Z</time>
      </trkpt>
      <trkpt lat="45.23336" lon="6.0271">
        <ele>2158.1</ele>
        <time>2019-12-28T12:13:52Z</time>
      </trkpt>
      <trkpt lat="45.23337" lon="6.02707">
        <ele>2158.6</ele>
        <time>2019-12-28T12:13:56Z</time>
      </trkpt>
      <trkpt lat="45.2334" lon="6.02704">
        <ele>2159.2</ele>
        <time>2019-12-28T12:14:04Z</time>
      </trkpt>
      <trkpt lat="45.23342" lon="6.02701">
        <ele>2160.3</ele>
        <time>2019-12-28T12:14:08Z</time>
      </trkpt>
      <trkpt lat="45.23345" lon="6.02698">
        <ele>2161.5</ele>
        <time>2019-12-28T12:14:12Z</time>
      </trkpt>
      <trkpt lat="45.23347" lon="6.02695">
        <ele>2162</ele>
        <time>2019-12-28T12:14:16Z</time>
      </trkpt>
      <trkpt lat="45.2335" lon="6.02692">
        <ele>2163.4</ele>
        <time>2019-12-28T12:14:20Z</time>
      </trkpt>
      <trkpt lat="45.23349" lon="6.02686">
        <ele>2163.3</ele>
        <time>2019-12-28T12:14:26Z</time>
      </trkpt>
      <trkpt lat="45.23349" lon="6.02682">
        <ele>2164.1</ele>
        <time>2019-12-28T12:14:32Z</time>
      </trkpt>
      <trkpt lat="45.23352" lon="6.02681">
        <ele>2165.5</ele>
        <time>2019-12-28T12:14:40Z</time>
      </trkpt>
      <trkpt lat="45.23354" lon="6.02677">
        <ele>2167.2</ele>
        <time>2019-12-28T12:14:43Z</time>
      </trkpt>
      <trkpt lat="45.23355" lon="6.02671">
        <ele>2168</ele>
        <time>2019-12-28T12:14:46Z</time>
      </trkpt>
      <trkpt lat="45.23357" lon="6.02668">
        <ele>2169.8</ele>
        <time>2019-12-28T12:14:50Z</time>
      </trkpt>
      <trkpt lat="45.23358" lon="6.02665">
        <ele>2169.7</ele>
        <time>2019-12-28T12:14:54Z</time>
      </trkpt>
      <trkpt lat="45.2336" lon="6.02659">
        <ele>2172.5</ele>
        <time>2019-12-28T12:15:07Z</time>
      </trkpt>
      <trkpt lat="45.23363" lon="6.02657">
        <ele>2173.3</ele>
        <time>2019-12-28T12:15:09Z</time>
      </trkpt>
      <trkpt lat="45.23365" lon="6.02654">
        <ele>2174.3</ele>
        <time>2019-12-28T12:15:11Z</time>
      </trkpt>
      <trkpt lat="45.23367" lon="6.02651">
        <ele>2176.2</ele>
        <time>2019-12-28T12:15:14Z</time>
      </trkpt>
      <trkpt lat="45.23371" lon="6.02647">
        <ele>2177.1</ele>
        <time>2019-12-28T12:15:19Z</time>
      </trkpt>
      <trkpt lat="45.23373" lon="6.02645">
        <ele>2179</ele>
        <time>2019-12-28T12:15:26Z</time>
      </trkpt>
      <trkpt lat="45.23375" lon="6.02642">
        <ele>2181</ele>
        <time>2019-12-28T12:15:32Z</time>
      </trkpt>
      <trkpt lat="45.2338" lon="6.02641">
        <ele>2182.7</ele>
        <time>2019-12-28T12:15:36Z</time>
      </trkpt>
      <trkpt lat="45.23381" lon="6.02636">
        <ele>2183.8</ele>
        <time>2019-12-28T12:15:42Z</time>
      </trkpt>
      <trkpt lat="45.23381" lon="6.0263">
        <ele>2186.2</ele>
        <time>2019-12-28T12:15:50Z</time>
      </trkpt>
      <trkpt lat="45.23381" lon="6.02626">
        <ele>2187.3</ele>
        <time>2019-12-28T12:15:54Z</time>
      </trkpt>
      <trkpt lat="45.23382" lon="6.02622">
        <ele>2187.3</ele>
        <time>2019-12-28T12:15:58Z</time>
      </trkpt>
      <trkpt lat="45.23384" lon="6.02619">
        <ele>2189.3</ele>
        <time>2019-12-28T12:16:02Z</time>
      </trkpt>
      <trkpt lat="45.23386" lon="6.02616">
        <ele>2190.4</ele>
        <time>2019-12-28T12:16:08Z</time>
      </trkpt>
      <trkpt lat="45.2339" lon="6.02614">
        <ele>2192.3</ele>
        <time>2019-12-28T12:16:12Z</time>
      </trkpt>
      <trkpt lat="45.23393" lon="6.02615">
        <ele>2193.3</ele>
        <time>2019-12-28T12:16:20Z</time>
      </trkpt>
      <trkpt lat="45.23394" lon="6.02611">
        <ele>2194.4</ele>
        <time>2019-12-28T12:16:34Z</time>
      </trkpt>
      <trkpt lat="45.23397" lon="6.02608">
        <ele>2196.4</ele>
        <time>2019-12-28T12:16:42Z</time>
      </trkpt>
      <trkpt lat="45.23395" lon="6.02603">
        <ele>2197.3</ele>
        <time>2019-12-28T12:16:48Z</time>
      </trkpt>
      <trkpt lat="45.23393" lon="6.02599">
        <ele>2197.2</ele>
        <time>2019-12-28T12:16:54Z</time>
      </trkpt>
      <trkpt lat="45.23397" lon="6.02597">
        <ele>2198.2</ele>
        <time>2019-12-28T12:17:10Z</time>
      </trkpt>
      <trkpt lat="45.234" lon="6.02596">
        <ele>2199.1</ele>
        <time>2019-12-28T12:17:26Z</time>
      </trkpt>
      <trkpt lat="45.23405" lon="6.02596">
        <ele>2201.8</ele>
        <time>2019-12-28T12:17:32Z</time>
      </trkpt>
      <trkpt lat="45.23407" lon="6.02592">
        <ele>2201.8</ele>
        <time>2019-12-28T12:17:36Z</time>
      </trkpt>
      <trkpt lat="45.23408" lon="6.02588">
        <ele>2203.7</ele>
        <time>2019-12-28T12:17:42Z</time>
      </trkpt>
      <trkpt lat="45.23408" lon="6.02584">
        <ele>2204.7</ele>
        <time>2019-12-28T12:17:52Z</time>
      </trkpt>
      <trkpt lat="45.23411" lon="6.02582">
        <ele>2206.7</ele>
        <time>2019-12-28T12:17:58Z</time>
      </trkpt>
      <trkpt lat="45.23414" lon="6.02581">
        <ele>2207.9</ele>
        <time>2019-12-28T12:18:02Z</time>
      </trkpt>
      <trkpt lat="45.23417" lon="6.0258">
        <ele>2209.1</ele>
        <time>2019-12-28T12:18:10Z</time>
      </trkpt>
      <trkpt lat="45.2342" lon="6.02581">
        <ele>2210.4</ele>
        <time>2019-12-28T12:18:19Z</time>
      </trkpt>
      <trkpt lat="45.23422" lon="6.02582">
        <ele>2210.3</ele>
        <time>2019-12-28T12:18:32Z</time>
      </trkpt>
      <trkpt lat="45.23425" lon="6.02582">
        <ele>2211.5</ele>
        <time>2019-12-28T12:18:40Z</time>
      </trkpt>
      <trkpt lat="45.23426" lon="6.02576">
        <ele>2213.6</ele>
        <time>2019-12-28T12:18:47Z</time>
      </trkpt>
      <trkpt lat="45.23425" lon="6.02571">
        <ele>2213.5</ele>
        <time>2019-12-28T12:18:52Z</time>
      </trkpt>
      <trkpt lat="45.23427" lon="6.02568">
        <ele>2215.5</ele>
        <time>2019-12-28T12:18:58Z</time>
      </trkpt>
      <trkpt lat="45.23426" lon="6.02564">
        <ele>2216.3</ele>
        <time>2019-12-28T12:19:08Z</time>
      </trkpt>
      <trkpt lat="45.23425" lon="6.02559">
        <ele>2216.1</ele>
        <time>2019-12-28T12:19:12Z</time>
      </trkpt>
      <trkpt lat="45.23425" lon="6.02554">
        <ele>2217</ele>
        <time>2019-12-28T12:19:16Z</time>
      </trkpt>
      <trkpt lat="45.23423" lon="6.02548">
        <ele>2219</ele>
        <time>2019-12-28T12:19:22Z</time>
      </trkpt>
      <trkpt lat="45.23425" lon="6.02545">
        <ele>2218.9</ele>
        <time>2019-12-28T12:19:38Z</time>
      </trkpt>
      <trkpt lat="45.23427" lon="6.02542">
        <ele>2221.1</ele>
        <time>2019-12-28T12:19:42Z</time>
      </trkpt>
      <trkpt lat="45.2343" lon="6.0254">
        <ele>2222.2</ele>
        <time>2019-12-28T12:19:50Z</time>
      </trkpt>
      <trkpt lat="45.23433" lon="6.02539">
        <ele>2224.3</ele>
        <time>2019-12-28T12:19:53Z</time>
      </trkpt>
      <trkpt lat="45.23437" lon="6.0254">
        <ele>2225.5</ele>
        <time>2019-12-28T12:20:00Z</time>
      </trkpt>
      <trkpt lat="45.2344" lon="6.02541">
        <ele>2225.7</ele>
        <time>2019-12-28T12:20:06Z</time>
      </trkpt>
      <trkpt lat="45.23443" lon="6.02542">
        <ele>2227.1</ele>
        <time>2019-12-28T12:20:10Z</time>
      </trkpt>
      <trkpt lat="45.23445" lon="6.02546">
        <ele>2227.4</ele>
        <time>2019-12-28T12:20:16Z</time>
      </trkpt>
      <trkpt lat="45.23449" lon="6.02546">
        <ele>2228.8</ele>
        <time>2019-12-28T12:20:20Z</time>
      </trkpt>
      <trkpt lat="45.23453" lon="6.02546">
        <ele>2230.2</ele>
        <time>2019-12-28T12:20:24Z</time>
      </trkpt>
      <trkpt lat="45.23455" lon="6.02545">
        <ele>2231.5</ele>
        <time>2019-12-28T12:20:31Z</time>
      </trkpt>
      <trkpt lat="45.23458" lon="6.02545">
        <ele>2232.9</ele>
        <time>2019-12-28T12:20:36Z</time>
      </trkpt>
      <trkpt lat="45.23462" lon="6.02547">
        <ele>2234.2</ele>
        <time>2019-12-28T12:20:40Z</time>
      </trkpt>
      <trkpt lat="45.23465" lon="6.02549">
        <ele>2234.6</ele>
        <time>2019-12-28T12:20:47Z</time>
      </trkpt>
      <trkpt lat="45.23469" lon="6.02553">
        <ele>2236.5</ele>
        <time>2019-12-28T12:20:54Z</time>
      </trkpt>
      <trkpt lat="45.23472" lon="6.02556">
        <ele>2238</ele>
        <time>2019-12-28T12:20:58Z</time>
      </trkpt>
      <trkpt lat="45.23475" lon="6.02559">
        <ele>2238.5</ele>
        <time>2019-12-28T12:21:04Z</time>
      </trkpt>
      <trkpt lat="45.23475" lon="6.02564">
        <ele>2237.6</ele>
        <time>2019-12-28T12:21:12Z</time>
      </trkpt>
      <trkpt lat="45.23476" lon="6.02568">
        <ele>2236.6</ele>
        <time>2019-12-28T12:21:15Z</time>
      </trkpt>
      <trkpt lat="45.23478" lon="6.02572">
        <ele>2237.1</ele>
        <time>2019-12-28T12:21:20Z</time>
      </trkpt>
      <trkpt lat="45.2348" lon="6.02577">
        <ele>2237.4</ele>
        <time>2019-12-28T12:21:28Z</time>
      </trkpt>
      <trkpt lat="45.23482" lon="6.02582">
        <ele>2236.4</ele>
        <time>2019-12-28T12:21:32Z</time>
      </trkpt>
      <trkpt lat="45.23481" lon="6.02588">
        <ele>2234.5</ele>
        <time>2019-12-28T12:21:40Z</time>
      </trkpt>
      <trkpt lat="45.23482" lon="6.02592">
        <ele>2233.6</ele>
        <time>2019-12-28T12:21:46Z</time>
      </trkpt>
      <trkpt lat="45.23483" lon="6.02588">
        <ele>2235.8</ele>
        <time>2019-12-28T12:22:00Z</time>
      </trkpt>
      <trkpt lat="45.23485" lon="6.02584">
        <ele>2236.7</ele>
        <time>2019-12-28T12:22:04Z</time>
      </trkpt>
      <trkpt lat="45.23489" lon="6.02581">
        <ele>2238.7</ele>
        <time>2019-12-28T12:22:08Z</time>
      </trkpt>
      <trkpt lat="45.23491" lon="6.02578">
        <ele>2240.8</ele>
        <time>2019-12-28T12:22:16Z</time>
      </trkpt>
      <trkpt lat="45.23493" lon="6.02574">
        <ele>2241.8</ele>
        <time>2019-12-28T12:22:24Z</time>
      </trkpt>
      <trkpt lat="45.23496" lon="6.02571">
        <ele>2244</ele>
        <time>2019-12-28T12:22:30Z</time>
      </trkpt>
      <trkpt lat="45.23497" lon="6.02566">
        <ele>2244.9</ele>
        <time>2019-12-28T12:22:36Z</time>
      </trkpt>
      <trkpt lat="45.23499" lon="6.02563">
        <ele>2247.2</ele>
        <time>2019-12-28T12:22:40Z</time>
      </trkpt>
      <trkpt lat="45.235" lon="6.02559">
        <ele>2248.2</ele>
        <time>2019-12-28T12:22:46Z</time>
      </trkpt>
      <trkpt lat="45.23501" lon="6.02555">
        <ele>2250.6</ele>
        <time>2019-12-28T12:22:51Z</time>
      </trkpt>
      <trkpt lat="45.23501" lon="6.0255">
        <ele>2250.4</ele>
        <time>2019-12-28T12:23:00Z</time>
      </trkpt>
      <trkpt lat="45.23498" lon="6.02548">
        <ele>2251.6</ele>
        <time>2019-12-28T12:23:09Z</time>
      </trkpt>
      <trkpt lat="45.23499" lon="6.02545">
        <ele>2251.5</ele>
        <time>2019-12-28T12:23:34Z</time>
      </trkpt>
      <trkpt lat="45.23502" lon="6.0254">
        <ele>2254.1</ele>
        <time>2019-12-28T12:23:38Z</time>
      </trkpt>
      <trkpt lat="45.23503" lon="6.02534">
        <ele>2256.8</ele>
        <time>2019-12-28T12:23:44Z</time>
      </trkpt>
      <trkpt lat="45.23503" lon="6.02529">
        <ele>2258.2</ele>
        <time>2019-12-28T12:23:48Z</time>
      </trkpt>
      <trkpt lat="45.23503" lon="6.02525">
        <ele>2259.6</ele>
        <time>2019-12-28T12:23:54Z</time>
      </trkpt>
      <trkpt lat="45.23501" lon="6.02522">
        <ele>2259.4</ele>
        <time>2019-12-28T12:23:57Z</time>
      </trkpt>
      <trkpt lat="45.23498" lon="6.02521">
        <ele>2258</ele>
        <time>2019-12-28T12:24:02Z</time>
      </trkpt>
      <trkpt lat="45.23498" lon="6.02517">
        <ele>2260.7</ele>
        <time>2019-12-28T12:24:10Z</time>
      </trkpt>
      <trkpt lat="45.235" lon="6.02514">
        <ele>2261.9</ele>
        <time>2019-12-28T12:24:26Z</time>
      </trkpt>
      <trkpt lat="45.23503" lon="6.02516">
        <ele>2262.1</ele>
        <time>2019-12-28T12:24:30Z</time>
      </trkpt>
      <trkpt lat="45.23507" lon="6.02519">
        <ele>2264.8</ele>
        <time>2019-12-28T12:24:34Z</time>
      </trkpt>
      <trkpt lat="45.2351" lon="6.0252">
        <ele>2263.5</ele>
        <time>2019-12-28T12:24:38Z</time>
      </trkpt>
      <trkpt lat="45.23514" lon="6.02522">
        <ele>2265.7</ele>
        <time>2019-12-28T12:24:44Z</time>
      </trkpt>
      <trkpt lat="45.23516" lon="6.02524">
        <ele>2265.3</ele>
        <time>2019-12-28T12:24:50Z</time>
      </trkpt>
      <trkpt lat="45.23517" lon="6.02528">
        <ele>2263.9</ele>
        <time>2019-12-28T12:24:57Z</time>
      </trkpt>
      <trkpt lat="45.23518" lon="6.02534">
        <ele>2262.4</ele>
        <time>2019-12-28T12:25:02Z</time>
      </trkpt>
      <trkpt lat="45.23519" lon="6.0254">
        <ele>2261</ele>
        <time>2019-12-28T12:25:06Z</time>
      </trkpt>
      <trkpt lat="45.2352" lon="6.02544">
        <ele>2260.9</ele>
        <time>2019-12-28T12:25:10Z</time>
      </trkpt>
      <trkpt lat="45.23523" lon="6.02546">
        <ele>2261</ele>
        <time>2019-12-28T12:25:20Z</time>
      </trkpt>
      <trkpt lat="45.23525" lon="6.02547">
        <ele>2262.5</ele>
        <time>2019-12-28T12:25:24Z</time>
      </trkpt>
      <trkpt lat="45.23527" lon="6.02551">
        <ele>2261.3</ele>
        <time>2019-12-28T12:25:28Z</time>
      </trkpt>
      <trkpt lat="45.2353" lon="6.02556">
        <ele>2261.7</ele>
        <time>2019-12-28T12:25:33Z</time>
      </trkpt>
      <trkpt lat="45.23533" lon="6.02557">
        <ele>2263.3</ele>
        <time>2019-12-28T12:25:40Z</time>
      </trkpt>
      <trkpt lat="45.23536" lon="6.02559">
        <ele>2263.7</ele>
        <time>2019-12-28T12:25:44Z</time>
      </trkpt>
      <trkpt lat="45.23537" lon="6.02563">
        <ele>2262.6</ele>
        <time>2019-12-28T12:25:48Z</time>
      </trkpt>
      <trkpt lat="45.2354" lon="6.02565">
        <ele>2264.1</ele>
        <time>2019-12-28T12:25:53Z</time>
      </trkpt>
      <trkpt lat="45.23541" lon="6.02568">
        <ele>2264.6</ele>
        <time>2019-12-28T12:26:06Z</time>
      </trkpt>
      <trkpt lat="45.23544" lon="6.02568">
        <ele>2266.2</ele>
        <time>2019-12-28T12:26:35Z</time>
      </trkpt>
      <trkpt lat="45.23548" lon="6.02568">
        <ele>2267.9</ele>
        <time>2019-12-28T12:26:37Z</time>
      </trkpt>
      <trkpt lat="45.23551" lon="6.02568">
        <ele>2269.7</ele>
        <time>2019-12-28T12:26:41Z</time>
      </trkpt>
      <trkpt lat="45.23554" lon="6.02566">
        <ele>2271.6</ele>
        <time>2019-12-28T12:26:51Z</time>
      </trkpt>
      <trkpt lat="45.23557" lon="6.02566">
        <ele>2274.7</ele>
        <time>2019-12-28T12:26:57Z</time>
      </trkpt>
      <trkpt lat="45.23557" lon="6.0257">
        <ele>2273.5</ele>
        <time>2019-12-28T12:27:14Z</time>
      </trkpt>
      <trkpt lat="45.23559" lon="6.02567">
        <ele>2275.5</ele>
        <time>2019-12-28T12:31:54Z</time>
      </trkpt>
      <trkpt lat="45.23562" lon="6.02565">
        <ele>2278.7</ele>
        <time>2019-12-28T12:37:21Z</time>
      </trkpt>
      <trkpt lat="45.23565" lon="6.02565">
        <ele>2280.7</ele>
        <time>2019-12-28T12:37:27Z</time>
      </trkpt>
      <trkpt lat="45.23568" lon="6.02568">
        <ele>2281.3</ele>
        <time>2019-12-28T12:37:31Z</time>
      </trkpt>
      <trkpt lat="45.23569" lon="6.02571">
        <ele>2279.9</ele>
        <time>2019-12-28T12:37:36Z</time>
      </trkpt>
      <trkpt lat="45.23571" lon="6.02575">
        <ele>2280.2</ele>
        <time>2019-12-28T12:37:43Z</time>
      </trkpt>
      <trkpt lat="45.23571" lon="6.02571">
        <ele>2281.7</ele>
        <time>2019-12-28T12:37:52Z</time>
      </trkpt>
      <trkpt lat="45.23571" lon="6.02567">
        <ele>2283</ele>
        <time>2019-12-28T12:37:55Z</time>
      </trkpt>
      <trkpt lat="45.23572" lon="6.02563">
        <ele>2284.3</ele>
        <time>2019-12-28T12:37:57Z</time>
      </trkpt>
      <trkpt lat="45.23572" lon="6.02559">
        <ele>2285.5</ele>
        <time>2019-12-28T12:38:01Z</time>
      </trkpt>
      <trkpt lat="45.23571" lon="6.02555">
        <ele>2286.7</ele>
        <time>2019-12-28T12:38:10Z</time>
      </trkpt>
      <trkpt lat="45.23572" lon="6.02551">
        <ele>2287.8</ele>
        <time>2019-12-28T12:38:19Z</time>
      </trkpt>
      <trkpt lat="45.23571" lon="6.02546">
        <ele>2289</ele>
        <time>2019-12-28T12:38:27Z</time>
      </trkpt>
      <trkpt lat="45.23569" lon="6.02542">
        <ele>2288.3</ele>
        <time>2019-12-28T12:38:31Z</time>
      </trkpt>
      <trkpt lat="45.23568" lon="6.02538">
        <ele>2289.4</ele>
        <time>2019-12-28T12:38:37Z</time>
      </trkpt>
      <trkpt lat="45.23566" lon="6.02536">
        <ele>2288.6</ele>
        <time>2019-12-28T12:38:42Z</time>
      </trkpt>
      <trkpt lat="45.23563" lon="6.02534">
        <ele>2286.6</ele>
        <time>2019-12-28T12:38:47Z</time>
      </trkpt>
      <trkpt lat="45.2356" lon="6.0253">
        <ele>2285.6</ele>
        <time>2019-12-28T12:39:27Z</time>
      </trkpt>
      <trkpt lat="45.23558" lon="6.02526">
        <ele>2284.8</ele>
        <time>2019-12-28T12:39:28Z</time>
      </trkpt>
      <trkpt lat="45.23554" lon="6.02518">
        <ele>2285</ele>
        <time>2019-12-28T12:39:31Z</time>
      </trkpt>
      <trkpt lat="45.23557" lon="6.02516">
        <ele>2286.8</ele>
        <time>2019-12-28T12:39:39Z</time>
      </trkpt>
      <trkpt lat="45.2356" lon="6.02518">
        <ele>2288.7</ele>
        <time>2019-12-28T12:39:50Z</time>
      </trkpt>
      <trkpt lat="45.23563" lon="6.02517">
        <ele>2290.6</ele>
        <time>2019-12-28T12:39:55Z</time>
      </trkpt>
      <trkpt lat="45.23566" lon="6.02518">
        <ele>2292.4</ele>
        <time>2019-12-28T12:40:00Z</time>
      </trkpt>
      <trkpt lat="45.23568" lon="6.02516">
        <ele>2294.3</ele>
        <time>2019-12-28T12:40:14Z</time>
      </trkpt>
      <trkpt lat="45.23572" lon="6.02516">
        <ele>2296</ele>
        <time>2019-12-28T12:40:27Z</time>
      </trkpt>
      <trkpt lat="45.23576" lon="6.02517">
        <ele>2297.8</ele>
        <time>2019-12-28T12:40:30Z</time>
      </trkpt>
      <trkpt lat="45.2358" lon="6.02517">
        <ele>2301.6</ele>
        <time>2019-12-28T12:40:32Z</time>
      </trkpt>
      <trkpt lat="45.23584" lon="6.02516">
        <ele>2303.7</ele>
        <time>2019-12-28T12:40:35Z</time>
      </trkpt>
      <trkpt lat="45.23587" lon="6.02519">
        <ele>2305</ele>
        <time>2019-12-28T12:40:41Z</time>
      </trkpt>
      <trkpt lat="45.23585" lon="6.02514">
        <ele>2304.5</ele>
        <time>2019-12-28T12:40:56Z</time>
      </trkpt>
      <trkpt lat="45.23583" lon="6.0251">
        <ele>2305.3</ele>
        <time>2019-12-28T12:41:02Z</time>
      </trkpt>
      <trkpt lat="45.23581" lon="6.02506">
        <ele>2304.2</ele>
        <time>2019-12-28T12:41:13Z</time>
      </trkpt>
      <trkpt lat="45.23578" lon="6.02501">
        <ele>2303.4</ele>
        <time>2019-12-28T12:41:17Z</time>
      </trkpt>
      <trkpt lat="45.23577" lon="6.02497">
        <ele>2304.6</ele>
        <time>2019-12-28T12:41:29Z</time>
      </trkpt>
      <trkpt lat="45.23575" lon="6.02494">
        <ele>2302.8</ele>
        <time>2019-12-28T12:41:31Z</time>
      </trkpt>
      <trkpt lat="45.23573" lon="6.0249">
        <ele>2302.4</ele>
        <time>2019-12-28T12:41:34Z</time>
      </trkpt>
      <trkpt lat="45.2357" lon="6.02487">
        <ele>2302.1</ele>
        <time>2019-12-28T12:41:39Z</time>
      </trkpt>
      <trkpt lat="45.23567" lon="6.02485">
        <ele>2300.4</ele>
        <time>2019-12-28T12:41:43Z</time>
      </trkpt>
      <trkpt lat="45.23563" lon="6.02482">
        <ele>2300</ele>
        <time>2019-12-28T12:41:47Z</time>
      </trkpt>
      <trkpt lat="45.23567" lon="6.02482">
        <ele>2301.6</ele>
        <time>2019-12-28T12:42:30Z</time>
      </trkpt>
      <trkpt lat="45.23571" lon="6.0248">
        <ele>2304.9</ele>
        <time>2019-12-28T12:42:34Z</time>
      </trkpt>
      <trkpt lat="45.23574" lon="6.02479">
        <ele>2307.9</ele>
        <time>2019-12-28T12:42:41Z</time>
      </trkpt>
      <trkpt lat="45.23577" lon="6.02478">
        <ele>2309.6</ele>
        <time>2019-12-28T12:42:46Z</time>
      </trkpt>
      <trkpt lat="45.2358" lon="6.02478">
        <ele>2311.5</ele>
        <time>2019-12-28T12:42:53Z</time>
      </trkpt>
      <trkpt lat="45.23583" lon="6.02478">
        <ele>2313.5</ele>
        <time>2019-12-28T12:42:57Z</time>
      </trkpt>
      <trkpt lat="45.23581" lon="6.02476">
        <ele>2312.8</ele>
        <time>2019-12-28T12:43:15Z</time>
      </trkpt>
      <trkpt lat="45.23578" lon="6.02472">
        <ele>2311</ele>
        <time>2019-12-28T12:43:20Z</time>
      </trkpt>
      <trkpt lat="45.23576" lon="6.0247">
        <ele>2310.7</ele>
        <time>2019-12-28T12:43:23Z</time>
      </trkpt>
      <trkpt lat="45.23573" lon="6.02468">
        <ele>2309.1</ele>
        <time>2019-12-28T12:43:27Z</time>
      </trkpt>
      <trkpt lat="45.2357" lon="6.02465">
        <ele>2308.9</ele>
        <time>2019-12-28T12:43:31Z</time>
      </trkpt>
      <trkpt lat="45.23566" lon="6.02462">
        <ele>2308.8</ele>
        <time>2019-12-28T12:43:34Z</time>
      </trkpt>
      <trkpt lat="45.23569" lon="6.02463">
        <ele>2308.9</ele>
        <time>2019-12-28T12:43:54Z</time>
      </trkpt>
      <trkpt lat="45.23572" lon="6.02462">
        <ele>2312.1</ele>
        <time>2019-12-28T12:43:57Z</time>
      </trkpt>
      <trkpt lat="45.23574" lon="6.0246">
        <ele>2313.7</ele>
        <time>2019-12-28T12:43:59Z</time>
      </trkpt>
      <trkpt lat="45.23577" lon="6.02458">
        <ele>2316.9</ele>
        <time>2019-12-28T12:44:01Z</time>
      </trkpt>
      <trkpt lat="45.23581" lon="6.02458">
        <ele>2318.7</ele>
        <time>2019-12-28T12:44:08Z</time>
      </trkpt>
      <trkpt lat="45.23581" lon="6.02453">
        <ele>2320.4</ele>
        <time>2019-12-28T12:44:42Z</time>
      </trkpt>
      <trkpt lat="45.23579" lon="6.02448">
        <ele>2320.3</ele>
        <time>2019-12-28T12:44:49Z</time>
      </trkpt>
      <trkpt lat="45.23576" lon="6.02446">
        <ele>2318.7</ele>
        <time>2019-12-28T12:44:52Z</time>
      </trkpt>
      <trkpt lat="45.23573" lon="6.02443">
        <ele>2318.9</ele>
        <time>2019-12-28T12:44:57Z</time>
      </trkpt>
      <trkpt lat="45.23569" lon="6.02443">
        <ele>2317.3</ele>
        <time>2019-12-28T12:44:59Z</time>
      </trkpt>
      <trkpt lat="45.23564" lon="6.02441">
        <ele>2315.8</ele>
        <time>2019-12-28T12:45:03Z</time>
      </trkpt>
      <trkpt lat="45.2356" lon="6.0244">
        <ele>2314.1</ele>
        <time>2019-12-28T12:45:07Z</time>
      </trkpt>
      <trkpt lat="45.23564" lon="6.0244">
        <ele>2315.8</ele>
        <time>2019-12-28T12:45:18Z</time>
      </trkpt>
      <trkpt lat="45.23566" lon="6.0244">
        <ele>2317.4</ele>
        <time>2019-12-28T12:45:21Z</time>
      </trkpt>
      <trkpt lat="45.2357" lon="6.0244">
        <ele>2319</ele>
        <time>2019-12-28T12:45:25Z</time>
      </trkpt>
      <trkpt lat="45.23573" lon="6.02441">
        <ele>2318.8</ele>
        <time>2019-12-28T12:45:31Z</time>
      </trkpt>
      <trkpt lat="45.23576" lon="6.0244">
        <ele>2322.1</ele>
        <time>2019-12-28T12:45:40Z</time>
      </trkpt>
      <trkpt lat="45.23575" lon="6.02436">
        <ele>2323.8</ele>
        <time>2019-12-28T12:45:53Z</time>
      </trkpt>
      <trkpt lat="45.23571" lon="6.02434">
        <ele>2322.2</ele>
        <time>2019-12-28T12:45:56Z</time>
      </trkpt>
      <trkpt lat="45.23569" lon="6.02431">
        <ele>2322.3</ele>
        <time>2019-12-28T12:46:00Z</time>
      </trkpt>
      <trkpt lat="45.23567" lon="6.0243">
        <ele>2320.7</ele>
        <time>2019-12-28T12:46:04Z</time>
      </trkpt>
      <trkpt lat="45.23565" lon="6.02427">
        <ele>2322.4</ele>
        <time>2019-12-28T12:46:07Z</time>
      </trkpt>
      <trkpt lat="45.23562" lon="6.02425">
        <ele>2320.7</ele>
        <time>2019-12-28T12:46:10Z</time>
      </trkpt>
      <trkpt lat="45.23563" lon="6.02421">
        <ele>2322.4</ele>
        <time>2019-12-28T12:46:20Z</time>
      </trkpt>
      <trkpt lat="45.23563" lon="6.02417">
        <ele>2324.1</ele>
        <time>2019-12-28T12:46:30Z</time>
      </trkpt>
      <trkpt lat="45.23566" lon="6.02415">
        <ele>2327.4</ele>
        <time>2019-12-28T12:46:38Z</time>
      </trkpt>
      <trkpt lat="45.23569" lon="6.02416">
        <ele>2327.1</ele>
        <time>2019-12-28T12:46:44Z</time>
      </trkpt>
      <trkpt lat="45.23571" lon="6.02418">
        <ele>2328.6</ele>
        <time>2019-12-28T12:46:50Z</time>
      </trkpt>
      <trkpt lat="45.23574" lon="6.02418">
        <ele>2330</ele>
        <time>2019-12-28T12:47:02Z</time>
      </trkpt>
      <trkpt lat="45.23579" lon="6.02418">
        <ele>2331.4</ele>
        <time>2019-12-28T12:47:08Z</time>
      </trkpt>
      <trkpt lat="45.23582" lon="6.02417">
        <ele>2332.9</ele>
        <time>2019-12-28T12:47:12Z</time>
      </trkpt>
      <trkpt lat="45.23585" lon="6.02416">
        <ele>2334.5</ele>
        <time>2019-12-28T12:47:18Z</time>
      </trkpt>
      <trkpt lat="45.23583" lon="6.02414">
        <ele>2336.1</ele>
        <time>2019-12-28T12:48:00Z</time>
      </trkpt>
      <trkpt lat="45.23581" lon="6.02411">
        <ele>2336.1</ele>
        <time>2019-12-28T12:48:10Z</time>
      </trkpt>
      <trkpt lat="45.23578" lon="6.02409">
        <ele>2334.6</ele>
        <time>2019-12-28T12:48:12Z</time>
      </trkpt>
      <trkpt lat="45.23576" lon="6.02407">
        <ele>2333.2</ele>
        <time>2019-12-28T12:48:14Z</time>
      </trkpt>
      <trkpt lat="45.23572" lon="6.02406">
        <ele>2333.6</ele>
        <time>2019-12-28T12:48:18Z</time>
      </trkpt>
      <trkpt lat="45.23568" lon="6.02404">
        <ele>2332.2</ele>
        <time>2019-12-28T12:48:21Z</time>
      </trkpt>
      <trkpt lat="45.23566" lon="6.02403">
        <ele>2332.6</ele>
        <time>2019-12-28T12:48:24Z</time>
      </trkpt>
      <trkpt lat="45.23563" lon="6.024">
        <ele>2331.1</ele>
        <time>2019-12-28T12:48:29Z</time>
      </trkpt>
      <trkpt lat="45.2356" lon="6.02399">
        <ele>2329.5</ele>
        <time>2019-12-28T12:48:37Z</time>
      </trkpt>
      <trkpt lat="45.23563" lon="6.02396">
        <ele>2332.9</ele>
        <time>2019-12-28T12:48:47Z</time>
      </trkpt>
      <trkpt lat="45.23562" lon="6.02392">
        <ele>2334.8</ele>
        <time>2019-12-28T12:50:08Z</time>
      </trkpt>
      <trkpt lat="45.23559" lon="6.02385">
        <ele>2336.8</ele>
        <time>2019-12-28T12:50:12Z</time>
      </trkpt>
      <trkpt lat="45.23558" lon="6.02379">
        <ele>2337</ele>
        <time>2019-12-28T12:50:16Z</time>
      </trkpt>
      <trkpt lat="45.23555" lon="6.02378">
        <ele>2335.4</ele>
        <time>2019-12-28T12:50:23Z</time>
      </trkpt>
      <trkpt lat="45.23552" lon="6.02375">
        <ele>2335.6</ele>
        <time>2019-12-28T12:50:27Z</time>
      </trkpt>
      <trkpt lat="45.2355" lon="6.02372">
        <ele>2337.3</ele>
        <time>2019-12-28T12:50:32Z</time>
      </trkpt>
      <trkpt lat="45.23548" lon="6.02368">
        <ele>2337.6</ele>
        <time>2019-12-28T12:50:36Z</time>
      </trkpt>
      <trkpt lat="45.23553" lon="6.0237">
        <ele>2338.7</ele>
        <time>2019-12-28T12:51:06Z</time>
      </trkpt>
      <trkpt lat="45.23557" lon="6.02373">
        <ele>2338.5</ele>
        <time>2019-12-28T12:51:10Z</time>
      </trkpt>
      <trkpt lat="45.2356" lon="6.0237">
        <ele>2341.6</ele>
        <time>2019-12-28T12:51:34Z</time>
      </trkpt>
      <trkpt lat="45.23561" lon="6.02366">
        <ele>2343.1</ele>
        <time>2019-12-28T12:51:38Z</time>
      </trkpt>
      <trkpt lat="45.23561" lon="6.02362">
        <ele>2344.7</ele>
        <time>2019-12-28T12:51:44Z</time>
      </trkpt>
      <trkpt lat="45.2356" lon="6.02356">
        <ele>2346.1</ele>
        <time>2019-12-28T12:51:52Z</time>
      </trkpt>
      <trkpt lat="45.23559" lon="6.02352">
        <ele>2347.5</ele>
        <time>2019-12-28T12:51:57Z</time>
      </trkpt>
      <trkpt lat="45.23557" lon="6.02348">
        <ele>2347.7</ele>
        <time>2019-12-28T12:52:25Z</time>
      </trkpt>
      <trkpt lat="45.23555" lon="6.02345">
        <ele>2347.8</ele>
        <time>2019-12-28T12:52:29Z</time>
      </trkpt>
      <trkpt lat="45.23552" lon="6.02342">
        <ele>2347.9</ele>
        <time>2019-12-28T12:52:32Z</time>
      </trkpt>
      <trkpt lat="45.23549" lon="6.02341">
        <ele>2347.9</ele>
        <time>2019-12-28T12:52:35Z</time>
      </trkpt>
      <trkpt lat="45.23547" lon="6.02339">
        <ele>2346.9</ele>
        <time>2019-12-28T12:52:39Z</time>
      </trkpt>
      <trkpt lat="45.23545" lon="6.02334">
        <ele>2347.1</ele>
        <time>2019-12-28T12:52:43Z</time>
      </trkpt>
      <trkpt lat="45.23548" lon="6.02336">
        <ele>2348</ele>
        <time>2019-12-28T12:53:25Z</time>
      </trkpt>
      <trkpt lat="45.23551" lon="6.02337">
        <ele>2348.9</ele>
        <time>2019-12-28T12:53:34Z</time>
      </trkpt>
      <trkpt lat="45.23553" lon="6.02337">
        <ele>2349.7</ele>
        <time>2019-12-28T12:54:30Z</time>
      </trkpt>
      <trkpt lat="45.23557" lon="6.02336">
        <ele>2350.6</ele>
        <time>2019-12-28T12:54:34Z</time>
      </trkpt>
      <trkpt lat="45.23555" lon="6.02333">
        <ele>2350.5</ele>
        <time>2019-12-28T12:54:44Z</time>
      </trkpt>
      <trkpt lat="45.23551" lon="6.02331">
        <ele>2349.7</ele>
        <time>2019-12-28T12:54:49Z</time>
      </trkpt>
      <trkpt lat="45.2355" lon="6.02327">
        <ele>2350.5</ele>
        <time>2019-12-28T12:54:54Z</time>
      </trkpt>
      <trkpt lat="45.23549" lon="6.02324">
        <ele>2350.4</ele>
        <time>2019-12-28T12:55:16Z</time>
      </trkpt>
      <trkpt lat="45.23553" lon="6.02324">
        <ele>2351.7</ele>
        <time>2019-12-28T12:55:30Z</time>
      </trkpt>
      <trkpt lat="45.23555" lon="6.02324">
        <ele>2351.7</ele>
        <time>2019-12-28T12:55:36Z</time>
      </trkpt>
      <trkpt lat="45.23558" lon="6.02326">
        <ele>2351.7</ele>
        <time>2019-12-28T12:55:40Z</time>
      </trkpt>
      <trkpt lat="45.23558" lon="6.02322">
        <ele>2352.2</ele>
        <time>2019-12-28T12:56:04Z</time>
      </trkpt>
      <trkpt lat="45.23557" lon="6.02318">
        <ele>2352.6</ele>
        <time>2019-12-28T12:56:07Z</time>
      </trkpt>
      <trkpt lat="45.2356" lon="6.02319">
        <ele>2353</ele>
        <time>2019-12-28T12:56:24Z</time>
      </trkpt>
      <trkpt lat="45.23563" lon="6.02319">
        <ele>2353.4</ele>
        <time>2019-12-28T12:56:29Z</time>
      </trkpt>
      <trkpt lat="45.23563" lon="6.02314">
        <ele>2353.5</ele>
        <time>2019-12-28T12:56:55Z</time>
      </trkpt>
      <trkpt lat="45.23561" lon="6.02311">
        <ele>2353.3</ele>
        <time>2019-12-28T12:57:06Z</time>
      </trkpt>
      <trkpt lat="45.23559" lon="6.02307">
        <ele>2353.3</ele>
        <time>2019-12-28T12:57:15Z</time>
      </trkpt>
      <trkpt lat="45.2356" lon="6.02304">
        <ele>2353.2</ele>
        <time>2019-12-28T12:57:29Z</time>
      </trkpt>
      <trkpt lat="45.23563" lon="6.02303">
        <ele>2353.3</ele>
        <time>2019-12-28T12:58:17Z</time>
      </trkpt>
      <trkpt lat="45.23563" lon="6.02301">
        <ele>2353</ele>
        <time>2019-12-28T13:05:29Z</time>
      </trkpt>
      <trkpt lat="45.23565" lon="6.02298">
        <ele>2352.9</ele>
        <time>2019-12-28T13:05:39Z</time>
      </trkpt>
      <trkpt lat="45.23567" lon="6.02301">
        <ele>2353.1</ele>
        <time>2019-12-28T13:06:07Z</time>
      </trkpt>
      <trkpt lat="45.23567" lon="6.02296">
        <ele>2352.8</ele>
        <time>2019-12-28T13:06:27Z</time>
      </trkpt>
      <trkpt lat="45.23566" lon="6.02291">
        <ele>2352.5</ele>
        <time>2019-12-28T13:06:35Z</time>
      </trkpt>
      <trkpt lat="45.23566" lon="6.02287">
        <ele>2352.1</ele>
        <time>2019-12-28T13:06:40Z</time>
      </trkpt>
      <trkpt lat="45.23569" lon="6.02286">
        <ele>2351.7</ele>
        <time>2019-12-28T13:07:27Z</time>
      </trkpt>
      <trkpt lat="45.23573" lon="6.02285">
        <ele>2351.7</ele>
        <time>2019-12-28T13:07:33Z</time>
      </trkpt>
      <trkpt lat="45.23576" lon="6.02287">
        <ele>2352.2</ele>
        <time>2019-12-28T13:07:36Z</time>
      </trkpt>
      <trkpt lat="45.23579" lon="6.02292">
        <ele>2352.7</ele>
        <time>2019-12-28T13:07:41Z</time>
      </trkpt>
      <trkpt lat="45.2358" lon="6.02296">
        <ele>2353.2</ele>
        <time>2019-12-28T13:07:49Z</time>
      </trkpt>
      <trkpt lat="45.23582" lon="6.02299">
        <ele>2353.1</ele>
        <time>2019-12-28T13:07:54Z</time>
      </trkpt>
    </trkseg>
  </trk>
</gpx>